<?xml version="1.0" encoding="UTF-8" standalone="no" ?>
<gpx xmlns="http://www.topografix.com/GPX/1/1" xmlns:xsi="http://www.w3.org/2001/XMLSchema-instance" xsi:schemaLocation="http://www.topografix.com/GPX/1/1 http://www.topografix.com/GPX/1/1/gpx.xsd" version="1.1" creator="VisuGPX - https://www.visugpx.com">
  <metadata>
    <name>2016/06/03 tandem (bleu LB): Molsheim -&gt; Strasbourg</name>
    <desc><![CDATA[après-repas rythmée par les rencontres]]></desc>
  </metadata>
  <trk>
    <name><![CDATA[2016/06/03 tandem(bleu+LB): Molsheim -> Strasbourg]]></name>
    <trkseg>
      <trkpt lat="48.5421" lon="7.49231">
        <ele>181.6</ele>
        <time>2016-06-03T12:09:37Z</time>
      </trkpt>
      <trkpt lat="48.5421" lon="7.49231">
        <ele>181.6</ele>
        <time>2016-06-03T12:09:38Z</time>
      </trkpt>
      <trkpt lat="48.54212" lon="7.49237">
        <ele>181.4</ele>
        <time>2016-06-03T12:09:46Z</time>
      </trkpt>
      <trkpt lat="48.54225" lon="7.49258">
        <ele>180.6</ele>
        <time>2016-06-03T12:09:55Z</time>
      </trkpt>
      <trkpt lat="48.54238" lon="7.49277">
        <ele>180.1</ele>
        <time>2016-06-03T12:10:03Z</time>
      </trkpt>
      <trkpt lat="48.54253" lon="7.49294">
        <ele>179.9</ele>
        <time>2016-06-03T12:10:10Z</time>
      </trkpt>
      <trkpt lat="48.54269" lon="7.4931">
        <ele>179.6</ele>
        <time>2016-06-03T12:10:17Z</time>
      </trkpt>
      <trkpt lat="48.54286" lon="7.49322">
        <ele>179.4</ele>
        <time>2016-06-03T12:10:25Z</time>
      </trkpt>
      <trkpt lat="48.54303" lon="7.49339">
        <ele>179.7</ele>
        <time>2016-06-03T12:10:31Z</time>
      </trkpt>
      <trkpt lat="48.54318" lon="7.49359">
        <ele>180.1</ele>
        <time>2016-06-03T12:10:36Z</time>
      </trkpt>
      <trkpt lat="48.54334" lon="7.49378">
        <ele>180.4</ele>
        <time>2016-06-03T12:10:41Z</time>
      </trkpt>
      <trkpt lat="48.54349" lon="7.49397">
        <ele>179.9</ele>
        <time>2016-06-03T12:10:46Z</time>
      </trkpt>
      <trkpt lat="48.54363" lon="7.49416">
        <ele>179.1</ele>
        <time>2016-06-03T12:10:51Z</time>
      </trkpt>
      <trkpt lat="48.54377" lon="7.49434">
        <ele>178.2</ele>
        <time>2016-06-03T12:10:57Z</time>
      </trkpt>
      <trkpt lat="48.54393" lon="7.49453">
        <ele>177.6</ele>
        <time>2016-06-03T12:11:03Z</time>
      </trkpt>
      <trkpt lat="48.54405" lon="7.49479">
        <ele>177.4</ele>
        <time>2016-06-03T12:11:08Z</time>
      </trkpt>
      <trkpt lat="48.54415" lon="7.49508">
        <ele>177.1</ele>
        <time>2016-06-03T12:11:13Z</time>
      </trkpt>
      <trkpt lat="48.54423" lon="7.49533">
        <ele>176.7</ele>
        <time>2016-06-03T12:11:18Z</time>
      </trkpt>
      <trkpt lat="48.54427" lon="7.49561">
        <ele>176.8</ele>
        <time>2016-06-03T12:11:24Z</time>
      </trkpt>
      <trkpt lat="48.54427" lon="7.49592">
        <ele>177.2</ele>
        <time>2016-06-03T12:11:32Z</time>
      </trkpt>
      <trkpt lat="48.54419" lon="7.49618">
        <ele>177.4</ele>
        <time>2016-06-03T12:11:38Z</time>
      </trkpt>
      <trkpt lat="48.54413" lon="7.49643">
        <ele>177.5</ele>
        <time>2016-06-03T12:11:44Z</time>
      </trkpt>
      <trkpt lat="48.54406" lon="7.49668">
        <ele>177.5</ele>
        <time>2016-06-03T12:11:49Z</time>
      </trkpt>
      <trkpt lat="48.54399" lon="7.49697">
        <ele>177.7</ele>
        <time>2016-06-03T12:11:54Z</time>
      </trkpt>
      <trkpt lat="48.54389" lon="7.49728">
        <ele>177.6</ele>
        <time>2016-06-03T12:11:59Z</time>
      </trkpt>
      <trkpt lat="48.54382" lon="7.49756">
        <ele>177.4</ele>
        <time>2016-06-03T12:12:03Z</time>
      </trkpt>
      <trkpt lat="48.54379" lon="7.49771">
        <ele>177.2</ele>
        <time>2016-06-03T12:12:05Z</time>
      </trkpt>
      <trkpt lat="48.54372" lon="7.49799">
        <ele>176.8</ele>
        <time>2016-06-03T12:12:09Z</time>
      </trkpt>
      <trkpt lat="48.54365" lon="7.49826">
        <ele>176</ele>
        <time>2016-06-03T12:12:16Z</time>
      </trkpt>
      <trkpt lat="48.54355" lon="7.4984">
        <ele>175.6</ele>
        <time>2016-06-03T12:12:22Z</time>
      </trkpt>
      <trkpt lat="48.54338" lon="7.4983">
        <ele>175.6</ele>
        <time>2016-06-03T12:12:27Z</time>
      </trkpt>
      <trkpt lat="48.54319" lon="7.49818">
        <ele>175.4</ele>
        <time>2016-06-03T12:12:32Z</time>
      </trkpt>
      <trkpt lat="48.54301" lon="7.49807">
        <ele>175.2</ele>
        <time>2016-06-03T12:12:37Z</time>
      </trkpt>
      <trkpt lat="48.54283" lon="7.49797">
        <ele>175.2</ele>
        <time>2016-06-03T12:12:43Z</time>
      </trkpt>
      <trkpt lat="48.54273" lon="7.49792">
        <ele>175.5</ele>
        <time>2016-06-03T12:12:48Z</time>
      </trkpt>
      <trkpt lat="48.54268" lon="7.49805">
        <ele>175.5</ele>
        <time>2016-06-03T12:12:55Z</time>
      </trkpt>
      <trkpt lat="48.54278" lon="7.49825">
        <ele>175.3</ele>
        <time>2016-06-03T12:13:13Z</time>
      </trkpt>
      <trkpt lat="48.54282" lon="7.4983">
        <ele>175.2</ele>
        <time>2016-06-03T12:14:20Z</time>
      </trkpt>
      <trkpt lat="48.54293" lon="7.49854">
        <ele>175</ele>
        <time>2016-06-03T12:14:31Z</time>
      </trkpt>
      <trkpt lat="48.54293" lon="7.49862">
        <ele>175</ele>
        <time>2016-06-03T12:14:34Z</time>
      </trkpt>
      <trkpt lat="48.54275" lon="7.49877">
        <ele>175.2</ele>
        <time>2016-06-03T12:14:43Z</time>
      </trkpt>
      <trkpt lat="48.54259" lon="7.49895">
        <ele>175.4</ele>
        <time>2016-06-03T12:14:49Z</time>
      </trkpt>
      <trkpt lat="48.54241" lon="7.49908">
        <ele>175.5</ele>
        <time>2016-06-03T12:14:54Z</time>
      </trkpt>
      <trkpt lat="48.54222" lon="7.49911">
        <ele>175.5</ele>
        <time>2016-06-03T12:14:59Z</time>
      </trkpt>
      <trkpt lat="48.54203" lon="7.49915">
        <ele>175.3</ele>
        <time>2016-06-03T12:15:04Z</time>
      </trkpt>
      <trkpt lat="48.54184" lon="7.49912">
        <ele>174.5</ele>
        <time>2016-06-03T12:15:09Z</time>
      </trkpt>
      <trkpt lat="48.54164" lon="7.49905">
        <ele>173.9</ele>
        <time>2016-06-03T12:15:15Z</time>
      </trkpt>
      <trkpt lat="48.54147" lon="7.49891">
        <ele>173.5</ele>
        <time>2016-06-03T12:15:22Z</time>
      </trkpt>
      <trkpt lat="48.54145" lon="7.49893">
        <ele>173.3</ele>
        <time>2016-06-03T12:15:23Z</time>
      </trkpt>
      <trkpt lat="48.54141" lon="7.49911">
        <ele>172.8</ele>
        <time>2016-06-03T12:15:27Z</time>
      </trkpt>
      <trkpt lat="48.54135" lon="7.49937">
        <ele>172</ele>
        <time>2016-06-03T12:15:32Z</time>
      </trkpt>
      <trkpt lat="48.54127" lon="7.49963">
        <ele>171.1</ele>
        <time>2016-06-03T12:15:37Z</time>
      </trkpt>
      <trkpt lat="48.54122" lon="7.49985">
        <ele>171</ele>
        <time>2016-06-03T12:15:41Z</time>
      </trkpt>
      <trkpt lat="48.54117" lon="7.50015">
        <ele>171.1</ele>
        <time>2016-06-03T12:15:46Z</time>
      </trkpt>
      <trkpt lat="48.54109" lon="7.50039">
        <ele>171.2</ele>
        <time>2016-06-03T12:15:51Z</time>
      </trkpt>
      <trkpt lat="48.54098" lon="7.50063">
        <ele>171.8</ele>
        <time>2016-06-03T12:15:57Z</time>
      </trkpt>
      <trkpt lat="48.54088" lon="7.5009">
        <ele>172.6</ele>
        <time>2016-06-03T12:16:04Z</time>
      </trkpt>
      <trkpt lat="48.54079" lon="7.50114">
        <ele>173.3</ele>
        <time>2016-06-03T12:16:10Z</time>
      </trkpt>
      <trkpt lat="48.54078" lon="7.5013">
        <ele>173.5</ele>
        <time>2016-06-03T12:16:13Z</time>
      </trkpt>
      <trkpt lat="48.54093" lon="7.50145">
        <ele>173.1</ele>
        <time>2016-06-03T12:16:17Z</time>
      </trkpt>
      <trkpt lat="48.54113" lon="7.50152">
        <ele>172.8</ele>
        <time>2016-06-03T12:16:21Z</time>
      </trkpt>
      <trkpt lat="48.54126" lon="7.50156">
        <ele>172.6</ele>
        <time>2016-06-03T12:16:24Z</time>
      </trkpt>
      <trkpt lat="48.54143" lon="7.50164">
        <ele>172.2</ele>
        <time>2016-06-03T12:16:28Z</time>
      </trkpt>
      <trkpt lat="48.54161" lon="7.50176">
        <ele>171.7</ele>
        <time>2016-06-03T12:16:33Z</time>
      </trkpt>
      <trkpt lat="48.5418" lon="7.50192">
        <ele>171</ele>
        <time>2016-06-03T12:16:38Z</time>
      </trkpt>
      <trkpt lat="48.54195" lon="7.50208">
        <ele>170.3</ele>
        <time>2016-06-03T12:16:42Z</time>
      </trkpt>
      <trkpt lat="48.54212" lon="7.50223">
        <ele>170</ele>
        <time>2016-06-03T12:16:46Z</time>
      </trkpt>
      <trkpt lat="48.5423" lon="7.50238">
        <ele>169.8</ele>
        <time>2016-06-03T12:16:50Z</time>
      </trkpt>
      <trkpt lat="48.54248" lon="7.50254">
        <ele>169.5</ele>
        <time>2016-06-03T12:16:54Z</time>
      </trkpt>
      <trkpt lat="48.54268" lon="7.50269">
        <ele>169</ele>
        <time>2016-06-03T12:16:58Z</time>
      </trkpt>
      <trkpt lat="48.54286" lon="7.50284">
        <ele>168.3</ele>
        <time>2016-06-03T12:17:02Z</time>
      </trkpt>
      <trkpt lat="48.54304" lon="7.50298">
        <ele>169</ele>
        <time>2016-06-03T12:17:06Z</time>
      </trkpt>
      <trkpt lat="48.54321" lon="7.50312">
        <ele>170.2</ele>
        <time>2016-06-03T12:17:10Z</time>
      </trkpt>
      <trkpt lat="48.54337" lon="7.50325">
        <ele>171.3</ele>
        <time>2016-06-03T12:17:14Z</time>
      </trkpt>
      <trkpt lat="48.54356" lon="7.5034">
        <ele>172.2</ele>
        <time>2016-06-03T12:17:19Z</time>
      </trkpt>
      <trkpt lat="48.54367" lon="7.50363">
        <ele>172.8</ele>
        <time>2016-06-03T12:17:25Z</time>
      </trkpt>
      <trkpt lat="48.54357" lon="7.50391">
        <ele>172.5</ele>
        <time>2016-06-03T12:17:31Z</time>
      </trkpt>
      <trkpt lat="48.54341" lon="7.50412">
        <ele>172.1</ele>
        <time>2016-06-03T12:17:36Z</time>
      </trkpt>
      <trkpt lat="48.54327" lon="7.50433">
        <ele>172</ele>
        <time>2016-06-03T12:17:41Z</time>
      </trkpt>
      <trkpt lat="48.5431" lon="7.50451">
        <ele>172</ele>
        <time>2016-06-03T12:17:47Z</time>
      </trkpt>
      <trkpt lat="48.54294" lon="7.5047">
        <ele>172.3</ele>
        <time>2016-06-03T12:17:54Z</time>
      </trkpt>
      <trkpt lat="48.5428" lon="7.50487">
        <ele>172.8</ele>
        <time>2016-06-03T12:17:59Z</time>
      </trkpt>
      <trkpt lat="48.54265" lon="7.50506">
        <ele>173.3</ele>
        <time>2016-06-03T12:18:05Z</time>
      </trkpt>
      <trkpt lat="48.54258" lon="7.5053">
        <ele>173.8</ele>
        <time>2016-06-03T12:18:14Z</time>
      </trkpt>
      <trkpt lat="48.54256" lon="7.50557">
        <ele>174.1</ele>
        <time>2016-06-03T12:18:23Z</time>
      </trkpt>
      <trkpt lat="48.54269" lon="7.50583">
        <ele>174.4</ele>
        <time>2016-06-03T12:18:30Z</time>
      </trkpt>
      <trkpt lat="48.54282" lon="7.50608">
        <ele>174.7</ele>
        <time>2016-06-03T12:18:36Z</time>
      </trkpt>
      <trkpt lat="48.54294" lon="7.50629">
        <ele>174.9</ele>
        <time>2016-06-03T12:18:42Z</time>
      </trkpt>
      <trkpt lat="48.54312" lon="7.50646">
        <ele>174.3</ele>
        <time>2016-06-03T12:18:49Z</time>
      </trkpt>
      <trkpt lat="48.54327" lon="7.50665">
        <ele>173.9</ele>
        <time>2016-06-03T12:18:54Z</time>
      </trkpt>
      <trkpt lat="48.54344" lon="7.50682">
        <ele>173.5</ele>
        <time>2016-06-03T12:18:59Z</time>
      </trkpt>
      <trkpt lat="48.54358" lon="7.507">
        <ele>173.2</ele>
        <time>2016-06-03T12:19:04Z</time>
      </trkpt>
      <trkpt lat="48.54372" lon="7.50719">
        <ele>173.2</ele>
        <time>2016-06-03T12:19:09Z</time>
      </trkpt>
      <trkpt lat="48.54387" lon="7.50738">
        <ele>173.4</ele>
        <time>2016-06-03T12:19:14Z</time>
      </trkpt>
      <trkpt lat="48.54403" lon="7.5076">
        <ele>173.6</ele>
        <time>2016-06-03T12:19:19Z</time>
      </trkpt>
      <trkpt lat="48.54418" lon="7.50781">
        <ele>173.9</ele>
        <time>2016-06-03T12:19:24Z</time>
      </trkpt>
      <trkpt lat="48.54432" lon="7.50803">
        <ele>174.1</ele>
        <time>2016-06-03T12:19:30Z</time>
      </trkpt>
      <trkpt lat="48.54445" lon="7.50825">
        <ele>174.3</ele>
        <time>2016-06-03T12:19:35Z</time>
      </trkpt>
      <trkpt lat="48.54461" lon="7.50847">
        <ele>174.6</ele>
        <time>2016-06-03T12:19:40Z</time>
      </trkpt>
      <trkpt lat="48.54477" lon="7.50872">
        <ele>174.5</ele>
        <time>2016-06-03T12:19:45Z</time>
      </trkpt>
      <trkpt lat="48.54491" lon="7.50892">
        <ele>173.7</ele>
        <time>2016-06-03T12:19:49Z</time>
      </trkpt>
      <trkpt lat="48.54504" lon="7.50912">
        <ele>172.8</ele>
        <time>2016-06-03T12:19:53Z</time>
      </trkpt>
      <trkpt lat="48.54518" lon="7.50937">
        <ele>171.6</ele>
        <time>2016-06-03T12:19:58Z</time>
      </trkpt>
      <trkpt lat="48.54531" lon="7.50961">
        <ele>170.4</ele>
        <time>2016-06-03T12:20:03Z</time>
      </trkpt>
      <trkpt lat="48.54541" lon="7.50986">
        <ele>170.7</ele>
        <time>2016-06-03T12:20:10Z</time>
      </trkpt>
      <trkpt lat="48.54554" lon="7.51008">
        <ele>170.7</ele>
        <time>2016-06-03T12:20:17Z</time>
      </trkpt>
      <trkpt lat="48.54571" lon="7.51028">
        <ele>170.4</ele>
        <time>2016-06-03T12:20:23Z</time>
      </trkpt>
      <trkpt lat="48.54586" lon="7.51046">
        <ele>170</ele>
        <time>2016-06-03T12:20:27Z</time>
      </trkpt>
      <trkpt lat="48.54603" lon="7.51067">
        <ele>170</ele>
        <time>2016-06-03T12:20:31Z</time>
      </trkpt>
      <trkpt lat="48.54618" lon="7.51088">
        <ele>170.4</ele>
        <time>2016-06-03T12:20:35Z</time>
      </trkpt>
      <trkpt lat="48.54635" lon="7.51109">
        <ele>171.1</ele>
        <time>2016-06-03T12:20:39Z</time>
      </trkpt>
      <trkpt lat="48.54652" lon="7.5113">
        <ele>171.4</ele>
        <time>2016-06-03T12:20:43Z</time>
      </trkpt>
      <trkpt lat="48.54666" lon="7.51151">
        <ele>171</ele>
        <time>2016-06-03T12:20:47Z</time>
      </trkpt>
      <trkpt lat="48.54682" lon="7.51171">
        <ele>170.6</ele>
        <time>2016-06-03T12:20:51Z</time>
      </trkpt>
      <trkpt lat="48.54697" lon="7.5119">
        <ele>170.3</ele>
        <time>2016-06-03T12:20:55Z</time>
      </trkpt>
      <trkpt lat="48.54712" lon="7.5121">
        <ele>170</ele>
        <time>2016-06-03T12:20:59Z</time>
      </trkpt>
      <trkpt lat="48.54726" lon="7.51229">
        <ele>169.6</ele>
        <time>2016-06-03T12:21:03Z</time>
      </trkpt>
      <trkpt lat="48.54741" lon="7.51251">
        <ele>169.2</ele>
        <time>2016-06-03T12:21:08Z</time>
      </trkpt>
      <trkpt lat="48.54747" lon="7.51259">
        <ele>169.1</ele>
        <time>2016-06-03T12:21:10Z</time>
      </trkpt>
      <trkpt lat="48.54761" lon="7.51277">
        <ele>168.9</ele>
        <time>2016-06-03T12:21:14Z</time>
      </trkpt>
      <trkpt lat="48.54774" lon="7.51297">
        <ele>168.7</ele>
        <time>2016-06-03T12:21:18Z</time>
      </trkpt>
      <trkpt lat="48.54789" lon="7.51316">
        <ele>168.7</ele>
        <time>2016-06-03T12:21:22Z</time>
      </trkpt>
      <trkpt lat="48.54804" lon="7.51334">
        <ele>168.4</ele>
        <time>2016-06-03T12:21:26Z</time>
      </trkpt>
      <trkpt lat="48.54819" lon="7.51353">
        <ele>167.9</ele>
        <time>2016-06-03T12:21:31Z</time>
      </trkpt>
      <trkpt lat="48.54834" lon="7.51372">
        <ele>167.5</ele>
        <time>2016-06-03T12:21:37Z</time>
      </trkpt>
      <trkpt lat="48.54847" lon="7.51397">
        <ele>167.1</ele>
        <time>2016-06-03T12:21:43Z</time>
      </trkpt>
      <trkpt lat="48.54852" lon="7.51425">
        <ele>166.7</ele>
        <time>2016-06-03T12:21:49Z</time>
      </trkpt>
      <trkpt lat="48.54859" lon="7.51454">
        <ele>166.2</ele>
        <time>2016-06-03T12:21:58Z</time>
      </trkpt>
      <trkpt lat="48.54876" lon="7.51469">
        <ele>166</ele>
        <time>2016-06-03T12:22:06Z</time>
      </trkpt>
      <trkpt lat="48.54883" lon="7.51474">
        <ele>166.1</ele>
        <time>2016-06-03T12:22:08Z</time>
      </trkpt>
      <trkpt lat="48.54899" lon="7.51481">
        <ele>166.2</ele>
        <time>2016-06-03T12:22:12Z</time>
      </trkpt>
      <trkpt lat="48.54914" lon="7.51492">
        <ele>166.3</ele>
        <time>2016-06-03T12:22:16Z</time>
      </trkpt>
      <trkpt lat="48.54931" lon="7.51508">
        <ele>166.3</ele>
        <time>2016-06-03T12:22:20Z</time>
      </trkpt>
      <trkpt lat="48.54945" lon="7.51528">
        <ele>166.1</ele>
        <time>2016-06-03T12:22:24Z</time>
      </trkpt>
      <trkpt lat="48.54957" lon="7.51549">
        <ele>166.1</ele>
        <time>2016-06-03T12:22:28Z</time>
      </trkpt>
      <trkpt lat="48.5497" lon="7.51571">
        <ele>166.6</ele>
        <time>2016-06-03T12:22:32Z</time>
      </trkpt>
      <trkpt lat="48.54982" lon="7.51592">
        <ele>167</ele>
        <time>2016-06-03T12:22:36Z</time>
      </trkpt>
      <trkpt lat="48.54993" lon="7.51614">
        <ele>167.3</ele>
        <time>2016-06-03T12:22:40Z</time>
      </trkpt>
      <trkpt lat="48.55007" lon="7.5164">
        <ele>167.4</ele>
        <time>2016-06-03T12:22:44Z</time>
      </trkpt>
      <trkpt lat="48.55019" lon="7.51665">
        <ele>167</ele>
        <time>2016-06-03T12:22:48Z</time>
      </trkpt>
      <trkpt lat="48.5503" lon="7.51689">
        <ele>166.5</ele>
        <time>2016-06-03T12:22:52Z</time>
      </trkpt>
      <trkpt lat="48.55041" lon="7.51713">
        <ele>166.1</ele>
        <time>2016-06-03T12:22:56Z</time>
      </trkpt>
      <trkpt lat="48.55052" lon="7.5174">
        <ele>166.3</ele>
        <time>2016-06-03T12:23:01Z</time>
      </trkpt>
      <trkpt lat="48.55063" lon="7.51768">
        <ele>166.5</ele>
        <time>2016-06-03T12:23:06Z</time>
      </trkpt>
      <trkpt lat="48.55073" lon="7.51793">
        <ele>166.6</ele>
        <time>2016-06-03T12:23:10Z</time>
      </trkpt>
      <trkpt lat="48.55083" lon="7.51819">
        <ele>166.7</ele>
        <time>2016-06-03T12:23:14Z</time>
      </trkpt>
      <trkpt lat="48.5509" lon="7.51844">
        <ele>166.9</ele>
        <time>2016-06-03T12:23:18Z</time>
      </trkpt>
      <trkpt lat="48.55098" lon="7.51869">
        <ele>167.3</ele>
        <time>2016-06-03T12:23:22Z</time>
      </trkpt>
      <trkpt lat="48.55106" lon="7.51895">
        <ele>167.2</ele>
        <time>2016-06-03T12:23:26Z</time>
      </trkpt>
      <trkpt lat="48.55114" lon="7.5192">
        <ele>166.9</ele>
        <time>2016-06-03T12:23:30Z</time>
      </trkpt>
      <trkpt lat="48.55122" lon="7.51946">
        <ele>166.3</ele>
        <time>2016-06-03T12:23:34Z</time>
      </trkpt>
      <trkpt lat="48.5513" lon="7.51972">
        <ele>165.7</ele>
        <time>2016-06-03T12:23:38Z</time>
      </trkpt>
      <trkpt lat="48.55138" lon="7.51999">
        <ele>165.1</ele>
        <time>2016-06-03T12:23:42Z</time>
      </trkpt>
      <trkpt lat="48.55146" lon="7.52026">
        <ele>164.6</ele>
        <time>2016-06-03T12:23:46Z</time>
      </trkpt>
      <trkpt lat="48.55155" lon="7.52053">
        <ele>164.4</ele>
        <time>2016-06-03T12:23:50Z</time>
      </trkpt>
      <trkpt lat="48.55163" lon="7.5208">
        <ele>164.7</ele>
        <time>2016-06-03T12:23:54Z</time>
      </trkpt>
      <trkpt lat="48.55171" lon="7.52107">
        <ele>164.9</ele>
        <time>2016-06-03T12:23:58Z</time>
      </trkpt>
      <trkpt lat="48.55179" lon="7.52135">
        <ele>165</ele>
        <time>2016-06-03T12:24:02Z</time>
      </trkpt>
      <trkpt lat="48.55187" lon="7.52162">
        <ele>165.1</ele>
        <time>2016-06-03T12:24:06Z</time>
      </trkpt>
      <trkpt lat="48.55196" lon="7.52188">
        <ele>165.1</ele>
        <time>2016-06-03T12:24:10Z</time>
      </trkpt>
      <trkpt lat="48.55205" lon="7.52217">
        <ele>165</ele>
        <time>2016-06-03T12:24:15Z</time>
      </trkpt>
      <trkpt lat="48.55215" lon="7.52245">
        <ele>164.9</ele>
        <time>2016-06-03T12:24:20Z</time>
      </trkpt>
      <trkpt lat="48.55227" lon="7.52272">
        <ele>165.1</ele>
        <time>2016-06-03T12:24:25Z</time>
      </trkpt>
      <trkpt lat="48.5524" lon="7.52299">
        <ele>165.4</ele>
        <time>2016-06-03T12:24:30Z</time>
      </trkpt>
      <trkpt lat="48.55254" lon="7.52322">
        <ele>165.6</ele>
        <time>2016-06-03T12:24:35Z</time>
      </trkpt>
      <trkpt lat="48.55269" lon="7.52344">
        <ele>165.7</ele>
        <time>2016-06-03T12:24:40Z</time>
      </trkpt>
      <trkpt lat="48.55286" lon="7.52366">
        <ele>165.9</ele>
        <time>2016-06-03T12:24:45Z</time>
      </trkpt>
      <trkpt lat="48.553" lon="7.52385">
        <ele>165.9</ele>
        <time>2016-06-03T12:24:49Z</time>
      </trkpt>
      <trkpt lat="48.55315" lon="7.52404">
        <ele>165.8</ele>
        <time>2016-06-03T12:24:53Z</time>
      </trkpt>
      <trkpt lat="48.5533" lon="7.52422">
        <ele>165.7</ele>
        <time>2016-06-03T12:24:57Z</time>
      </trkpt>
      <trkpt lat="48.55344" lon="7.5244">
        <ele>165.7</ele>
        <time>2016-06-03T12:25:01Z</time>
      </trkpt>
      <trkpt lat="48.55359" lon="7.52458">
        <ele>165.8</ele>
        <time>2016-06-03T12:25:05Z</time>
      </trkpt>
      <trkpt lat="48.55375" lon="7.5248">
        <ele>166.2</ele>
        <time>2016-06-03T12:25:10Z</time>
      </trkpt>
      <trkpt lat="48.55391" lon="7.52499">
        <ele>166.2</ele>
        <time>2016-06-03T12:25:15Z</time>
      </trkpt>
      <trkpt lat="48.55407" lon="7.52518">
        <ele>166.1</ele>
        <time>2016-06-03T12:25:20Z</time>
      </trkpt>
      <trkpt lat="48.55423" lon="7.52539">
        <ele>165.8</ele>
        <time>2016-06-03T12:25:25Z</time>
      </trkpt>
      <trkpt lat="48.55439" lon="7.52557">
        <ele>165.2</ele>
        <time>2016-06-03T12:25:30Z</time>
      </trkpt>
      <trkpt lat="48.55453" lon="7.52576">
        <ele>164.7</ele>
        <time>2016-06-03T12:25:35Z</time>
      </trkpt>
      <trkpt lat="48.55468" lon="7.52593">
        <ele>164.3</ele>
        <time>2016-06-03T12:25:39Z</time>
      </trkpt>
      <trkpt lat="48.55484" lon="7.52612">
        <ele>164.1</ele>
        <time>2016-06-03T12:25:43Z</time>
      </trkpt>
      <trkpt lat="48.555" lon="7.52632">
        <ele>164.1</ele>
        <time>2016-06-03T12:25:47Z</time>
      </trkpt>
      <trkpt lat="48.55516" lon="7.52651">
        <ele>164.4</ele>
        <time>2016-06-03T12:25:51Z</time>
      </trkpt>
      <trkpt lat="48.55532" lon="7.5267">
        <ele>165</ele>
        <time>2016-06-03T12:25:55Z</time>
      </trkpt>
      <trkpt lat="48.55547" lon="7.52691">
        <ele>165.6</ele>
        <time>2016-06-03T12:25:59Z</time>
      </trkpt>
      <trkpt lat="48.55559" lon="7.52716">
        <ele>165.9</ele>
        <time>2016-06-03T12:26:03Z</time>
      </trkpt>
      <trkpt lat="48.55571" lon="7.52741">
        <ele>165.6</ele>
        <time>2016-06-03T12:26:07Z</time>
      </trkpt>
      <trkpt lat="48.55585" lon="7.52754">
        <ele>165.5</ele>
        <time>2016-06-03T12:26:11Z</time>
      </trkpt>
      <trkpt lat="48.55598" lon="7.52772">
        <ele>165.2</ele>
        <time>2016-06-03T12:26:16Z</time>
      </trkpt>
      <trkpt lat="48.55619" lon="7.52779">
        <ele>165.2</ele>
        <time>2016-06-03T12:26:22Z</time>
      </trkpt>
      <trkpt lat="48.55637" lon="7.52796">
        <ele>164.4</ele>
        <time>2016-06-03T12:26:26Z</time>
      </trkpt>
      <trkpt lat="48.55653" lon="7.5281">
        <ele>163.9</ele>
        <time>2016-06-03T12:26:29Z</time>
      </trkpt>
      <trkpt lat="48.55669" lon="7.52823">
        <ele>163.5</ele>
        <time>2016-06-03T12:26:32Z</time>
      </trkpt>
      <trkpt lat="48.55686" lon="7.52834">
        <ele>163.2</ele>
        <time>2016-06-03T12:26:35Z</time>
      </trkpt>
      <trkpt lat="48.55704" lon="7.52844">
        <ele>163</ele>
        <time>2016-06-03T12:26:38Z</time>
      </trkpt>
      <trkpt lat="48.55721" lon="7.52853">
        <ele>162.9</ele>
        <time>2016-06-03T12:26:41Z</time>
      </trkpt>
      <trkpt lat="48.55744" lon="7.52865">
        <ele>162.8</ele>
        <time>2016-06-03T12:26:45Z</time>
      </trkpt>
      <trkpt lat="48.55764" lon="7.52872">
        <ele>162.6</ele>
        <time>2016-06-03T12:26:49Z</time>
      </trkpt>
      <trkpt lat="48.55787" lon="7.52881">
        <ele>162.2</ele>
        <time>2016-06-03T12:26:53Z</time>
      </trkpt>
      <trkpt lat="48.55806" lon="7.52887">
        <ele>161.9</ele>
        <time>2016-06-03T12:26:56Z</time>
      </trkpt>
      <trkpt lat="48.55824" lon="7.52893">
        <ele>161.7</ele>
        <time>2016-06-03T12:26:59Z</time>
      </trkpt>
      <trkpt lat="48.55842" lon="7.52898">
        <ele>161.3</ele>
        <time>2016-06-03T12:27:02Z</time>
      </trkpt>
      <trkpt lat="48.55865" lon="7.52906">
        <ele>161</ele>
        <time>2016-06-03T12:27:06Z</time>
      </trkpt>
      <trkpt lat="48.55887" lon="7.52913">
        <ele>161.1</ele>
        <time>2016-06-03T12:27:10Z</time>
      </trkpt>
      <trkpt lat="48.55909" lon="7.52918">
        <ele>161.4</ele>
        <time>2016-06-03T12:27:14Z</time>
      </trkpt>
      <trkpt lat="48.5593" lon="7.52924">
        <ele>161.8</ele>
        <time>2016-06-03T12:27:18Z</time>
      </trkpt>
      <trkpt lat="48.55951" lon="7.52931">
        <ele>162.3</ele>
        <time>2016-06-03T12:27:22Z</time>
      </trkpt>
      <trkpt lat="48.55972" lon="7.52939">
        <ele>162.7</ele>
        <time>2016-06-03T12:27:26Z</time>
      </trkpt>
      <trkpt lat="48.55993" lon="7.52944">
        <ele>163.1</ele>
        <time>2016-06-03T12:27:30Z</time>
      </trkpt>
      <trkpt lat="48.56015" lon="7.52951">
        <ele>163.6</ele>
        <time>2016-06-03T12:27:34Z</time>
      </trkpt>
      <trkpt lat="48.56036" lon="7.52959">
        <ele>163.9</ele>
        <time>2016-06-03T12:27:38Z</time>
      </trkpt>
      <trkpt lat="48.56052" lon="7.52965">
        <ele>164</ele>
        <time>2016-06-03T12:27:41Z</time>
      </trkpt>
      <trkpt lat="48.56074" lon="7.52974">
        <ele>164.2</ele>
        <time>2016-06-03T12:27:45Z</time>
      </trkpt>
      <trkpt lat="48.56096" lon="7.52983">
        <ele>164.6</ele>
        <time>2016-06-03T12:27:49Z</time>
      </trkpt>
      <trkpt lat="48.56116" lon="7.52992">
        <ele>165.1</ele>
        <time>2016-06-03T12:27:53Z</time>
      </trkpt>
      <trkpt lat="48.56135" lon="7.52999">
        <ele>165.5</ele>
        <time>2016-06-03T12:27:57Z</time>
      </trkpt>
      <trkpt lat="48.56155" lon="7.53008">
        <ele>165.9</ele>
        <time>2016-06-03T12:28:02Z</time>
      </trkpt>
      <trkpt lat="48.56173" lon="7.53016">
        <ele>166</ele>
        <time>2016-06-03T12:28:07Z</time>
      </trkpt>
      <trkpt lat="48.56191" lon="7.53023">
        <ele>166.1</ele>
        <time>2016-06-03T12:28:13Z</time>
      </trkpt>
      <trkpt lat="48.56215" lon="7.53021">
        <ele>165.9</ele>
        <time>2016-06-03T12:28:18Z</time>
      </trkpt>
      <trkpt lat="48.56235" lon="7.53017">
        <ele>165.3</ele>
        <time>2016-06-03T12:28:22Z</time>
      </trkpt>
      <trkpt lat="48.56255" lon="7.53015">
        <ele>164.7</ele>
        <time>2016-06-03T12:28:26Z</time>
      </trkpt>
      <trkpt lat="48.56274" lon="7.53011">
        <ele>164</ele>
        <time>2016-06-03T12:28:30Z</time>
      </trkpt>
      <trkpt lat="48.56293" lon="7.53007">
        <ele>163.3</ele>
        <time>2016-06-03T12:28:34Z</time>
      </trkpt>
      <trkpt lat="48.56311" lon="7.53002">
        <ele>163.1</ele>
        <time>2016-06-03T12:28:38Z</time>
      </trkpt>
      <trkpt lat="48.56333" lon="7.53">
        <ele>163</ele>
        <time>2016-06-03T12:28:43Z</time>
      </trkpt>
      <trkpt lat="48.56338" lon="7.52999">
        <ele>163</ele>
        <time>2016-06-03T12:28:44Z</time>
      </trkpt>
      <trkpt lat="48.56354" lon="7.52988">
        <ele>163.1</ele>
        <time>2016-06-03T12:28:48Z</time>
      </trkpt>
      <trkpt lat="48.56359" lon="7.52986">
        <ele>163.1</ele>
        <time>2016-06-03T12:28:49Z</time>
      </trkpt>
      <trkpt lat="48.56377" lon="7.52978">
        <ele>163.5</ele>
        <time>2016-06-03T12:28:53Z</time>
      </trkpt>
      <trkpt lat="48.56387" lon="7.52974">
        <ele>163.3</ele>
        <time>2016-06-03T12:28:55Z</time>
      </trkpt>
      <trkpt lat="48.56406" lon="7.52967">
        <ele>163</ele>
        <time>2016-06-03T12:28:59Z</time>
      </trkpt>
      <trkpt lat="48.56425" lon="7.52964">
        <ele>162.7</ele>
        <time>2016-06-03T12:29:03Z</time>
      </trkpt>
      <trkpt lat="48.56443" lon="7.52956">
        <ele>162.4</ele>
        <time>2016-06-03T12:29:08Z</time>
      </trkpt>
      <trkpt lat="48.56463" lon="7.52947">
        <ele>162.4</ele>
        <time>2016-06-03T12:29:14Z</time>
      </trkpt>
      <trkpt lat="48.56475" lon="7.52944">
        <ele>162.6</ele>
        <time>2016-06-03T12:29:17Z</time>
      </trkpt>
      <trkpt lat="48.56491" lon="7.52946">
        <ele>162.9</ele>
        <time>2016-06-03T12:29:21Z</time>
      </trkpt>
      <trkpt lat="48.56513" lon="7.52941">
        <ele>163.3</ele>
        <time>2016-06-03T12:29:26Z</time>
      </trkpt>
      <trkpt lat="48.56523" lon="7.52938">
        <ele>163.5</ele>
        <time>2016-06-03T12:29:28Z</time>
      </trkpt>
      <trkpt lat="48.56543" lon="7.52927">
        <ele>163.6</ele>
        <time>2016-06-03T12:29:33Z</time>
      </trkpt>
      <trkpt lat="48.56561" lon="7.52921">
        <ele>163.2</ele>
        <time>2016-06-03T12:29:37Z</time>
      </trkpt>
      <trkpt lat="48.5658" lon="7.52919">
        <ele>162.8</ele>
        <time>2016-06-03T12:29:41Z</time>
      </trkpt>
      <trkpt lat="48.56601" lon="7.52914">
        <ele>162.4</ele>
        <time>2016-06-03T12:29:46Z</time>
      </trkpt>
      <trkpt lat="48.56605" lon="7.52913">
        <ele>162.3</ele>
        <time>2016-06-03T12:29:47Z</time>
      </trkpt>
      <trkpt lat="48.56619" lon="7.5291">
        <ele>162.1</ele>
        <time>2016-06-03T12:29:50Z</time>
      </trkpt>
      <trkpt lat="48.56637" lon="7.52895">
        <ele>162</ele>
        <time>2016-06-03T12:29:55Z</time>
      </trkpt>
      <trkpt lat="48.56641" lon="7.52892">
        <ele>162</ele>
        <time>2016-06-03T12:29:56Z</time>
      </trkpt>
      <trkpt lat="48.56663" lon="7.52885">
        <ele>161.9</ele>
        <time>2016-06-03T12:30:01Z</time>
      </trkpt>
      <trkpt lat="48.56681" lon="7.5288">
        <ele>162</ele>
        <time>2016-06-03T12:30:07Z</time>
      </trkpt>
      <trkpt lat="48.56696" lon="7.52884">
        <ele>161.9</ele>
        <time>2016-06-03T12:30:13Z</time>
      </trkpt>
      <trkpt lat="48.56696" lon="7.52906">
        <ele>161.7</ele>
        <time>2016-06-03T12:30:17Z</time>
      </trkpt>
      <trkpt lat="48.56693" lon="7.52938">
        <ele>161.4</ele>
        <time>2016-06-03T12:30:22Z</time>
      </trkpt>
      <trkpt lat="48.5669" lon="7.52965">
        <ele>161.1</ele>
        <time>2016-06-03T12:30:26Z</time>
      </trkpt>
      <trkpt lat="48.56686" lon="7.52993">
        <ele>160.7</ele>
        <time>2016-06-03T12:30:30Z</time>
      </trkpt>
      <trkpt lat="48.56683" lon="7.53024">
        <ele>160.3</ele>
        <time>2016-06-03T12:30:34Z</time>
      </trkpt>
      <trkpt lat="48.56678" lon="7.53058">
        <ele>160.2</ele>
        <time>2016-06-03T12:30:38Z</time>
      </trkpt>
      <trkpt lat="48.56674" lon="7.53092">
        <ele>160.5</ele>
        <time>2016-06-03T12:30:42Z</time>
      </trkpt>
      <trkpt lat="48.56672" lon="7.53127">
        <ele>160.7</ele>
        <time>2016-06-03T12:30:46Z</time>
      </trkpt>
      <trkpt lat="48.56668" lon="7.5316">
        <ele>161</ele>
        <time>2016-06-03T12:30:50Z</time>
      </trkpt>
      <trkpt lat="48.56666" lon="7.53192">
        <ele>161.3</ele>
        <time>2016-06-03T12:30:54Z</time>
      </trkpt>
      <trkpt lat="48.56661" lon="7.53221">
        <ele>161.4</ele>
        <time>2016-06-03T12:30:58Z</time>
      </trkpt>
      <trkpt lat="48.56658" lon="7.53252">
        <ele>161.6</ele>
        <time>2016-06-03T12:31:02Z</time>
      </trkpt>
      <trkpt lat="48.56656" lon="7.53281">
        <ele>161.7</ele>
        <time>2016-06-03T12:31:06Z</time>
      </trkpt>
      <trkpt lat="48.5665" lon="7.53296">
        <ele>161.5</ele>
        <time>2016-06-03T12:31:08Z</time>
      </trkpt>
      <trkpt lat="48.56646" lon="7.53326">
        <ele>161.5</ele>
        <time>2016-06-03T12:31:12Z</time>
      </trkpt>
      <trkpt lat="48.56645" lon="7.53359">
        <ele>161.6</ele>
        <time>2016-06-03T12:31:16Z</time>
      </trkpt>
      <trkpt lat="48.56647" lon="7.53392">
        <ele>161.9</ele>
        <time>2016-06-03T12:31:20Z</time>
      </trkpt>
      <trkpt lat="48.56648" lon="7.5342">
        <ele>162.1</ele>
        <time>2016-06-03T12:31:23Z</time>
      </trkpt>
      <trkpt lat="48.56652" lon="7.53452">
        <ele>162.3</ele>
        <time>2016-06-03T12:31:26Z</time>
      </trkpt>
      <trkpt lat="48.56659" lon="7.53486">
        <ele>162.7</ele>
        <time>2016-06-03T12:31:29Z</time>
      </trkpt>
      <trkpt lat="48.56664" lon="7.53519">
        <ele>163.2</ele>
        <time>2016-06-03T12:31:32Z</time>
      </trkpt>
      <trkpt lat="48.56669" lon="7.53552">
        <ele>163.6</ele>
        <time>2016-06-03T12:31:35Z</time>
      </trkpt>
      <trkpt lat="48.56674" lon="7.53583">
        <ele>163.8</ele>
        <time>2016-06-03T12:31:38Z</time>
      </trkpt>
      <trkpt lat="48.56679" lon="7.53611">
        <ele>163.9</ele>
        <time>2016-06-03T12:31:41Z</time>
      </trkpt>
      <trkpt lat="48.56684" lon="7.53638">
        <ele>163.6</ele>
        <time>2016-06-03T12:31:44Z</time>
      </trkpt>
      <trkpt lat="48.56693" lon="7.53671">
        <ele>162.7</ele>
        <time>2016-06-03T12:31:48Z</time>
      </trkpt>
      <trkpt lat="48.56701" lon="7.53696">
        <ele>162.1</ele>
        <time>2016-06-03T12:31:51Z</time>
      </trkpt>
      <trkpt lat="48.5671" lon="7.53729">
        <ele>161.7</ele>
        <time>2016-06-03T12:31:55Z</time>
      </trkpt>
      <trkpt lat="48.56718" lon="7.53755">
        <ele>161.2</ele>
        <time>2016-06-03T12:31:58Z</time>
      </trkpt>
      <trkpt lat="48.56728" lon="7.53783">
        <ele>160.8</ele>
        <time>2016-06-03T12:32:01Z</time>
      </trkpt>
      <trkpt lat="48.56734" lon="7.53811">
        <ele>160.4</ele>
        <time>2016-06-03T12:32:04Z</time>
      </trkpt>
      <trkpt lat="48.56738" lon="7.5384">
        <ele>159.9</ele>
        <time>2016-06-03T12:32:07Z</time>
      </trkpt>
      <trkpt lat="48.5674" lon="7.53868">
        <ele>159.5</ele>
        <time>2016-06-03T12:32:10Z</time>
      </trkpt>
      <trkpt lat="48.56741" lon="7.53886">
        <ele>159.8</ele>
        <time>2016-06-03T12:32:12Z</time>
      </trkpt>
      <trkpt lat="48.5674" lon="7.53917">
        <ele>160.8</ele>
        <time>2016-06-03T12:32:16Z</time>
      </trkpt>
      <trkpt lat="48.56739" lon="7.53939">
        <ele>161.6</ele>
        <time>2016-06-03T12:32:19Z</time>
      </trkpt>
      <trkpt lat="48.56737" lon="7.5397">
        <ele>162.3</ele>
        <time>2016-06-03T12:32:23Z</time>
      </trkpt>
      <trkpt lat="48.56734" lon="7.54003">
        <ele>162.4</ele>
        <time>2016-06-03T12:32:27Z</time>
      </trkpt>
      <trkpt lat="48.56736" lon="7.54037">
        <ele>162.4</ele>
        <time>2016-06-03T12:32:31Z</time>
      </trkpt>
      <trkpt lat="48.56736" lon="7.5407">
        <ele>162.8</ele>
        <time>2016-06-03T12:32:35Z</time>
      </trkpt>
      <trkpt lat="48.56737" lon="7.54097">
        <ele>163.2</ele>
        <time>2016-06-03T12:32:38Z</time>
      </trkpt>
      <trkpt lat="48.5674" lon="7.54132">
        <ele>163.9</ele>
        <time>2016-06-03T12:32:42Z</time>
      </trkpt>
      <trkpt lat="48.56742" lon="7.54168">
        <ele>165.8</ele>
        <time>2016-06-03T12:32:46Z</time>
      </trkpt>
      <trkpt lat="48.56744" lon="7.54195">
        <ele>167.2</ele>
        <time>2016-06-03T12:32:49Z</time>
      </trkpt>
      <trkpt lat="48.56745" lon="7.54221">
        <ele>168.1</ele>
        <time>2016-06-03T12:32:52Z</time>
      </trkpt>
      <trkpt lat="48.56747" lon="7.54255">
        <ele>168.6</ele>
        <time>2016-06-03T12:32:56Z</time>
      </trkpt>
      <trkpt lat="48.56749" lon="7.54284">
        <ele>168.9</ele>
        <time>2016-06-03T12:32:59Z</time>
      </trkpt>
      <trkpt lat="48.56753" lon="7.54313">
        <ele>168.2</ele>
        <time>2016-06-03T12:33:02Z</time>
      </trkpt>
      <trkpt lat="48.56757" lon="7.54343">
        <ele>167.1</ele>
        <time>2016-06-03T12:33:05Z</time>
      </trkpt>
      <trkpt lat="48.56759" lon="7.54375">
        <ele>166.2</ele>
        <time>2016-06-03T12:33:08Z</time>
      </trkpt>
      <trkpt lat="48.56759" lon="7.54407">
        <ele>165.1</ele>
        <time>2016-06-03T12:33:11Z</time>
      </trkpt>
      <trkpt lat="48.56759" lon="7.54437">
        <ele>164.1</ele>
        <time>2016-06-03T12:33:14Z</time>
      </trkpt>
      <trkpt lat="48.56758" lon="7.54467">
        <ele>163.5</ele>
        <time>2016-06-03T12:33:17Z</time>
      </trkpt>
      <trkpt lat="48.56758" lon="7.54498">
        <ele>163.9</ele>
        <time>2016-06-03T12:33:20Z</time>
      </trkpt>
      <trkpt lat="48.56757" lon="7.54528">
        <ele>164.3</ele>
        <time>2016-06-03T12:33:23Z</time>
      </trkpt>
      <trkpt lat="48.56758" lon="7.54558">
        <ele>164.7</ele>
        <time>2016-06-03T12:33:26Z</time>
      </trkpt>
      <trkpt lat="48.5676" lon="7.54588">
        <ele>164.8</ele>
        <time>2016-06-03T12:33:29Z</time>
      </trkpt>
      <trkpt lat="48.56761" lon="7.54619">
        <ele>165.1</ele>
        <time>2016-06-03T12:33:32Z</time>
      </trkpt>
      <trkpt lat="48.5676" lon="7.5465">
        <ele>165.9</ele>
        <time>2016-06-03T12:33:35Z</time>
      </trkpt>
      <trkpt lat="48.56758" lon="7.54679">
        <ele>166.9</ele>
        <time>2016-06-03T12:33:38Z</time>
      </trkpt>
      <trkpt lat="48.56755" lon="7.54707">
        <ele>167.9</ele>
        <time>2016-06-03T12:33:41Z</time>
      </trkpt>
      <trkpt lat="48.56753" lon="7.54737">
        <ele>166.8</ele>
        <time>2016-06-03T12:33:44Z</time>
      </trkpt>
      <trkpt lat="48.56748" lon="7.5477">
        <ele>165.7</ele>
        <time>2016-06-03T12:33:48Z</time>
      </trkpt>
      <trkpt lat="48.5674" lon="7.54796">
        <ele>165.1</ele>
        <time>2016-06-03T12:33:51Z</time>
      </trkpt>
      <trkpt lat="48.5673" lon="7.5482">
        <ele>164.4</ele>
        <time>2016-06-03T12:33:54Z</time>
      </trkpt>
      <trkpt lat="48.56718" lon="7.54845">
        <ele>163.6</ele>
        <time>2016-06-03T12:33:57Z</time>
      </trkpt>
      <trkpt lat="48.56708" lon="7.54868">
        <ele>162.5</ele>
        <time>2016-06-03T12:34:00Z</time>
      </trkpt>
      <trkpt lat="48.56697" lon="7.54891">
        <ele>162</ele>
        <time>2016-06-03T12:34:03Z</time>
      </trkpt>
      <trkpt lat="48.56682" lon="7.54918">
        <ele>162.1</ele>
        <time>2016-06-03T12:34:07Z</time>
      </trkpt>
      <trkpt lat="48.56665" lon="7.54941">
        <ele>162.7</ele>
        <time>2016-06-03T12:34:11Z</time>
      </trkpt>
      <trkpt lat="48.56649" lon="7.54962">
        <ele>163.5</ele>
        <time>2016-06-03T12:34:15Z</time>
      </trkpt>
      <trkpt lat="48.56634" lon="7.54985">
        <ele>164.1</ele>
        <time>2016-06-03T12:34:20Z</time>
      </trkpt>
      <trkpt lat="48.56619" lon="7.55002">
        <ele>164.7</ele>
        <time>2016-06-03T12:34:24Z</time>
      </trkpt>
      <trkpt lat="48.56601" lon="7.5502">
        <ele>165</ele>
        <time>2016-06-03T12:34:28Z</time>
      </trkpt>
      <trkpt lat="48.56583" lon="7.5504">
        <ele>165.5</ele>
        <time>2016-06-03T12:34:32Z</time>
      </trkpt>
      <trkpt lat="48.56568" lon="7.55058">
        <ele>165.5</ele>
        <time>2016-06-03T12:34:35Z</time>
      </trkpt>
      <trkpt lat="48.56564" lon="7.55064">
        <ele>165.5</ele>
        <time>2016-06-03T12:34:36Z</time>
      </trkpt>
      <trkpt lat="48.56552" lon="7.55086">
        <ele>165.5</ele>
        <time>2016-06-03T12:34:39Z</time>
      </trkpt>
      <trkpt lat="48.56539" lon="7.55116">
        <ele>165.1</ele>
        <time>2016-06-03T12:34:43Z</time>
      </trkpt>
      <trkpt lat="48.56531" lon="7.55149">
        <ele>163.8</ele>
        <time>2016-06-03T12:34:47Z</time>
      </trkpt>
      <trkpt lat="48.56524" lon="7.55181">
        <ele>162.7</ele>
        <time>2016-06-03T12:34:51Z</time>
      </trkpt>
      <trkpt lat="48.56518" lon="7.55215">
        <ele>162</ele>
        <time>2016-06-03T12:34:55Z</time>
      </trkpt>
      <trkpt lat="48.56515" lon="7.55248">
        <ele>162.2</ele>
        <time>2016-06-03T12:34:59Z</time>
      </trkpt>
      <trkpt lat="48.56511" lon="7.5528">
        <ele>162.3</ele>
        <time>2016-06-03T12:35:03Z</time>
      </trkpt>
      <trkpt lat="48.56509" lon="7.55311">
        <ele>162.1</ele>
        <time>2016-06-03T12:35:07Z</time>
      </trkpt>
      <trkpt lat="48.56503" lon="7.55319">
        <ele>162</ele>
        <time>2016-06-03T12:35:08Z</time>
      </trkpt>
      <trkpt lat="48.56493" lon="7.55352">
        <ele>161.4</ele>
        <time>2016-06-03T12:35:12Z</time>
      </trkpt>
      <trkpt lat="48.56483" lon="7.55378">
        <ele>161</ele>
        <time>2016-06-03T12:35:15Z</time>
      </trkpt>
      <trkpt lat="48.56473" lon="7.55402">
        <ele>160.8</ele>
        <time>2016-06-03T12:35:18Z</time>
      </trkpt>
      <trkpt lat="48.56461" lon="7.55432">
        <ele>160.9</ele>
        <time>2016-06-03T12:35:22Z</time>
      </trkpt>
      <trkpt lat="48.5645" lon="7.55458">
        <ele>161.4</ele>
        <time>2016-06-03T12:35:26Z</time>
      </trkpt>
      <trkpt lat="48.5644" lon="7.55485">
        <ele>161.6</ele>
        <time>2016-06-03T12:35:30Z</time>
      </trkpt>
      <trkpt lat="48.5643" lon="7.5551">
        <ele>161.7</ele>
        <time>2016-06-03T12:35:34Z</time>
      </trkpt>
      <trkpt lat="48.5642" lon="7.55536">
        <ele>161.9</ele>
        <time>2016-06-03T12:35:38Z</time>
      </trkpt>
      <trkpt lat="48.56409" lon="7.55565">
        <ele>162</ele>
        <time>2016-06-03T12:35:42Z</time>
      </trkpt>
      <trkpt lat="48.56396" lon="7.55593">
        <ele>162.1</ele>
        <time>2016-06-03T12:35:46Z</time>
      </trkpt>
      <trkpt lat="48.56383" lon="7.55623">
        <ele>161.9</ele>
        <time>2016-06-03T12:35:50Z</time>
      </trkpt>
      <trkpt lat="48.56373" lon="7.55655">
        <ele>161.7</ele>
        <time>2016-06-03T12:35:54Z</time>
      </trkpt>
      <trkpt lat="48.56367" lon="7.55681">
        <ele>161.7</ele>
        <time>2016-06-03T12:35:57Z</time>
      </trkpt>
      <trkpt lat="48.56362" lon="7.55716">
        <ele>161.4</ele>
        <time>2016-06-03T12:36:01Z</time>
      </trkpt>
      <trkpt lat="48.56362" lon="7.55725">
        <ele>161.4</ele>
        <time>2016-06-03T12:36:02Z</time>
      </trkpt>
      <trkpt lat="48.56364" lon="7.55759">
        <ele>161.1</ele>
        <time>2016-06-03T12:36:06Z</time>
      </trkpt>
      <trkpt lat="48.56368" lon="7.55794">
        <ele>161</ele>
        <time>2016-06-03T12:36:10Z</time>
      </trkpt>
      <trkpt lat="48.5637" lon="7.55828">
        <ele>161.4</ele>
        <time>2016-06-03T12:36:14Z</time>
      </trkpt>
      <trkpt lat="48.56371" lon="7.55853">
        <ele>161.7</ele>
        <time>2016-06-03T12:36:17Z</time>
      </trkpt>
      <trkpt lat="48.56373" lon="7.55887">
        <ele>161.8</ele>
        <time>2016-06-03T12:36:21Z</time>
      </trkpt>
      <trkpt lat="48.56371" lon="7.55921">
        <ele>161.4</ele>
        <time>2016-06-03T12:36:25Z</time>
      </trkpt>
      <trkpt lat="48.56372" lon="7.55955">
        <ele>161</ele>
        <time>2016-06-03T12:36:29Z</time>
      </trkpt>
      <trkpt lat="48.56372" lon="7.55988">
        <ele>160.3</ele>
        <time>2016-06-03T12:36:33Z</time>
      </trkpt>
      <trkpt lat="48.56371" lon="7.56022">
        <ele>159.4</ele>
        <time>2016-06-03T12:36:37Z</time>
      </trkpt>
      <trkpt lat="48.56367" lon="7.56054">
        <ele>159</ele>
        <time>2016-06-03T12:36:41Z</time>
      </trkpt>
      <trkpt lat="48.56366" lon="7.56061">
        <ele>159.1</ele>
        <time>2016-06-03T12:36:42Z</time>
      </trkpt>
      <trkpt lat="48.5635" lon="7.56084">
        <ele>159.1</ele>
        <time>2016-06-03T12:36:45Z</time>
      </trkpt>
      <trkpt lat="48.56341" lon="7.56095">
        <ele>159</ele>
        <time>2016-06-03T12:36:47Z</time>
      </trkpt>
      <trkpt lat="48.56323" lon="7.56117">
        <ele>158.7</ele>
        <time>2016-06-03T12:36:51Z</time>
      </trkpt>
      <trkpt lat="48.56307" lon="7.56139">
        <ele>158.4</ele>
        <time>2016-06-03T12:36:55Z</time>
      </trkpt>
      <trkpt lat="48.5629" lon="7.56163">
        <ele>158.5</ele>
        <time>2016-06-03T12:36:59Z</time>
      </trkpt>
      <trkpt lat="48.56274" lon="7.56187">
        <ele>158.7</ele>
        <time>2016-06-03T12:37:03Z</time>
      </trkpt>
      <trkpt lat="48.56258" lon="7.56209">
        <ele>158.6</ele>
        <time>2016-06-03T12:37:07Z</time>
      </trkpt>
      <trkpt lat="48.56241" lon="7.56233">
        <ele>157.9</ele>
        <time>2016-06-03T12:37:11Z</time>
      </trkpt>
      <trkpt lat="48.56224" lon="7.56256">
        <ele>157.4</ele>
        <time>2016-06-03T12:37:15Z</time>
      </trkpt>
      <trkpt lat="48.56207" lon="7.56275">
        <ele>157.3</ele>
        <time>2016-06-03T12:37:19Z</time>
      </trkpt>
      <trkpt lat="48.56189" lon="7.56294">
        <ele>158</ele>
        <time>2016-06-03T12:37:23Z</time>
      </trkpt>
      <trkpt lat="48.56168" lon="7.56312">
        <ele>159.1</ele>
        <time>2016-06-03T12:37:27Z</time>
      </trkpt>
      <trkpt lat="48.5615" lon="7.56332">
        <ele>160</ele>
        <time>2016-06-03T12:37:31Z</time>
      </trkpt>
      <trkpt lat="48.56135" lon="7.56353">
        <ele>160.6</ele>
        <time>2016-06-03T12:37:35Z</time>
      </trkpt>
      <trkpt lat="48.56122" lon="7.56371">
        <ele>161</ele>
        <time>2016-06-03T12:37:39Z</time>
      </trkpt>
      <trkpt lat="48.56108" lon="7.56393">
        <ele>160.6</ele>
        <time>2016-06-03T12:37:44Z</time>
      </trkpt>
      <trkpt lat="48.56092" lon="7.56413">
        <ele>160.1</ele>
        <time>2016-06-03T12:37:48Z</time>
      </trkpt>
      <trkpt lat="48.56076" lon="7.56435">
        <ele>159.6</ele>
        <time>2016-06-03T12:37:52Z</time>
      </trkpt>
      <trkpt lat="48.56059" lon="7.56457">
        <ele>159</ele>
        <time>2016-06-03T12:37:56Z</time>
      </trkpt>
      <trkpt lat="48.56042" lon="7.56478">
        <ele>159</ele>
        <time>2016-06-03T12:38:00Z</time>
      </trkpt>
      <trkpt lat="48.56026" lon="7.56498">
        <ele>158.5</ele>
        <time>2016-06-03T12:38:04Z</time>
      </trkpt>
      <trkpt lat="48.56009" lon="7.56516">
        <ele>158.1</ele>
        <time>2016-06-03T12:38:09Z</time>
      </trkpt>
      <trkpt lat="48.55991" lon="7.56535">
        <ele>157.7</ele>
        <time>2016-06-03T12:38:15Z</time>
      </trkpt>
      <trkpt lat="48.55976" lon="7.56553">
        <ele>157.5</ele>
        <time>2016-06-03T12:38:20Z</time>
      </trkpt>
      <trkpt lat="48.55958" lon="7.56572">
        <ele>157.4</ele>
        <time>2016-06-03T12:38:25Z</time>
      </trkpt>
      <trkpt lat="48.55942" lon="7.56588">
        <ele>157.5</ele>
        <time>2016-06-03T12:38:30Z</time>
      </trkpt>
      <trkpt lat="48.55926" lon="7.56606">
        <ele>157.7</ele>
        <time>2016-06-03T12:38:36Z</time>
      </trkpt>
      <trkpt lat="48.55913" lon="7.56628">
        <ele>158</ele>
        <time>2016-06-03T12:38:45Z</time>
      </trkpt>
      <trkpt lat="48.55902" lon="7.5665">
        <ele>158</ele>
        <time>2016-06-03T12:38:53Z</time>
      </trkpt>
      <trkpt lat="48.55894" lon="7.56677">
        <ele>158</ele>
        <time>2016-06-03T12:39:01Z</time>
      </trkpt>
      <trkpt lat="48.55887" lon="7.56703">
        <ele>158</ele>
        <time>2016-06-03T12:39:05Z</time>
      </trkpt>
      <trkpt lat="48.55885" lon="7.5671">
        <ele>158</ele>
        <time>2016-06-03T12:39:06Z</time>
      </trkpt>
      <trkpt lat="48.55876" lon="7.56734">
        <ele>157.7</ele>
        <time>2016-06-03T12:39:10Z</time>
      </trkpt>
      <trkpt lat="48.55868" lon="7.56759">
        <ele>157.5</ele>
        <time>2016-06-03T12:39:15Z</time>
      </trkpt>
      <trkpt lat="48.55859" lon="7.56789">
        <ele>157.4</ele>
        <time>2016-06-03T12:39:20Z</time>
      </trkpt>
      <trkpt lat="48.55852" lon="7.56815">
        <ele>157.6</ele>
        <time>2016-06-03T12:39:24Z</time>
      </trkpt>
      <trkpt lat="48.55842" lon="7.56844">
        <ele>157.8</ele>
        <time>2016-06-03T12:39:28Z</time>
      </trkpt>
      <trkpt lat="48.55834" lon="7.56873">
        <ele>158</ele>
        <time>2016-06-03T12:39:32Z</time>
      </trkpt>
      <trkpt lat="48.55827" lon="7.569">
        <ele>157.9</ele>
        <time>2016-06-03T12:39:36Z</time>
      </trkpt>
      <trkpt lat="48.55821" lon="7.56927">
        <ele>157.5</ele>
        <time>2016-06-03T12:39:40Z</time>
      </trkpt>
      <trkpt lat="48.55813" lon="7.56953">
        <ele>156.9</ele>
        <time>2016-06-03T12:39:44Z</time>
      </trkpt>
      <trkpt lat="48.55805" lon="7.56981">
        <ele>157</ele>
        <time>2016-06-03T12:39:48Z</time>
      </trkpt>
      <trkpt lat="48.55794" lon="7.57007">
        <ele>157.2</ele>
        <time>2016-06-03T12:39:52Z</time>
      </trkpt>
      <trkpt lat="48.55786" lon="7.57032">
        <ele>157.6</ele>
        <time>2016-06-03T12:39:56Z</time>
      </trkpt>
      <trkpt lat="48.55778" lon="7.57062">
        <ele>157.5</ele>
        <time>2016-06-03T12:40:01Z</time>
      </trkpt>
      <trkpt lat="48.55777" lon="7.57091">
        <ele>157.6</ele>
        <time>2016-06-03T12:40:06Z</time>
      </trkpt>
      <trkpt lat="48.55774" lon="7.57122">
        <ele>157.6</ele>
        <time>2016-06-03T12:40:11Z</time>
      </trkpt>
      <trkpt lat="48.5577" lon="7.5715">
        <ele>157.5</ele>
        <time>2016-06-03T12:40:15Z</time>
      </trkpt>
      <trkpt lat="48.55766" lon="7.57181">
        <ele>157.4</ele>
        <time>2016-06-03T12:40:19Z</time>
      </trkpt>
      <trkpt lat="48.55761" lon="7.57212">
        <ele>157.3</ele>
        <time>2016-06-03T12:40:23Z</time>
      </trkpt>
      <trkpt lat="48.55758" lon="7.57243">
        <ele>157.4</ele>
        <time>2016-06-03T12:40:27Z</time>
      </trkpt>
      <trkpt lat="48.55758" lon="7.57251">
        <ele>157.5</ele>
        <time>2016-06-03T12:40:28Z</time>
      </trkpt>
      <trkpt lat="48.55755" lon="7.57282">
        <ele>157.6</ele>
        <time>2016-06-03T12:40:32Z</time>
      </trkpt>
      <trkpt lat="48.55751" lon="7.5731">
        <ele>157.5</ele>
        <time>2016-06-03T12:40:36Z</time>
      </trkpt>
      <trkpt lat="48.5575" lon="7.57316">
        <ele>157.5</ele>
        <time>2016-06-03T12:40:37Z</time>
      </trkpt>
      <trkpt lat="48.55743" lon="7.57346">
        <ele>157.4</ele>
        <time>2016-06-03T12:40:41Z</time>
      </trkpt>
      <trkpt lat="48.55734" lon="7.57376">
        <ele>157.3</ele>
        <time>2016-06-03T12:40:45Z</time>
      </trkpt>
      <trkpt lat="48.55728" lon="7.57408">
        <ele>156.5</ele>
        <time>2016-06-03T12:40:49Z</time>
      </trkpt>
      <trkpt lat="48.55719" lon="7.5744">
        <ele>155.7</ele>
        <time>2016-06-03T12:40:53Z</time>
      </trkpt>
      <trkpt lat="48.55711" lon="7.57471">
        <ele>155.1</ele>
        <time>2016-06-03T12:40:57Z</time>
      </trkpt>
      <trkpt lat="48.55703" lon="7.57501">
        <ele>155.1</ele>
        <time>2016-06-03T12:41:01Z</time>
      </trkpt>
      <trkpt lat="48.55693" lon="7.57532">
        <ele>155.2</ele>
        <time>2016-06-03T12:41:05Z</time>
      </trkpt>
      <trkpt lat="48.55684" lon="7.57561">
        <ele>155.4</ele>
        <time>2016-06-03T12:41:09Z</time>
      </trkpt>
      <trkpt lat="48.55676" lon="7.57591">
        <ele>155.5</ele>
        <time>2016-06-03T12:41:13Z</time>
      </trkpt>
      <trkpt lat="48.55668" lon="7.5762">
        <ele>155.5</ele>
        <time>2016-06-03T12:41:17Z</time>
      </trkpt>
      <trkpt lat="48.55662" lon="7.57642">
        <ele>155.8</ele>
        <time>2016-06-03T12:41:20Z</time>
      </trkpt>
      <trkpt lat="48.55659" lon="7.57659">
        <ele>156.2</ele>
        <time>2016-06-03T12:41:22Z</time>
      </trkpt>
      <trkpt lat="48.5566" lon="7.57684">
        <ele>156.7</ele>
        <time>2016-06-03T12:41:25Z</time>
      </trkpt>
      <trkpt lat="48.55664" lon="7.57709">
        <ele>157.4</ele>
        <time>2016-06-03T12:41:28Z</time>
      </trkpt>
      <trkpt lat="48.5567" lon="7.57724">
        <ele>157.6</ele>
        <time>2016-06-03T12:41:30Z</time>
      </trkpt>
      <trkpt lat="48.55684" lon="7.57744">
        <ele>157.9</ele>
        <time>2016-06-03T12:41:33Z</time>
      </trkpt>
      <trkpt lat="48.557" lon="7.57769">
        <ele>158.1</ele>
        <time>2016-06-03T12:41:37Z</time>
      </trkpt>
      <trkpt lat="48.55712" lon="7.57796">
        <ele>158.2</ele>
        <time>2016-06-03T12:41:41Z</time>
      </trkpt>
      <trkpt lat="48.55721" lon="7.57825">
        <ele>158.4</ele>
        <time>2016-06-03T12:41:45Z</time>
      </trkpt>
      <trkpt lat="48.55731" lon="7.57852">
        <ele>158.6</ele>
        <time>2016-06-03T12:41:49Z</time>
      </trkpt>
      <trkpt lat="48.55739" lon="7.5788">
        <ele>158.7</ele>
        <time>2016-06-03T12:41:53Z</time>
      </trkpt>
      <trkpt lat="48.55745" lon="7.57911">
        <ele>157.9</ele>
        <time>2016-06-03T12:41:57Z</time>
      </trkpt>
      <trkpt lat="48.55752" lon="7.57941">
        <ele>156.9</ele>
        <time>2016-06-03T12:42:01Z</time>
      </trkpt>
      <trkpt lat="48.55759" lon="7.57973">
        <ele>156.5</ele>
        <time>2016-06-03T12:42:05Z</time>
      </trkpt>
      <trkpt lat="48.55764" lon="7.58006">
        <ele>157</ele>
        <time>2016-06-03T12:42:09Z</time>
      </trkpt>
      <trkpt lat="48.55774" lon="7.58037">
        <ele>157.9</ele>
        <time>2016-06-03T12:42:13Z</time>
      </trkpt>
      <trkpt lat="48.55782" lon="7.58068">
        <ele>158.4</ele>
        <time>2016-06-03T12:42:17Z</time>
      </trkpt>
      <trkpt lat="48.55791" lon="7.581">
        <ele>159</ele>
        <time>2016-06-03T12:42:21Z</time>
      </trkpt>
      <trkpt lat="48.55799" lon="7.58131">
        <ele>159.1</ele>
        <time>2016-06-03T12:42:25Z</time>
      </trkpt>
      <trkpt lat="48.55808" lon="7.58162">
        <ele>158.7</ele>
        <time>2016-06-03T12:42:29Z</time>
      </trkpt>
      <trkpt lat="48.55815" lon="7.58194">
        <ele>158.4</ele>
        <time>2016-06-03T12:42:33Z</time>
      </trkpt>
      <trkpt lat="48.55819" lon="7.58219">
        <ele>158.2</ele>
        <time>2016-06-03T12:42:36Z</time>
      </trkpt>
      <trkpt lat="48.55817" lon="7.58253">
        <ele>157.5</ele>
        <time>2016-06-03T12:42:40Z</time>
      </trkpt>
      <trkpt lat="48.55807" lon="7.58279">
        <ele>156.7</ele>
        <time>2016-06-03T12:42:44Z</time>
      </trkpt>
      <trkpt lat="48.55792" lon="7.58296">
        <ele>156</ele>
        <time>2016-06-03T12:42:47Z</time>
      </trkpt>
      <trkpt lat="48.55777" lon="7.58312">
        <ele>156</ele>
        <time>2016-06-03T12:42:50Z</time>
      </trkpt>
      <trkpt lat="48.55758" lon="7.58331">
        <ele>155.8</ele>
        <time>2016-06-03T12:42:54Z</time>
      </trkpt>
      <trkpt lat="48.55744" lon="7.58351">
        <ele>155.6</ele>
        <time>2016-06-03T12:42:58Z</time>
      </trkpt>
      <trkpt lat="48.55732" lon="7.58372">
        <ele>155.3</ele>
        <time>2016-06-03T12:43:02Z</time>
      </trkpt>
      <trkpt lat="48.55721" lon="7.58397">
        <ele>155.3</ele>
        <time>2016-06-03T12:43:06Z</time>
      </trkpt>
      <trkpt lat="48.55709" lon="7.58423">
        <ele>155.6</ele>
        <time>2016-06-03T12:43:10Z</time>
      </trkpt>
      <trkpt lat="48.55697" lon="7.58451">
        <ele>155.9</ele>
        <time>2016-06-03T12:43:14Z</time>
      </trkpt>
      <trkpt lat="48.55686" lon="7.58481">
        <ele>155.8</ele>
        <time>2016-06-03T12:43:18Z</time>
      </trkpt>
      <trkpt lat="48.55677" lon="7.58514">
        <ele>155.6</ele>
        <time>2016-06-03T12:43:22Z</time>
      </trkpt>
      <trkpt lat="48.55666" lon="7.58547">
        <ele>155.5</ele>
        <time>2016-06-03T12:43:26Z</time>
      </trkpt>
      <trkpt lat="48.55662" lon="7.58564">
        <ele>155.4</ele>
        <time>2016-06-03T12:43:28Z</time>
      </trkpt>
      <trkpt lat="48.55656" lon="7.5859">
        <ele>155.3</ele>
        <time>2016-06-03T12:43:31Z</time>
      </trkpt>
      <trkpt lat="48.5565" lon="7.58624">
        <ele>155</ele>
        <time>2016-06-03T12:43:35Z</time>
      </trkpt>
      <trkpt lat="48.55647" lon="7.58633">
        <ele>155</ele>
        <time>2016-06-03T12:43:36Z</time>
      </trkpt>
      <trkpt lat="48.5564" lon="7.58666">
        <ele>155.3</ele>
        <time>2016-06-03T12:43:40Z</time>
      </trkpt>
      <trkpt lat="48.55631" lon="7.58692">
        <ele>155.7</ele>
        <time>2016-06-03T12:43:43Z</time>
      </trkpt>
      <trkpt lat="48.55623" lon="7.58717">
        <ele>155.9</ele>
        <time>2016-06-03T12:43:46Z</time>
      </trkpt>
      <trkpt lat="48.55614" lon="7.58742">
        <ele>155.7</ele>
        <time>2016-06-03T12:43:49Z</time>
      </trkpt>
      <trkpt lat="48.55607" lon="7.58767">
        <ele>155.7</ele>
        <time>2016-06-03T12:43:52Z</time>
      </trkpt>
      <trkpt lat="48.55599" lon="7.58795">
        <ele>155.7</ele>
        <time>2016-06-03T12:43:56Z</time>
      </trkpt>
      <trkpt lat="48.55592" lon="7.58823">
        <ele>155.4</ele>
        <time>2016-06-03T12:44:01Z</time>
      </trkpt>
      <trkpt lat="48.55589" lon="7.58829">
        <ele>155.4</ele>
        <time>2016-06-03T12:44:02Z</time>
      </trkpt>
      <trkpt lat="48.55578" lon="7.58851">
        <ele>155</ele>
        <time>2016-06-03T12:44:06Z</time>
      </trkpt>
      <trkpt lat="48.55563" lon="7.58873">
        <ele>154.5</ele>
        <time>2016-06-03T12:44:10Z</time>
      </trkpt>
      <trkpt lat="48.55548" lon="7.58896">
        <ele>154.2</ele>
        <time>2016-06-03T12:44:14Z</time>
      </trkpt>
      <trkpt lat="48.55534" lon="7.58917">
        <ele>154.3</ele>
        <time>2016-06-03T12:44:18Z</time>
      </trkpt>
      <trkpt lat="48.55528" lon="7.58926">
        <ele>154.6</ele>
        <time>2016-06-03T12:44:20Z</time>
      </trkpt>
      <trkpt lat="48.55516" lon="7.58952">
        <ele>155.2</ele>
        <time>2016-06-03T12:44:26Z</time>
      </trkpt>
      <trkpt lat="48.55507" lon="7.58979">
        <ele>155.7</ele>
        <time>2016-06-03T12:44:36Z</time>
      </trkpt>
      <trkpt lat="48.55504" lon="7.58989">
        <ele>155.7</ele>
        <time>2016-06-03T12:44:41Z</time>
      </trkpt>
      <trkpt lat="48.55493" lon="7.5899">
        <ele>156</ele>
        <time>2016-06-03T12:44:46Z</time>
      </trkpt>
      <trkpt lat="48.55485" lon="7.58983">
        <ele>156.3</ele>
        <time>2016-06-03T12:44:50Z</time>
      </trkpt>
      <trkpt lat="48.55474" lon="7.58964">
        <ele>157.1</ele>
        <time>2016-06-03T12:44:59Z</time>
      </trkpt>
      <trkpt lat="48.55478" lon="7.58975">
        <ele>156.7</ele>
        <time>2016-06-03T12:45:05Z</time>
      </trkpt>
      <trkpt lat="48.55491" lon="7.58996">
        <ele>156</ele>
        <time>2016-06-03T12:45:15Z</time>
      </trkpt>
      <trkpt lat="48.55492" lon="7.58999">
        <ele>155.9</ele>
        <time>2016-06-03T12:45:16Z</time>
      </trkpt>
      <trkpt lat="48.55489" lon="7.59015">
        <ele>155.7</ele>
        <time>2016-06-03T12:45:20Z</time>
      </trkpt>
      <trkpt lat="48.55483" lon="7.59027">
        <ele>155.6</ele>
        <time>2016-06-03T12:45:22Z</time>
      </trkpt>
      <trkpt lat="48.55467" lon="7.59051">
        <ele>155.3</ele>
        <time>2016-06-03T12:45:26Z</time>
      </trkpt>
      <trkpt lat="48.55451" lon="7.59075">
        <ele>155.2</ele>
        <time>2016-06-03T12:45:30Z</time>
      </trkpt>
      <trkpt lat="48.55433" lon="7.59099">
        <ele>155.3</ele>
        <time>2016-06-03T12:45:34Z</time>
      </trkpt>
      <trkpt lat="48.55419" lon="7.59118">
        <ele>155.4</ele>
        <time>2016-06-03T12:45:37Z</time>
      </trkpt>
      <trkpt lat="48.55405" lon="7.59138">
        <ele>155.5</ele>
        <time>2016-06-03T12:45:40Z</time>
      </trkpt>
      <trkpt lat="48.55392" lon="7.59157">
        <ele>155</ele>
        <time>2016-06-03T12:45:43Z</time>
      </trkpt>
      <trkpt lat="48.55378" lon="7.59175">
        <ele>154</ele>
        <time>2016-06-03T12:45:46Z</time>
      </trkpt>
      <trkpt lat="48.55361" lon="7.59201">
        <ele>153.7</ele>
        <time>2016-06-03T12:45:50Z</time>
      </trkpt>
      <trkpt lat="48.55348" lon="7.5922">
        <ele>153.8</ele>
        <time>2016-06-03T12:45:53Z</time>
      </trkpt>
      <trkpt lat="48.55334" lon="7.59241">
        <ele>153.9</ele>
        <time>2016-06-03T12:45:56Z</time>
      </trkpt>
      <trkpt lat="48.55317" lon="7.59264">
        <ele>153.7</ele>
        <time>2016-06-03T12:45:59Z</time>
      </trkpt>
      <trkpt lat="48.55302" lon="7.59288">
        <ele>153.1</ele>
        <time>2016-06-03T12:46:02Z</time>
      </trkpt>
      <trkpt lat="48.55299" lon="7.59297">
        <ele>153.1</ele>
        <time>2016-06-03T12:46:03Z</time>
      </trkpt>
      <trkpt lat="48.55292" lon="7.59325">
        <ele>153.4</ele>
        <time>2016-06-03T12:46:06Z</time>
      </trkpt>
      <trkpt lat="48.55287" lon="7.59351">
        <ele>153.7</ele>
        <time>2016-06-03T12:46:09Z</time>
      </trkpt>
      <trkpt lat="48.55282" lon="7.59381">
        <ele>154</ele>
        <time>2016-06-03T12:46:13Z</time>
      </trkpt>
      <trkpt lat="48.55277" lon="7.5941">
        <ele>154.2</ele>
        <time>2016-06-03T12:46:17Z</time>
      </trkpt>
      <trkpt lat="48.55272" lon="7.59442">
        <ele>154.4</ele>
        <time>2016-06-03T12:46:21Z</time>
      </trkpt>
      <trkpt lat="48.55268" lon="7.59473">
        <ele>154.1</ele>
        <time>2016-06-03T12:46:25Z</time>
      </trkpt>
      <trkpt lat="48.55263" lon="7.59506">
        <ele>153.4</ele>
        <time>2016-06-03T12:46:29Z</time>
      </trkpt>
      <trkpt lat="48.55262" lon="7.59515">
        <ele>153.2</ele>
        <time>2016-06-03T12:46:30Z</time>
      </trkpt>
      <trkpt lat="48.55258" lon="7.59542">
        <ele>152.6</ele>
        <time>2016-06-03T12:46:33Z</time>
      </trkpt>
      <trkpt lat="48.55257" lon="7.59551">
        <ele>152.6</ele>
        <time>2016-06-03T12:46:34Z</time>
      </trkpt>
      <trkpt lat="48.5526" lon="7.59587">
        <ele>152.8</ele>
        <time>2016-06-03T12:46:38Z</time>
      </trkpt>
      <trkpt lat="48.55264" lon="7.5962">
        <ele>153</ele>
        <time>2016-06-03T12:46:42Z</time>
      </trkpt>
      <trkpt lat="48.55266" lon="7.59652">
        <ele>153</ele>
        <time>2016-06-03T12:46:46Z</time>
      </trkpt>
      <trkpt lat="48.55267" lon="7.59666">
        <ele>153</ele>
        <time>2016-06-03T12:46:48Z</time>
      </trkpt>
      <trkpt lat="48.55276" lon="7.59695">
        <ele>153</ele>
        <time>2016-06-03T12:46:52Z</time>
      </trkpt>
      <trkpt lat="48.55285" lon="7.59709">
        <ele>153</ele>
        <time>2016-06-03T12:46:54Z</time>
      </trkpt>
      <trkpt lat="48.55299" lon="7.59728">
        <ele>153.7</ele>
        <time>2016-06-03T12:46:57Z</time>
      </trkpt>
      <trkpt lat="48.55313" lon="7.59747">
        <ele>154.8</ele>
        <time>2016-06-03T12:47:00Z</time>
      </trkpt>
      <trkpt lat="48.55327" lon="7.59767">
        <ele>155.6</ele>
        <time>2016-06-03T12:47:03Z</time>
      </trkpt>
      <trkpt lat="48.5534" lon="7.59786">
        <ele>156.3</ele>
        <time>2016-06-03T12:47:06Z</time>
      </trkpt>
      <trkpt lat="48.55356" lon="7.59811">
        <ele>156.9</ele>
        <time>2016-06-03T12:47:10Z</time>
      </trkpt>
      <trkpt lat="48.55371" lon="7.59838">
        <ele>157.3</ele>
        <time>2016-06-03T12:47:14Z</time>
      </trkpt>
      <trkpt lat="48.55374" lon="7.59846">
        <ele>157.3</ele>
        <time>2016-06-03T12:47:15Z</time>
      </trkpt>
      <trkpt lat="48.55378" lon="7.5988">
        <ele>157</ele>
        <time>2016-06-03T12:47:19Z</time>
      </trkpt>
      <trkpt lat="48.55377" lon="7.59897">
        <ele>156.8</ele>
        <time>2016-06-03T12:47:21Z</time>
      </trkpt>
      <trkpt lat="48.55375" lon="7.59932">
        <ele>156.3</ele>
        <time>2016-06-03T12:47:25Z</time>
      </trkpt>
      <trkpt lat="48.55375" lon="7.59957">
        <ele>156</ele>
        <time>2016-06-03T12:47:28Z</time>
      </trkpt>
      <trkpt lat="48.55381" lon="7.5999">
        <ele>155.3</ele>
        <time>2016-06-03T12:47:32Z</time>
      </trkpt>
      <trkpt lat="48.55391" lon="7.60019">
        <ele>154.9</ele>
        <time>2016-06-03T12:47:36Z</time>
      </trkpt>
      <trkpt lat="48.55394" lon="7.60034">
        <ele>154.6</ele>
        <time>2016-06-03T12:47:38Z</time>
      </trkpt>
      <trkpt lat="48.55396" lon="7.60066">
        <ele>154.5</ele>
        <time>2016-06-03T12:47:42Z</time>
      </trkpt>
      <trkpt lat="48.55396" lon="7.60075">
        <ele>154.5</ele>
        <time>2016-06-03T12:47:43Z</time>
      </trkpt>
      <trkpt lat="48.55392" lon="7.6011">
        <ele>154.4</ele>
        <time>2016-06-03T12:47:47Z</time>
      </trkpt>
      <trkpt lat="48.55389" lon="7.60137">
        <ele>154.5</ele>
        <time>2016-06-03T12:47:50Z</time>
      </trkpt>
      <trkpt lat="48.55384" lon="7.60172">
        <ele>155.2</ele>
        <time>2016-06-03T12:47:54Z</time>
      </trkpt>
      <trkpt lat="48.55378" lon="7.60206">
        <ele>155.9</ele>
        <time>2016-06-03T12:47:58Z</time>
      </trkpt>
      <trkpt lat="48.55373" lon="7.60241">
        <ele>156.3</ele>
        <time>2016-06-03T12:48:02Z</time>
      </trkpt>
      <trkpt lat="48.55371" lon="7.60276">
        <ele>156.6</ele>
        <time>2016-06-03T12:48:06Z</time>
      </trkpt>
      <trkpt lat="48.55369" lon="7.60311">
        <ele>156.1</ele>
        <time>2016-06-03T12:48:10Z</time>
      </trkpt>
      <trkpt lat="48.55368" lon="7.60345">
        <ele>155</ele>
        <time>2016-06-03T12:48:14Z</time>
      </trkpt>
      <trkpt lat="48.55369" lon="7.6038">
        <ele>153.9</ele>
        <time>2016-06-03T12:48:18Z</time>
      </trkpt>
      <trkpt lat="48.55368" lon="7.60414">
        <ele>153.4</ele>
        <time>2016-06-03T12:48:22Z</time>
      </trkpt>
      <trkpt lat="48.55367" lon="7.60449">
        <ele>152.8</ele>
        <time>2016-06-03T12:48:26Z</time>
      </trkpt>
      <trkpt lat="48.55368" lon="7.60483">
        <ele>152.7</ele>
        <time>2016-06-03T12:48:30Z</time>
      </trkpt>
      <trkpt lat="48.55371" lon="7.60515">
        <ele>152.9</ele>
        <time>2016-06-03T12:48:34Z</time>
      </trkpt>
      <trkpt lat="48.55372" lon="7.60544">
        <ele>153</ele>
        <time>2016-06-03T12:48:38Z</time>
      </trkpt>
      <trkpt lat="48.55375" lon="7.60573">
        <ele>154.1</ele>
        <time>2016-06-03T12:48:42Z</time>
      </trkpt>
      <trkpt lat="48.55375" lon="7.60601">
        <ele>155.1</ele>
        <time>2016-06-03T12:48:46Z</time>
      </trkpt>
      <trkpt lat="48.55373" lon="7.60628">
        <ele>155.9</ele>
        <time>2016-06-03T12:48:50Z</time>
      </trkpt>
      <trkpt lat="48.55372" lon="7.60659">
        <ele>155.5</ele>
        <time>2016-06-03T12:48:55Z</time>
      </trkpt>
      <trkpt lat="48.55374" lon="7.60688">
        <ele>155.2</ele>
        <time>2016-06-03T12:48:59Z</time>
      </trkpt>
      <trkpt lat="48.55376" lon="7.60723">
        <ele>154.3</ele>
        <time>2016-06-03T12:49:03Z</time>
      </trkpt>
      <trkpt lat="48.55376" lon="7.60758">
        <ele>152.6</ele>
        <time>2016-06-03T12:49:07Z</time>
      </trkpt>
      <trkpt lat="48.55377" lon="7.60792">
        <ele>151.1</ele>
        <time>2016-06-03T12:49:11Z</time>
      </trkpt>
      <trkpt lat="48.55381" lon="7.60827">
        <ele>151.4</ele>
        <time>2016-06-03T12:49:15Z</time>
      </trkpt>
      <trkpt lat="48.55382" lon="7.60859">
        <ele>151.6</ele>
        <time>2016-06-03T12:49:19Z</time>
      </trkpt>
      <trkpt lat="48.55381" lon="7.60878">
        <ele>151.5</ele>
        <time>2016-06-03T12:49:22Z</time>
      </trkpt>
      <trkpt lat="48.55383" lon="7.60905">
        <ele>151</ele>
        <time>2016-06-03T12:49:26Z</time>
      </trkpt>
      <trkpt lat="48.55387" lon="7.60935">
        <ele>150.6</ele>
        <time>2016-06-03T12:49:30Z</time>
      </trkpt>
      <trkpt lat="48.55389" lon="7.60967">
        <ele>150.2</ele>
        <time>2016-06-03T12:49:34Z</time>
      </trkpt>
      <trkpt lat="48.55392" lon="7.60994">
        <ele>150.6</ele>
        <time>2016-06-03T12:49:37Z</time>
      </trkpt>
      <trkpt lat="48.55396" lon="7.61021">
        <ele>150.9</ele>
        <time>2016-06-03T12:49:40Z</time>
      </trkpt>
      <trkpt lat="48.554" lon="7.61054">
        <ele>151.3</ele>
        <time>2016-06-03T12:49:44Z</time>
      </trkpt>
      <trkpt lat="48.55402" lon="7.61063">
        <ele>151.4</ele>
        <time>2016-06-03T12:49:45Z</time>
      </trkpt>
      <trkpt lat="48.5541" lon="7.61088">
        <ele>151.6</ele>
        <time>2016-06-03T12:49:48Z</time>
      </trkpt>
      <trkpt lat="48.55421" lon="7.61112">
        <ele>151.6</ele>
        <time>2016-06-03T12:49:51Z</time>
      </trkpt>
      <trkpt lat="48.55431" lon="7.61144">
        <ele>150.7</ele>
        <time>2016-06-03T12:49:55Z</time>
      </trkpt>
      <trkpt lat="48.5544" lon="7.61176">
        <ele>149.5</ele>
        <time>2016-06-03T12:49:59Z</time>
      </trkpt>
      <trkpt lat="48.55451" lon="7.61208">
        <ele>148.2</ele>
        <time>2016-06-03T12:50:03Z</time>
      </trkpt>
      <trkpt lat="48.5546" lon="7.6124">
        <ele>148.4</ele>
        <time>2016-06-03T12:50:07Z</time>
      </trkpt>
      <trkpt lat="48.55469" lon="7.61268">
        <ele>149.1</ele>
        <time>2016-06-03T12:50:11Z</time>
      </trkpt>
      <trkpt lat="48.55477" lon="7.61292">
        <ele>149.4</ele>
        <time>2016-06-03T12:50:15Z</time>
      </trkpt>
      <trkpt lat="48.55482" lon="7.61319">
        <ele>149.8</ele>
        <time>2016-06-03T12:50:20Z</time>
      </trkpt>
      <trkpt lat="48.55489" lon="7.61347">
        <ele>150.1</ele>
        <time>2016-06-03T12:50:26Z</time>
      </trkpt>
      <trkpt lat="48.55493" lon="7.61376">
        <ele>150.5</ele>
        <time>2016-06-03T12:50:34Z</time>
      </trkpt>
      <trkpt lat="48.555" lon="7.61402">
        <ele>151.5</ele>
        <time>2016-06-03T12:50:42Z</time>
      </trkpt>
      <trkpt lat="48.55507" lon="7.61427">
        <ele>152.3</ele>
        <time>2016-06-03T12:50:57Z</time>
      </trkpt>
      <trkpt lat="48.5552" lon="7.61468">
        <ele>153.1</ele>
        <time>2016-06-03T13:03:51Z</time>
      </trkpt>
      <trkpt lat="48.55531" lon="7.61495">
        <ele>152.6</ele>
        <time>2016-06-03T13:03:59Z</time>
      </trkpt>
      <trkpt lat="48.5554" lon="7.61521">
        <ele>152.3</ele>
        <time>2016-06-03T13:04:05Z</time>
      </trkpt>
      <trkpt lat="48.55552" lon="7.61548">
        <ele>151.9</ele>
        <time>2016-06-03T13:04:11Z</time>
      </trkpt>
      <trkpt lat="48.55564" lon="7.6157">
        <ele>151.8</ele>
        <time>2016-06-03T13:04:17Z</time>
      </trkpt>
      <trkpt lat="48.55577" lon="7.61591">
        <ele>151.9</ele>
        <time>2016-06-03T13:04:23Z</time>
      </trkpt>
      <trkpt lat="48.55586" lon="7.61617">
        <ele>152.1</ele>
        <time>2016-06-03T13:04:29Z</time>
      </trkpt>
      <trkpt lat="48.55592" lon="7.61644">
        <ele>152.4</ele>
        <time>2016-06-03T13:04:35Z</time>
      </trkpt>
      <trkpt lat="48.55601" lon="7.61669">
        <ele>152.7</ele>
        <time>2016-06-03T13:04:42Z</time>
      </trkpt>
      <trkpt lat="48.55612" lon="7.61692">
        <ele>152.9</ele>
        <time>2016-06-03T13:04:50Z</time>
      </trkpt>
      <trkpt lat="48.5563" lon="7.61704">
        <ele>153</ele>
        <time>2016-06-03T13:04:58Z</time>
      </trkpt>
      <trkpt lat="48.55648" lon="7.61714">
        <ele>152.8</ele>
        <time>2016-06-03T13:05:08Z</time>
      </trkpt>
      <trkpt lat="48.5566" lon="7.61733">
        <ele>152.4</ele>
        <time>2016-06-03T13:05:20Z</time>
      </trkpt>
      <trkpt lat="48.55666" lon="7.61731">
        <ele>152.4</ele>
        <time>2016-06-03T13:05:26Z</time>
      </trkpt>
      <trkpt lat="48.55683" lon="7.61728">
        <ele>152.6</ele>
        <time>2016-06-03T13:06:55Z</time>
      </trkpt>
      <trkpt lat="48.55701" lon="7.61741">
        <ele>152.5</ele>
        <time>2016-06-03T13:07:00Z</time>
      </trkpt>
      <trkpt lat="48.55718" lon="7.61751">
        <ele>152.3</ele>
        <time>2016-06-03T13:07:04Z</time>
      </trkpt>
      <trkpt lat="48.55737" lon="7.61762">
        <ele>151.9</ele>
        <time>2016-06-03T13:07:09Z</time>
      </trkpt>
      <trkpt lat="48.55755" lon="7.61771">
        <ele>151.6</ele>
        <time>2016-06-03T13:07:13Z</time>
      </trkpt>
      <trkpt lat="48.55774" lon="7.61784">
        <ele>151.2</ele>
        <time>2016-06-03T13:07:18Z</time>
      </trkpt>
      <trkpt lat="48.55792" lon="7.61797">
        <ele>151</ele>
        <time>2016-06-03T13:07:23Z</time>
      </trkpt>
      <trkpt lat="48.55809" lon="7.61808">
        <ele>150.8</ele>
        <time>2016-06-03T13:07:28Z</time>
      </trkpt>
      <trkpt lat="48.55828" lon="7.61818">
        <ele>150.7</ele>
        <time>2016-06-03T13:07:35Z</time>
      </trkpt>
      <trkpt lat="48.55846" lon="7.6183">
        <ele>150.6</ele>
        <time>2016-06-03T13:07:41Z</time>
      </trkpt>
      <trkpt lat="48.55864" lon="7.61841">
        <ele>150.6</ele>
        <time>2016-06-03T13:07:47Z</time>
      </trkpt>
      <trkpt lat="48.55883" lon="7.61853">
        <ele>150.5</ele>
        <time>2016-06-03T13:07:52Z</time>
      </trkpt>
      <trkpt lat="48.55901" lon="7.61863">
        <ele>150.1</ele>
        <time>2016-06-03T13:07:56Z</time>
      </trkpt>
      <trkpt lat="48.55919" lon="7.61872">
        <ele>149.5</ele>
        <time>2016-06-03T13:08:00Z</time>
      </trkpt>
      <trkpt lat="48.55939" lon="7.61884">
        <ele>148.6</ele>
        <time>2016-06-03T13:08:04Z</time>
      </trkpt>
      <trkpt lat="48.5595" lon="7.61889">
        <ele>148.1</ele>
        <time>2016-06-03T13:08:06Z</time>
      </trkpt>
      <trkpt lat="48.55972" lon="7.61895">
        <ele>148.3</ele>
        <time>2016-06-03T13:08:10Z</time>
      </trkpt>
      <trkpt lat="48.55994" lon="7.61897">
        <ele>149.1</ele>
        <time>2016-06-03T13:08:14Z</time>
      </trkpt>
      <trkpt lat="48.56015" lon="7.61897">
        <ele>149.9</ele>
        <time>2016-06-03T13:08:18Z</time>
      </trkpt>
      <trkpt lat="48.56035" lon="7.61895">
        <ele>150.8</ele>
        <time>2016-06-03T13:08:22Z</time>
      </trkpt>
      <trkpt lat="48.56055" lon="7.61891">
        <ele>151.1</ele>
        <time>2016-06-03T13:08:26Z</time>
      </trkpt>
      <trkpt lat="48.56073" lon="7.61889">
        <ele>151.1</ele>
        <time>2016-06-03T13:08:30Z</time>
      </trkpt>
      <trkpt lat="48.56088" lon="7.6189">
        <ele>150.9</ele>
        <time>2016-06-03T13:08:33Z</time>
      </trkpt>
      <trkpt lat="48.56108" lon="7.61897">
        <ele>150.6</ele>
        <time>2016-06-03T13:08:37Z</time>
      </trkpt>
      <trkpt lat="48.56127" lon="7.61904">
        <ele>150.3</ele>
        <time>2016-06-03T13:08:41Z</time>
      </trkpt>
      <trkpt lat="48.56147" lon="7.6191">
        <ele>150.4</ele>
        <time>2016-06-03T13:08:45Z</time>
      </trkpt>
      <trkpt lat="48.56169" lon="7.61912">
        <ele>150.6</ele>
        <time>2016-06-03T13:08:49Z</time>
      </trkpt>
      <trkpt lat="48.56191" lon="7.61906">
        <ele>151.1</ele>
        <time>2016-06-03T13:08:53Z</time>
      </trkpt>
      <trkpt lat="48.56212" lon="7.61897">
        <ele>151.4</ele>
        <time>2016-06-03T13:08:57Z</time>
      </trkpt>
      <trkpt lat="48.56234" lon="7.61887">
        <ele>150.8</ele>
        <time>2016-06-03T13:09:01Z</time>
      </trkpt>
      <trkpt lat="48.56239" lon="7.61884">
        <ele>150.7</ele>
        <time>2016-06-03T13:09:02Z</time>
      </trkpt>
      <trkpt lat="48.5626" lon="7.61869">
        <ele>150.2</ele>
        <time>2016-06-03T13:09:06Z</time>
      </trkpt>
      <trkpt lat="48.56276" lon="7.61855">
        <ele>150</ele>
        <time>2016-06-03T13:09:09Z</time>
      </trkpt>
      <trkpt lat="48.56295" lon="7.61834">
        <ele>150</ele>
        <time>2016-06-03T13:09:13Z</time>
      </trkpt>
      <trkpt lat="48.5631" lon="7.6182">
        <ele>150.1</ele>
        <time>2016-06-03T13:09:16Z</time>
      </trkpt>
      <trkpt lat="48.56327" lon="7.61814">
        <ele>149.9</ele>
        <time>2016-06-03T13:09:19Z</time>
      </trkpt>
      <trkpt lat="48.5634" lon="7.61815">
        <ele>149.8</ele>
        <time>2016-06-03T13:09:21Z</time>
      </trkpt>
      <trkpt lat="48.56359" lon="7.61819">
        <ele>149.5</ele>
        <time>2016-06-03T13:09:24Z</time>
      </trkpt>
      <trkpt lat="48.56381" lon="7.61829">
        <ele>149.5</ele>
        <time>2016-06-03T13:09:28Z</time>
      </trkpt>
      <trkpt lat="48.56385" lon="7.61832">
        <ele>149.6</ele>
        <time>2016-06-03T13:09:29Z</time>
      </trkpt>
      <trkpt lat="48.56404" lon="7.61851">
        <ele>149.8</ele>
        <time>2016-06-03T13:09:33Z</time>
      </trkpt>
      <trkpt lat="48.56419" lon="7.61867">
        <ele>150</ele>
        <time>2016-06-03T13:09:36Z</time>
      </trkpt>
      <trkpt lat="48.56434" lon="7.61883">
        <ele>149.7</ele>
        <time>2016-06-03T13:09:39Z</time>
      </trkpt>
      <trkpt lat="48.5645" lon="7.61897">
        <ele>149.2</ele>
        <time>2016-06-03T13:09:42Z</time>
      </trkpt>
      <trkpt lat="48.56471" lon="7.61912">
        <ele>148.9</ele>
        <time>2016-06-03T13:09:46Z</time>
      </trkpt>
      <trkpt lat="48.56491" lon="7.61928">
        <ele>148.8</ele>
        <time>2016-06-03T13:09:50Z</time>
      </trkpt>
      <trkpt lat="48.56511" lon="7.61943">
        <ele>149.1</ele>
        <time>2016-06-03T13:09:54Z</time>
      </trkpt>
      <trkpt lat="48.56531" lon="7.61958">
        <ele>149.6</ele>
        <time>2016-06-03T13:09:58Z</time>
      </trkpt>
      <trkpt lat="48.5655" lon="7.61972">
        <ele>149.6</ele>
        <time>2016-06-03T13:10:02Z</time>
      </trkpt>
      <trkpt lat="48.56569" lon="7.61987">
        <ele>149.1</ele>
        <time>2016-06-03T13:10:06Z</time>
      </trkpt>
      <trkpt lat="48.56588" lon="7.62001">
        <ele>148.7</ele>
        <time>2016-06-03T13:10:10Z</time>
      </trkpt>
      <trkpt lat="48.56607" lon="7.62017">
        <ele>148.4</ele>
        <time>2016-06-03T13:10:14Z</time>
      </trkpt>
      <trkpt lat="48.56624" lon="7.6203">
        <ele>148.1</ele>
        <time>2016-06-03T13:10:17Z</time>
      </trkpt>
      <trkpt lat="48.5664" lon="7.62043">
        <ele>148.3</ele>
        <time>2016-06-03T13:10:20Z</time>
      </trkpt>
      <trkpt lat="48.56661" lon="7.62058">
        <ele>148.7</ele>
        <time>2016-06-03T13:10:24Z</time>
      </trkpt>
      <trkpt lat="48.56681" lon="7.62076">
        <ele>148.9</ele>
        <time>2016-06-03T13:10:28Z</time>
      </trkpt>
      <trkpt lat="48.56701" lon="7.62094">
        <ele>149.2</ele>
        <time>2016-06-03T13:10:32Z</time>
      </trkpt>
      <trkpt lat="48.56714" lon="7.62106">
        <ele>150</ele>
        <time>2016-06-03T13:10:35Z</time>
      </trkpt>
      <trkpt lat="48.56729" lon="7.62129">
        <ele>151.3</ele>
        <time>2016-06-03T13:10:39Z</time>
      </trkpt>
      <trkpt lat="48.56744" lon="7.6215">
        <ele>152</ele>
        <time>2016-06-03T13:10:43Z</time>
      </trkpt>
      <trkpt lat="48.56753" lon="7.62162">
        <ele>152.3</ele>
        <time>2016-06-03T13:10:45Z</time>
      </trkpt>
      <trkpt lat="48.5677" lon="7.62176">
        <ele>152.9</ele>
        <time>2016-06-03T13:10:48Z</time>
      </trkpt>
      <trkpt lat="48.56791" lon="7.62189">
        <ele>153.6</ele>
        <time>2016-06-03T13:10:52Z</time>
      </trkpt>
      <trkpt lat="48.56812" lon="7.62202">
        <ele>154.1</ele>
        <time>2016-06-03T13:10:56Z</time>
      </trkpt>
      <trkpt lat="48.56834" lon="7.62215">
        <ele>154.5</ele>
        <time>2016-06-03T13:11:00Z</time>
      </trkpt>
      <trkpt lat="48.56852" lon="7.62225">
        <ele>155</ele>
        <time>2016-06-03T13:11:03Z</time>
      </trkpt>
      <trkpt lat="48.56869" lon="7.62236">
        <ele>155.3</ele>
        <time>2016-06-03T13:11:06Z</time>
      </trkpt>
      <trkpt lat="48.56887" lon="7.62246">
        <ele>155.9</ele>
        <time>2016-06-03T13:11:09Z</time>
      </trkpt>
      <trkpt lat="48.56903" lon="7.62258">
        <ele>156.2</ele>
        <time>2016-06-03T13:11:12Z</time>
      </trkpt>
      <trkpt lat="48.56918" lon="7.62271">
        <ele>156.3</ele>
        <time>2016-06-03T13:11:15Z</time>
      </trkpt>
      <trkpt lat="48.56936" lon="7.62291">
        <ele>156.1</ele>
        <time>2016-06-03T13:11:19Z</time>
      </trkpt>
      <trkpt lat="48.56939" lon="7.62297">
        <ele>155.9</ele>
        <time>2016-06-03T13:11:20Z</time>
      </trkpt>
      <trkpt lat="48.56949" lon="7.62313">
        <ele>155.3</ele>
        <time>2016-06-03T13:11:23Z</time>
      </trkpt>
      <trkpt lat="48.56963" lon="7.62335">
        <ele>154.3</ele>
        <time>2016-06-03T13:11:27Z</time>
      </trkpt>
      <trkpt lat="48.56972" lon="7.62353">
        <ele>153.3</ele>
        <time>2016-06-03T13:11:30Z</time>
      </trkpt>
      <trkpt lat="48.5699" lon="7.6238">
        <ele>152.4</ele>
        <time>2016-06-03T13:11:34Z</time>
      </trkpt>
      <trkpt lat="48.57005" lon="7.62402">
        <ele>152.4</ele>
        <time>2016-06-03T13:11:37Z</time>
      </trkpt>
      <trkpt lat="48.57024" lon="7.62423">
        <ele>152.4</ele>
        <time>2016-06-03T13:11:40Z</time>
      </trkpt>
      <trkpt lat="48.57042" lon="7.62447">
        <ele>151.8</ele>
        <time>2016-06-03T13:11:43Z</time>
      </trkpt>
      <trkpt lat="48.57057" lon="7.62469">
        <ele>151.8</ele>
        <time>2016-06-03T13:11:46Z</time>
      </trkpt>
      <trkpt lat="48.57078" lon="7.62488">
        <ele>152</ele>
        <time>2016-06-03T13:11:49Z</time>
      </trkpt>
      <trkpt lat="48.57086" lon="7.62493">
        <ele>152.1</ele>
        <time>2016-06-03T13:11:50Z</time>
      </trkpt>
      <trkpt lat="48.57106" lon="7.62504">
        <ele>152.2</ele>
        <time>2016-06-03T13:11:53Z</time>
      </trkpt>
      <trkpt lat="48.57125" lon="7.62511">
        <ele>152.3</ele>
        <time>2016-06-03T13:11:56Z</time>
      </trkpt>
      <trkpt lat="48.57142" lon="7.62522">
        <ele>151.6</ele>
        <time>2016-06-03T13:11:59Z</time>
      </trkpt>
      <trkpt lat="48.57159" lon="7.62532">
        <ele>150.9</ele>
        <time>2016-06-03T13:12:02Z</time>
      </trkpt>
      <trkpt lat="48.57177" lon="7.62541">
        <ele>150.3</ele>
        <time>2016-06-03T13:12:05Z</time>
      </trkpt>
      <trkpt lat="48.57195" lon="7.6255">
        <ele>150.1</ele>
        <time>2016-06-03T13:12:08Z</time>
      </trkpt>
      <trkpt lat="48.57212" lon="7.62558">
        <ele>150</ele>
        <time>2016-06-03T13:12:11Z</time>
      </trkpt>
      <trkpt lat="48.57232" lon="7.62568">
        <ele>150</ele>
        <time>2016-06-03T13:12:14Z</time>
      </trkpt>
      <trkpt lat="48.57252" lon="7.62579">
        <ele>150.1</ele>
        <time>2016-06-03T13:12:17Z</time>
      </trkpt>
      <trkpt lat="48.57271" lon="7.62589">
        <ele>150.3</ele>
        <time>2016-06-03T13:12:20Z</time>
      </trkpt>
      <trkpt lat="48.5729" lon="7.62599">
        <ele>150.5</ele>
        <time>2016-06-03T13:12:23Z</time>
      </trkpt>
      <trkpt lat="48.57308" lon="7.62608">
        <ele>150.4</ele>
        <time>2016-06-03T13:12:26Z</time>
      </trkpt>
      <trkpt lat="48.57326" lon="7.62617">
        <ele>150.5</ele>
        <time>2016-06-03T13:12:29Z</time>
      </trkpt>
      <trkpt lat="48.57344" lon="7.62625">
        <ele>150.9</ele>
        <time>2016-06-03T13:12:32Z</time>
      </trkpt>
      <trkpt lat="48.57366" lon="7.62637">
        <ele>151</ele>
        <time>2016-06-03T13:12:36Z</time>
      </trkpt>
      <trkpt lat="48.57384" lon="7.62644">
        <ele>150.7</ele>
        <time>2016-06-03T13:12:39Z</time>
      </trkpt>
      <trkpt lat="48.57402" lon="7.62652">
        <ele>150.1</ele>
        <time>2016-06-03T13:12:42Z</time>
      </trkpt>
      <trkpt lat="48.57419" lon="7.6266">
        <ele>149.5</ele>
        <time>2016-06-03T13:12:45Z</time>
      </trkpt>
      <trkpt lat="48.57437" lon="7.62668">
        <ele>149.1</ele>
        <time>2016-06-03T13:12:48Z</time>
      </trkpt>
      <trkpt lat="48.57456" lon="7.62676">
        <ele>148.8</ele>
        <time>2016-06-03T13:12:51Z</time>
      </trkpt>
      <trkpt lat="48.57476" lon="7.62683">
        <ele>148.9</ele>
        <time>2016-06-03T13:12:54Z</time>
      </trkpt>
      <trkpt lat="48.57482" lon="7.62687">
        <ele>148.9</ele>
        <time>2016-06-03T13:12:55Z</time>
      </trkpt>
      <trkpt lat="48.57502" lon="7.62706">
        <ele>149.1</ele>
        <time>2016-06-03T13:12:59Z</time>
      </trkpt>
      <trkpt lat="48.57509" lon="7.62719">
        <ele>148.9</ele>
        <time>2016-06-03T13:13:01Z</time>
      </trkpt>
      <trkpt lat="48.57521" lon="7.62743">
        <ele>148.6</ele>
        <time>2016-06-03T13:13:04Z</time>
      </trkpt>
      <trkpt lat="48.57533" lon="7.62766">
        <ele>148.3</ele>
        <time>2016-06-03T13:13:07Z</time>
      </trkpt>
      <trkpt lat="48.57544" lon="7.62788">
        <ele>148.2</ele>
        <time>2016-06-03T13:13:10Z</time>
      </trkpt>
      <trkpt lat="48.57552" lon="7.628">
        <ele>148.3</ele>
        <time>2016-06-03T13:13:12Z</time>
      </trkpt>
      <trkpt lat="48.57565" lon="7.62812">
        <ele>148.6</ele>
        <time>2016-06-03T13:13:15Z</time>
      </trkpt>
      <trkpt lat="48.57584" lon="7.62825">
        <ele>148.7</ele>
        <time>2016-06-03T13:13:20Z</time>
      </trkpt>
      <trkpt lat="48.57601" lon="7.62839">
        <ele>148.5</ele>
        <time>2016-06-03T13:13:26Z</time>
      </trkpt>
      <trkpt lat="48.57618" lon="7.62852">
        <ele>148.1</ele>
        <time>2016-06-03T13:13:36Z</time>
      </trkpt>
      <trkpt lat="48.57635" lon="7.62863">
        <ele>147.7</ele>
        <time>2016-06-03T13:13:46Z</time>
      </trkpt>
      <trkpt lat="48.57651" lon="7.62875">
        <ele>147.3</ele>
        <time>2016-06-03T13:13:50Z</time>
      </trkpt>
      <trkpt lat="48.57668" lon="7.6289">
        <ele>147.4</ele>
        <time>2016-06-03T13:13:54Z</time>
      </trkpt>
      <trkpt lat="48.57685" lon="7.62905">
        <ele>147.5</ele>
        <time>2016-06-03T13:13:59Z</time>
      </trkpt>
      <trkpt lat="48.57689" lon="7.62908">
        <ele>147.5</ele>
        <time>2016-06-03T13:14:00Z</time>
      </trkpt>
      <trkpt lat="48.57708" lon="7.62926">
        <ele>147.4</ele>
        <time>2016-06-03T13:14:05Z</time>
      </trkpt>
      <trkpt lat="48.57723" lon="7.62941">
        <ele>146.9</ele>
        <time>2016-06-03T13:14:09Z</time>
      </trkpt>
      <trkpt lat="48.57739" lon="7.62961">
        <ele>146.2</ele>
        <time>2016-06-03T13:14:14Z</time>
      </trkpt>
      <trkpt lat="48.57756" lon="7.6298">
        <ele>145.6</ele>
        <time>2016-06-03T13:14:19Z</time>
      </trkpt>
      <trkpt lat="48.57775" lon="7.63">
        <ele>145.2</ele>
        <time>2016-06-03T13:14:24Z</time>
      </trkpt>
      <trkpt lat="48.57791" lon="7.63016">
        <ele>145</ele>
        <time>2016-06-03T13:14:28Z</time>
      </trkpt>
      <trkpt lat="48.57807" lon="7.63033">
        <ele>145.4</ele>
        <time>2016-06-03T13:14:32Z</time>
      </trkpt>
      <trkpt lat="48.57824" lon="7.63051">
        <ele>145.6</ele>
        <time>2016-06-03T13:14:36Z</time>
      </trkpt>
      <trkpt lat="48.5784" lon="7.63069">
        <ele>145.7</ele>
        <time>2016-06-03T13:14:40Z</time>
      </trkpt>
      <trkpt lat="48.57845" lon="7.63072">
        <ele>145.7</ele>
        <time>2016-06-03T13:14:41Z</time>
      </trkpt>
      <trkpt lat="48.57862" lon="7.6309">
        <ele>145.6</ele>
        <time>2016-06-03T13:14:45Z</time>
      </trkpt>
      <trkpt lat="48.5788" lon="7.6311">
        <ele>145.5</ele>
        <time>2016-06-03T13:14:49Z</time>
      </trkpt>
      <trkpt lat="48.57897" lon="7.6313">
        <ele>145.5</ele>
        <time>2016-06-03T13:14:53Z</time>
      </trkpt>
      <trkpt lat="48.57914" lon="7.63151">
        <ele>145.8</ele>
        <time>2016-06-03T13:14:57Z</time>
      </trkpt>
      <trkpt lat="48.57931" lon="7.6317">
        <ele>146</ele>
        <time>2016-06-03T13:15:01Z</time>
      </trkpt>
      <trkpt lat="48.57948" lon="7.63188">
        <ele>146.1</ele>
        <time>2016-06-03T13:15:05Z</time>
      </trkpt>
      <trkpt lat="48.57966" lon="7.63204">
        <ele>146.2</ele>
        <time>2016-06-03T13:15:09Z</time>
      </trkpt>
      <trkpt lat="48.57984" lon="7.63219">
        <ele>146.4</ele>
        <time>2016-06-03T13:15:13Z</time>
      </trkpt>
      <trkpt lat="48.58001" lon="7.63233">
        <ele>146.4</ele>
        <time>2016-06-03T13:15:17Z</time>
      </trkpt>
      <trkpt lat="48.58016" lon="7.63249">
        <ele>146.2</ele>
        <time>2016-06-03T13:15:21Z</time>
      </trkpt>
      <trkpt lat="48.58031" lon="7.63266">
        <ele>145.8</ele>
        <time>2016-06-03T13:15:25Z</time>
      </trkpt>
      <trkpt lat="48.58046" lon="7.63286">
        <ele>145.4</ele>
        <time>2016-06-03T13:15:29Z</time>
      </trkpt>
      <trkpt lat="48.58061" lon="7.63304">
        <ele>145.8</ele>
        <time>2016-06-03T13:15:33Z</time>
      </trkpt>
      <trkpt lat="48.58076" lon="7.63323">
        <ele>146.3</ele>
        <time>2016-06-03T13:15:37Z</time>
      </trkpt>
      <trkpt lat="48.5808" lon="7.63329">
        <ele>146.4</ele>
        <time>2016-06-03T13:15:38Z</time>
      </trkpt>
      <trkpt lat="48.58088" lon="7.63353">
        <ele>146.5</ele>
        <time>2016-06-03T13:15:42Z</time>
      </trkpt>
      <trkpt lat="48.58083" lon="7.63383">
        <ele>146</ele>
        <time>2016-06-03T13:15:46Z</time>
      </trkpt>
      <trkpt lat="48.58076" lon="7.63395">
        <ele>145.8</ele>
        <time>2016-06-03T13:15:48Z</time>
      </trkpt>
      <trkpt lat="48.58063" lon="7.63418">
        <ele>145.7</ele>
        <time>2016-06-03T13:15:52Z</time>
      </trkpt>
      <trkpt lat="48.58051" lon="7.63442">
        <ele>145.8</ele>
        <time>2016-06-03T13:15:57Z</time>
      </trkpt>
      <trkpt lat="48.58037" lon="7.63468">
        <ele>145.9</ele>
        <time>2016-06-03T13:16:02Z</time>
      </trkpt>
      <trkpt lat="48.5803" lon="7.63496">
        <ele>145.8</ele>
        <time>2016-06-03T13:16:07Z</time>
      </trkpt>
      <trkpt lat="48.58027" lon="7.6351">
        <ele>145.8</ele>
        <time>2016-06-03T13:16:09Z</time>
      </trkpt>
      <trkpt lat="48.58023" lon="7.63542">
        <ele>145.8</ele>
        <time>2016-06-03T13:16:13Z</time>
      </trkpt>
      <trkpt lat="48.58021" lon="7.63576">
        <ele>145.2</ele>
        <time>2016-06-03T13:16:17Z</time>
      </trkpt>
      <trkpt lat="48.58024" lon="7.6361">
        <ele>144.8</ele>
        <time>2016-06-03T13:16:21Z</time>
      </trkpt>
      <trkpt lat="48.58029" lon="7.63645">
        <ele>144.4</ele>
        <time>2016-06-03T13:16:25Z</time>
      </trkpt>
      <trkpt lat="48.5803" lon="7.63679">
        <ele>144</ele>
        <time>2016-06-03T13:16:29Z</time>
      </trkpt>
      <trkpt lat="48.58029" lon="7.63711">
        <ele>143.6</ele>
        <time>2016-06-03T13:16:33Z</time>
      </trkpt>
      <trkpt lat="48.58025" lon="7.63742">
        <ele>143.9</ele>
        <time>2016-06-03T13:16:37Z</time>
      </trkpt>
      <trkpt lat="48.58022" lon="7.63771">
        <ele>144.2</ele>
        <time>2016-06-03T13:16:41Z</time>
      </trkpt>
      <trkpt lat="48.58022" lon="7.63778">
        <ele>144.3</ele>
        <time>2016-06-03T13:16:42Z</time>
      </trkpt>
      <trkpt lat="48.58025" lon="7.63803">
        <ele>144.7</ele>
        <time>2016-06-03T13:16:46Z</time>
      </trkpt>
      <trkpt lat="48.58028" lon="7.63837">
        <ele>145.1</ele>
        <time>2016-06-03T13:16:51Z</time>
      </trkpt>
      <trkpt lat="48.58028" lon="7.63868">
        <ele>145.4</ele>
        <time>2016-06-03T13:16:55Z</time>
      </trkpt>
      <trkpt lat="48.58028" lon="7.63899">
        <ele>145.5</ele>
        <time>2016-06-03T13:16:59Z</time>
      </trkpt>
      <trkpt lat="48.58028" lon="7.6393">
        <ele>145.4</ele>
        <time>2016-06-03T13:17:03Z</time>
      </trkpt>
      <trkpt lat="48.58026" lon="7.63962">
        <ele>145.2</ele>
        <time>2016-06-03T13:17:07Z</time>
      </trkpt>
      <trkpt lat="48.58028" lon="7.63996">
        <ele>145</ele>
        <time>2016-06-03T13:17:11Z</time>
      </trkpt>
      <trkpt lat="48.58029" lon="7.64026">
        <ele>144.8</ele>
        <time>2016-06-03T13:17:15Z</time>
      </trkpt>
      <trkpt lat="48.5803" lon="7.64054">
        <ele>145</ele>
        <time>2016-06-03T13:17:19Z</time>
      </trkpt>
      <trkpt lat="48.5803" lon="7.64082">
        <ele>145.6</ele>
        <time>2016-06-03T13:17:23Z</time>
      </trkpt>
      <trkpt lat="48.5803" lon="7.64112">
        <ele>146.3</ele>
        <time>2016-06-03T13:17:27Z</time>
      </trkpt>
      <trkpt lat="48.58031" lon="7.64119">
        <ele>146.5</ele>
        <time>2016-06-03T13:17:28Z</time>
      </trkpt>
      <trkpt lat="48.58032" lon="7.64147">
        <ele>146.7</ele>
        <time>2016-06-03T13:17:32Z</time>
      </trkpt>
      <trkpt lat="48.58032" lon="7.64164">
        <ele>146.7</ele>
        <time>2016-06-03T13:17:34Z</time>
      </trkpt>
      <trkpt lat="48.58032" lon="7.64193">
        <ele>146.7</ele>
        <time>2016-06-03T13:17:38Z</time>
      </trkpt>
      <trkpt lat="48.58033" lon="7.64223">
        <ele>146.5</ele>
        <time>2016-06-03T13:17:42Z</time>
      </trkpt>
      <trkpt lat="48.58031" lon="7.64251">
        <ele>145.9</ele>
        <time>2016-06-03T13:17:46Z</time>
      </trkpt>
      <trkpt lat="48.58032" lon="7.64281">
        <ele>145.3</ele>
        <time>2016-06-03T13:17:51Z</time>
      </trkpt>
      <trkpt lat="48.58037" lon="7.64305">
        <ele>144.9</ele>
        <time>2016-06-03T13:18:00Z</time>
      </trkpt>
      <trkpt lat="48.58037" lon="7.64312">
        <ele>144.8</ele>
        <time>2016-06-03T13:18:03Z</time>
      </trkpt>
      <trkpt lat="48.58037" lon="7.64343">
        <ele>144.4</ele>
        <time>2016-06-03T13:18:10Z</time>
      </trkpt>
      <trkpt lat="48.58034" lon="7.64371">
        <ele>144.1</ele>
        <time>2016-06-03T13:18:15Z</time>
      </trkpt>
      <trkpt lat="48.58029" lon="7.644">
        <ele>144.4</ele>
        <time>2016-06-03T13:18:20Z</time>
      </trkpt>
      <trkpt lat="48.58026" lon="7.64413">
        <ele>144.6</ele>
        <time>2016-06-03T13:18:22Z</time>
      </trkpt>
      <trkpt lat="48.58022" lon="7.64445">
        <ele>144.9</ele>
        <time>2016-06-03T13:18:27Z</time>
      </trkpt>
      <trkpt lat="48.5802" lon="7.64473">
        <ele>145.1</ele>
        <time>2016-06-03T13:18:31Z</time>
      </trkpt>
      <trkpt lat="48.58019" lon="7.64502">
        <ele>145.2</ele>
        <time>2016-06-03T13:18:35Z</time>
      </trkpt>
      <trkpt lat="48.58014" lon="7.64533">
        <ele>145.3</ele>
        <time>2016-06-03T13:18:40Z</time>
      </trkpt>
      <trkpt lat="48.58012" lon="7.64563">
        <ele>145.6</ele>
        <time>2016-06-03T13:18:45Z</time>
      </trkpt>
      <trkpt lat="48.58011" lon="7.64593">
        <ele>146.1</ele>
        <time>2016-06-03T13:18:50Z</time>
      </trkpt>
      <trkpt lat="48.58006" lon="7.64624">
        <ele>146.6</ele>
        <time>2016-06-03T13:18:55Z</time>
      </trkpt>
      <trkpt lat="48.58003" lon="7.64651">
        <ele>146.7</ele>
        <time>2016-06-03T13:19:00Z</time>
      </trkpt>
      <trkpt lat="48.58" lon="7.64684">
        <ele>146.9</ele>
        <time>2016-06-03T13:19:04Z</time>
      </trkpt>
      <trkpt lat="48.57998" lon="7.64692">
        <ele>146.9</ele>
        <time>2016-06-03T13:19:05Z</time>
      </trkpt>
      <trkpt lat="48.57996" lon="7.64727">
        <ele>146.4</ele>
        <time>2016-06-03T13:19:09Z</time>
      </trkpt>
      <trkpt lat="48.57995" lon="7.64761">
        <ele>145.4</ele>
        <time>2016-06-03T13:19:13Z</time>
      </trkpt>
      <trkpt lat="48.5799" lon="7.64796">
        <ele>144.4</ele>
        <time>2016-06-03T13:19:17Z</time>
      </trkpt>
      <trkpt lat="48.57985" lon="7.64831">
        <ele>144.3</ele>
        <time>2016-06-03T13:19:21Z</time>
      </trkpt>
      <trkpt lat="48.57981" lon="7.64865">
        <ele>144.1</ele>
        <time>2016-06-03T13:19:25Z</time>
      </trkpt>
      <trkpt lat="48.57977" lon="7.649">
        <ele>143.9</ele>
        <time>2016-06-03T13:19:29Z</time>
      </trkpt>
      <trkpt lat="48.57975" lon="7.64933">
        <ele>143.8</ele>
        <time>2016-06-03T13:19:33Z</time>
      </trkpt>
      <trkpt lat="48.57972" lon="7.64966">
        <ele>143.4</ele>
        <time>2016-06-03T13:19:37Z</time>
      </trkpt>
      <trkpt lat="48.5797" lon="7.65001">
        <ele>142.5</ele>
        <time>2016-06-03T13:19:41Z</time>
      </trkpt>
      <trkpt lat="48.57966" lon="7.65036">
        <ele>141.4</ele>
        <time>2016-06-03T13:19:45Z</time>
      </trkpt>
      <trkpt lat="48.57963" lon="7.65069">
        <ele>141.8</ele>
        <time>2016-06-03T13:19:49Z</time>
      </trkpt>
      <trkpt lat="48.5796" lon="7.651">
        <ele>142.4</ele>
        <time>2016-06-03T13:19:53Z</time>
      </trkpt>
      <trkpt lat="48.57958" lon="7.65128">
        <ele>143.1</ele>
        <time>2016-06-03T13:19:57Z</time>
      </trkpt>
      <trkpt lat="48.57956" lon="7.65156">
        <ele>143.7</ele>
        <time>2016-06-03T13:20:02Z</time>
      </trkpt>
      <trkpt lat="48.57954" lon="7.65184">
        <ele>144.4</ele>
        <time>2016-06-03T13:20:07Z</time>
      </trkpt>
      <trkpt lat="48.57952" lon="7.65215">
        <ele>144.7</ele>
        <time>2016-06-03T13:20:12Z</time>
      </trkpt>
      <trkpt lat="48.57948" lon="7.65245">
        <ele>143.6</ele>
        <time>2016-06-03T13:20:17Z</time>
      </trkpt>
      <trkpt lat="48.57946" lon="7.65275">
        <ele>142.5</ele>
        <time>2016-06-03T13:20:23Z</time>
      </trkpt>
      <trkpt lat="48.57943" lon="7.65305">
        <ele>141.7</ele>
        <time>2016-06-03T13:20:29Z</time>
      </trkpt>
      <trkpt lat="48.57939" lon="7.65332">
        <ele>141.4</ele>
        <time>2016-06-03T13:20:33Z</time>
      </trkpt>
      <trkpt lat="48.57937" lon="7.65346">
        <ele>141.3</ele>
        <time>2016-06-03T13:20:35Z</time>
      </trkpt>
      <trkpt lat="48.57932" lon="7.65376">
        <ele>141</ele>
        <time>2016-06-03T13:20:39Z</time>
      </trkpt>
      <trkpt lat="48.57929" lon="7.65409">
        <ele>141.4</ele>
        <time>2016-06-03T13:20:43Z</time>
      </trkpt>
      <trkpt lat="48.57927" lon="7.65426">
        <ele>141.6</ele>
        <time>2016-06-03T13:20:45Z</time>
      </trkpt>
      <trkpt lat="48.57934" lon="7.6546">
        <ele>142</ele>
        <time>2016-06-03T13:20:49Z</time>
      </trkpt>
      <trkpt lat="48.57941" lon="7.65476">
        <ele>142.4</ele>
        <time>2016-06-03T13:20:51Z</time>
      </trkpt>
      <trkpt lat="48.57952" lon="7.655">
        <ele>143</ele>
        <time>2016-06-03T13:20:54Z</time>
      </trkpt>
      <trkpt lat="48.57961" lon="7.65524">
        <ele>143.5</ele>
        <time>2016-06-03T13:20:57Z</time>
      </trkpt>
      <trkpt lat="48.57966" lon="7.65541">
        <ele>143.8</ele>
        <time>2016-06-03T13:20:59Z</time>
      </trkpt>
      <trkpt lat="48.57969" lon="7.65576">
        <ele>144.2</ele>
        <time>2016-06-03T13:21:03Z</time>
      </trkpt>
      <trkpt lat="48.57969" lon="7.65604">
        <ele>144.6</ele>
        <time>2016-06-03T13:21:06Z</time>
      </trkpt>
      <trkpt lat="48.5797" lon="7.65632">
        <ele>144.6</ele>
        <time>2016-06-03T13:21:09Z</time>
      </trkpt>
      <trkpt lat="48.57968" lon="7.6566">
        <ele>143.7</ele>
        <time>2016-06-03T13:21:12Z</time>
      </trkpt>
      <trkpt lat="48.57964" lon="7.65678">
        <ele>143.1</ele>
        <time>2016-06-03T13:21:14Z</time>
      </trkpt>
      <trkpt lat="48.57955" lon="7.65702">
        <ele>142.2</ele>
        <time>2016-06-03T13:21:17Z</time>
      </trkpt>
      <trkpt lat="48.57945" lon="7.65727">
        <ele>142.1</ele>
        <time>2016-06-03T13:21:20Z</time>
      </trkpt>
      <trkpt lat="48.57942" lon="7.65734">
        <ele>142.2</ele>
        <time>2016-06-03T13:21:21Z</time>
      </trkpt>
      <trkpt lat="48.57935" lon="7.65768">
        <ele>142.3</ele>
        <time>2016-06-03T13:21:25Z</time>
      </trkpt>
      <trkpt lat="48.57934" lon="7.65784">
        <ele>142.4</ele>
        <time>2016-06-03T13:21:27Z</time>
      </trkpt>
      <trkpt lat="48.57941" lon="7.65816">
        <ele>142.3</ele>
        <time>2016-06-03T13:21:31Z</time>
      </trkpt>
      <trkpt lat="48.57944" lon="7.6583">
        <ele>142.3</ele>
        <time>2016-06-03T13:21:33Z</time>
      </trkpt>
      <trkpt lat="48.57945" lon="7.65862">
        <ele>142</ele>
        <time>2016-06-03T13:21:37Z</time>
      </trkpt>
      <trkpt lat="48.57943" lon="7.65893">
        <ele>141.5</ele>
        <time>2016-06-03T13:21:41Z</time>
      </trkpt>
      <trkpt lat="48.57942" lon="7.65926">
        <ele>140.8</ele>
        <time>2016-06-03T13:21:45Z</time>
      </trkpt>
      <trkpt lat="48.57947" lon="7.65959">
        <ele>140.1</ele>
        <time>2016-06-03T13:21:49Z</time>
      </trkpt>
      <trkpt lat="48.57956" lon="7.65992">
        <ele>140.4</ele>
        <time>2016-06-03T13:21:53Z</time>
      </trkpt>
      <trkpt lat="48.57967" lon="7.6602">
        <ele>140.8</ele>
        <time>2016-06-03T13:21:57Z</time>
      </trkpt>
      <trkpt lat="48.57979" lon="7.66047">
        <ele>141.3</ele>
        <time>2016-06-03T13:22:01Z</time>
      </trkpt>
      <trkpt lat="48.57986" lon="7.66059">
        <ele>141.7</ele>
        <time>2016-06-03T13:22:03Z</time>
      </trkpt>
      <trkpt lat="48.58" lon="7.66081">
        <ele>142.4</ele>
        <time>2016-06-03T13:22:07Z</time>
      </trkpt>
      <trkpt lat="48.58014" lon="7.66104">
        <ele>143.4</ele>
        <time>2016-06-03T13:22:11Z</time>
      </trkpt>
      <trkpt lat="48.58028" lon="7.66127">
        <ele>144.4</ele>
        <time>2016-06-03T13:22:15Z</time>
      </trkpt>
      <trkpt lat="48.58028" lon="7.66135">
        <ele>144.3</ele>
        <time>2016-06-03T13:22:16Z</time>
      </trkpt>
      <trkpt lat="48.58031" lon="7.66168">
        <ele>143.7</ele>
        <time>2016-06-03T13:22:20Z</time>
      </trkpt>
      <trkpt lat="48.58034" lon="7.66202">
        <ele>143.1</ele>
        <time>2016-06-03T13:22:24Z</time>
      </trkpt>
      <trkpt lat="48.58037" lon="7.66236">
        <ele>142.6</ele>
        <time>2016-06-03T13:22:28Z</time>
      </trkpt>
      <trkpt lat="48.58041" lon="7.6627">
        <ele>142.3</ele>
        <time>2016-06-03T13:22:32Z</time>
      </trkpt>
      <trkpt lat="48.58047" lon="7.66303">
        <ele>142.1</ele>
        <time>2016-06-03T13:22:36Z</time>
      </trkpt>
      <trkpt lat="48.58049" lon="7.66338">
        <ele>142.5</ele>
        <time>2016-06-03T13:22:40Z</time>
      </trkpt>
      <trkpt lat="48.58049" lon="7.66346">
        <ele>142.6</ele>
        <time>2016-06-03T13:22:41Z</time>
      </trkpt>
      <trkpt lat="48.58046" lon="7.66377">
        <ele>142.9</ele>
        <time>2016-06-03T13:22:45Z</time>
      </trkpt>
      <trkpt lat="48.58041" lon="7.6641">
        <ele>143</ele>
        <time>2016-06-03T13:22:49Z</time>
      </trkpt>
      <trkpt lat="48.58033" lon="7.66442">
        <ele>142.8</ele>
        <time>2016-06-03T13:22:53Z</time>
      </trkpt>
      <trkpt lat="48.58025" lon="7.66472">
        <ele>142.8</ele>
        <time>2016-06-03T13:22:57Z</time>
      </trkpt>
      <trkpt lat="48.58015" lon="7.66503">
        <ele>142.9</ele>
        <time>2016-06-03T13:23:01Z</time>
      </trkpt>
      <trkpt lat="48.58007" lon="7.66534">
        <ele>143.1</ele>
        <time>2016-06-03T13:23:05Z</time>
      </trkpt>
      <trkpt lat="48.58002" lon="7.66563">
        <ele>143.4</ele>
        <time>2016-06-03T13:23:09Z</time>
      </trkpt>
      <trkpt lat="48.57997" lon="7.6659">
        <ele>143.8</ele>
        <time>2016-06-03T13:23:14Z</time>
      </trkpt>
      <trkpt lat="48.57989" lon="7.66618">
        <ele>144.2</ele>
        <time>2016-06-03T13:23:21Z</time>
      </trkpt>
      <trkpt lat="48.57982" lon="7.66645">
        <ele>144.5</ele>
        <time>2016-06-03T13:23:31Z</time>
      </trkpt>
      <trkpt lat="48.57979" lon="7.66655">
        <ele>144.5</ele>
        <time>2016-06-03T13:23:34Z</time>
      </trkpt>
      <trkpt lat="48.57972" lon="7.66682">
        <ele>144.7</ele>
        <time>2016-06-03T13:23:39Z</time>
      </trkpt>
      <trkpt lat="48.57961" lon="7.6671">
        <ele>145</ele>
        <time>2016-06-03T13:23:43Z</time>
      </trkpt>
      <trkpt lat="48.57957" lon="7.66732">
        <ele>144.4</ele>
        <time>2016-06-03T13:23:46Z</time>
      </trkpt>
      <trkpt lat="48.57953" lon="7.66765">
        <ele>143.5</ele>
        <time>2016-06-03T13:23:50Z</time>
      </trkpt>
      <trkpt lat="48.57952" lon="7.66773">
        <ele>143.3</ele>
        <time>2016-06-03T13:23:51Z</time>
      </trkpt>
      <trkpt lat="48.57945" lon="7.66804">
        <ele>142.7</ele>
        <time>2016-06-03T13:23:55Z</time>
      </trkpt>
      <trkpt lat="48.57937" lon="7.66836">
        <ele>142.6</ele>
        <time>2016-06-03T13:23:59Z</time>
      </trkpt>
      <trkpt lat="48.57931" lon="7.6687">
        <ele>142.7</ele>
        <time>2016-06-03T13:24:03Z</time>
      </trkpt>
      <trkpt lat="48.57925" lon="7.66904">
        <ele>143</ele>
        <time>2016-06-03T13:24:07Z</time>
      </trkpt>
      <trkpt lat="48.57918" lon="7.66937">
        <ele>143.3</ele>
        <time>2016-06-03T13:24:11Z</time>
      </trkpt>
      <trkpt lat="48.5791" lon="7.66969">
        <ele>143.2</ele>
        <time>2016-06-03T13:24:15Z</time>
      </trkpt>
      <trkpt lat="48.57904" lon="7.66999">
        <ele>142.9</ele>
        <time>2016-06-03T13:24:19Z</time>
      </trkpt>
      <trkpt lat="48.57901" lon="7.67031">
        <ele>142.7</ele>
        <time>2016-06-03T13:24:23Z</time>
      </trkpt>
      <trkpt lat="48.57895" lon="7.67063">
        <ele>141.6</ele>
        <time>2016-06-03T13:24:27Z</time>
      </trkpt>
      <trkpt lat="48.57888" lon="7.67094">
        <ele>140.3</ele>
        <time>2016-06-03T13:24:31Z</time>
      </trkpt>
      <trkpt lat="48.57879" lon="7.67123">
        <ele>139.1</ele>
        <time>2016-06-03T13:24:35Z</time>
      </trkpt>
      <trkpt lat="48.57869" lon="7.67152">
        <ele>139.7</ele>
        <time>2016-06-03T13:24:39Z</time>
      </trkpt>
      <trkpt lat="48.57859" lon="7.67183">
        <ele>140.5</ele>
        <time>2016-06-03T13:24:43Z</time>
      </trkpt>
      <trkpt lat="48.5785" lon="7.67216">
        <ele>141.2</ele>
        <time>2016-06-03T13:24:47Z</time>
      </trkpt>
      <trkpt lat="48.57842" lon="7.67239">
        <ele>142</ele>
        <time>2016-06-03T13:24:50Z</time>
      </trkpt>
      <trkpt lat="48.57833" lon="7.67271">
        <ele>142.9</ele>
        <time>2016-06-03T13:24:54Z</time>
      </trkpt>
      <trkpt lat="48.57833" lon="7.6728">
        <ele>143.1</ele>
        <time>2016-06-03T13:24:55Z</time>
      </trkpt>
      <trkpt lat="48.57827" lon="7.67313">
        <ele>143.1</ele>
        <time>2016-06-03T13:24:59Z</time>
      </trkpt>
      <trkpt lat="48.57822" lon="7.67337">
        <ele>142.7</ele>
        <time>2016-06-03T13:25:02Z</time>
      </trkpt>
      <trkpt lat="48.57817" lon="7.6737">
        <ele>142</ele>
        <time>2016-06-03T13:25:06Z</time>
      </trkpt>
      <trkpt lat="48.57813" lon="7.67405">
        <ele>141.6</ele>
        <time>2016-06-03T13:25:10Z</time>
      </trkpt>
      <trkpt lat="48.57808" lon="7.67439">
        <ele>141.3</ele>
        <time>2016-06-03T13:25:14Z</time>
      </trkpt>
      <trkpt lat="48.57803" lon="7.67472">
        <ele>141.4</ele>
        <time>2016-06-03T13:25:18Z</time>
      </trkpt>
      <trkpt lat="48.57797" lon="7.67504">
        <ele>142.1</ele>
        <time>2016-06-03T13:25:22Z</time>
      </trkpt>
      <trkpt lat="48.57793" lon="7.67533">
        <ele>142.8</ele>
        <time>2016-06-03T13:25:26Z</time>
      </trkpt>
      <trkpt lat="48.57788" lon="7.67559">
        <ele>142.6</ele>
        <time>2016-06-03T13:25:30Z</time>
      </trkpt>
      <trkpt lat="48.57782" lon="7.6759">
        <ele>141.8</ele>
        <time>2016-06-03T13:25:34Z</time>
      </trkpt>
      <trkpt lat="48.57779" lon="7.67605">
        <ele>141.4</ele>
        <time>2016-06-03T13:25:36Z</time>
      </trkpt>
      <trkpt lat="48.57771" lon="7.67634">
        <ele>140.7</ele>
        <time>2016-06-03T13:25:40Z</time>
      </trkpt>
      <trkpt lat="48.57764" lon="7.67665">
        <ele>140.4</ele>
        <time>2016-06-03T13:25:44Z</time>
      </trkpt>
      <trkpt lat="48.57757" lon="7.67693">
        <ele>139.9</ele>
        <time>2016-06-03T13:25:48Z</time>
      </trkpt>
      <trkpt lat="48.57751" lon="7.67721">
        <ele>139.6</ele>
        <time>2016-06-03T13:25:52Z</time>
      </trkpt>
      <trkpt lat="48.57745" lon="7.67748">
        <ele>139.5</ele>
        <time>2016-06-03T13:25:56Z</time>
      </trkpt>
      <trkpt lat="48.5774" lon="7.67775">
        <ele>139.4</ele>
        <time>2016-06-03T13:26:00Z</time>
      </trkpt>
      <trkpt lat="48.57734" lon="7.67801">
        <ele>139.5</ele>
        <time>2016-06-03T13:26:04Z</time>
      </trkpt>
      <trkpt lat="48.57729" lon="7.67832">
        <ele>140.1</ele>
        <time>2016-06-03T13:26:08Z</time>
      </trkpt>
      <trkpt lat="48.57723" lon="7.67859">
        <ele>140.7</ele>
        <time>2016-06-03T13:26:12Z</time>
      </trkpt>
      <trkpt lat="48.57717" lon="7.6789">
        <ele>141.2</ele>
        <time>2016-06-03T13:26:17Z</time>
      </trkpt>
      <trkpt lat="48.57711" lon="7.67919">
        <ele>141.5</ele>
        <time>2016-06-03T13:26:22Z</time>
      </trkpt>
      <trkpt lat="48.57703" lon="7.67951">
        <ele>141.6</ele>
        <time>2016-06-03T13:26:27Z</time>
      </trkpt>
      <trkpt lat="48.57698" lon="7.67977">
        <ele>141.2</ele>
        <time>2016-06-03T13:26:31Z</time>
      </trkpt>
      <trkpt lat="48.57696" lon="7.67983">
        <ele>141.1</ele>
        <time>2016-06-03T13:26:32Z</time>
      </trkpt>
      <trkpt lat="48.57686" lon="7.68008">
        <ele>140.5</ele>
        <time>2016-06-03T13:26:36Z</time>
      </trkpt>
      <trkpt lat="48.57676" lon="7.68032">
        <ele>140.2</ele>
        <time>2016-06-03T13:26:40Z</time>
      </trkpt>
      <trkpt lat="48.57665" lon="7.68055">
        <ele>140.1</ele>
        <time>2016-06-03T13:26:44Z</time>
      </trkpt>
      <trkpt lat="48.57656" lon="7.6808">
        <ele>140.3</ele>
        <time>2016-06-03T13:26:49Z</time>
      </trkpt>
      <trkpt lat="48.57646" lon="7.6811">
        <ele>140.9</ele>
        <time>2016-06-03T13:26:54Z</time>
      </trkpt>
      <trkpt lat="48.57644" lon="7.68117">
        <ele>141.1</ele>
        <time>2016-06-03T13:26:55Z</time>
      </trkpt>
      <trkpt lat="48.57636" lon="7.68142">
        <ele>141.2</ele>
        <time>2016-06-03T13:26:59Z</time>
      </trkpt>
      <trkpt lat="48.57623" lon="7.68168">
        <ele>141</ele>
        <time>2016-06-03T13:27:03Z</time>
      </trkpt>
      <trkpt lat="48.5761" lon="7.68195">
        <ele>140.3</ele>
        <time>2016-06-03T13:27:07Z</time>
      </trkpt>
      <trkpt lat="48.57597" lon="7.68222">
        <ele>139.9</ele>
        <time>2016-06-03T13:27:11Z</time>
      </trkpt>
      <trkpt lat="48.57591" lon="7.68235">
        <ele>139.7</ele>
        <time>2016-06-03T13:27:13Z</time>
      </trkpt>
      <trkpt lat="48.57581" lon="7.68261">
        <ele>139.3</ele>
        <time>2016-06-03T13:27:17Z</time>
      </trkpt>
      <trkpt lat="48.57571" lon="7.68287">
        <ele>138.8</ele>
        <time>2016-06-03T13:27:21Z</time>
      </trkpt>
      <trkpt lat="48.57559" lon="7.68314">
        <ele>139.4</ele>
        <time>2016-06-03T13:27:25Z</time>
      </trkpt>
      <trkpt lat="48.57548" lon="7.68341">
        <ele>140.4</ele>
        <time>2016-06-03T13:27:29Z</time>
      </trkpt>
      <trkpt lat="48.57538" lon="7.68365">
        <ele>141.3</ele>
        <time>2016-06-03T13:27:33Z</time>
      </trkpt>
      <trkpt lat="48.57528" lon="7.68389">
        <ele>141.7</ele>
        <time>2016-06-03T13:27:37Z</time>
      </trkpt>
      <trkpt lat="48.57516" lon="7.68415">
        <ele>141.9</ele>
        <time>2016-06-03T13:27:42Z</time>
      </trkpt>
      <trkpt lat="48.57514" lon="7.6842">
        <ele>141.9</ele>
        <time>2016-06-03T13:27:43Z</time>
      </trkpt>
      <trkpt lat="48.57503" lon="7.68449">
        <ele>142.3</ele>
        <time>2016-06-03T13:27:48Z</time>
      </trkpt>
      <trkpt lat="48.57501" lon="7.68461">
        <ele>142.5</ele>
        <time>2016-06-03T13:27:50Z</time>
      </trkpt>
      <trkpt lat="48.57497" lon="7.68491">
        <ele>141.8</ele>
        <time>2016-06-03T13:27:55Z</time>
      </trkpt>
      <trkpt lat="48.57493" lon="7.68523">
        <ele>141</ele>
        <time>2016-06-03T13:28:00Z</time>
      </trkpt>
      <trkpt lat="48.5749" lon="7.68555">
        <ele>140.4</ele>
        <time>2016-06-03T13:28:05Z</time>
      </trkpt>
      <trkpt lat="48.57487" lon="7.68581">
        <ele>139.9</ele>
        <time>2016-06-03T13:28:09Z</time>
      </trkpt>
      <trkpt lat="48.57482" lon="7.68609">
        <ele>139.5</ele>
        <time>2016-06-03T13:28:13Z</time>
      </trkpt>
      <trkpt lat="48.57479" lon="7.68639">
        <ele>139.3</ele>
        <time>2016-06-03T13:28:18Z</time>
      </trkpt>
      <trkpt lat="48.57477" lon="7.68667">
        <ele>139.3</ele>
        <time>2016-06-03T13:28:27Z</time>
      </trkpt>
      <trkpt lat="48.57477" lon="7.68669">
        <ele>139.3</ele>
        <time>2016-06-03T13:28:29Z</time>
      </trkpt>
      <trkpt lat="48.57477" lon="7.68683">
        <ele>139.4</ele>
        <time>2016-06-03T13:28:56Z</time>
      </trkpt>
      <trkpt lat="48.57477" lon="7.68685">
        <ele>139.4</ele>
        <time>2016-06-03T13:28:57Z</time>
      </trkpt>
      <trkpt lat="48.57475" lon="7.68716">
        <ele>139.4</ele>
        <time>2016-06-03T13:29:04Z</time>
      </trkpt>
      <trkpt lat="48.57472" lon="7.68748">
        <ele>139.5</ele>
        <time>2016-06-03T13:29:09Z</time>
      </trkpt>
      <trkpt lat="48.57468" lon="7.68777">
        <ele>139.4</ele>
        <time>2016-06-03T13:29:13Z</time>
      </trkpt>
      <trkpt lat="48.57466" lon="7.68793">
        <ele>139.3</ele>
        <time>2016-06-03T13:29:15Z</time>
      </trkpt>
      <trkpt lat="48.57462" lon="7.68823">
        <ele>139.2</ele>
        <time>2016-06-03T13:29:19Z</time>
      </trkpt>
      <trkpt lat="48.57459" lon="7.68853">
        <ele>139</ele>
        <time>2016-06-03T13:29:23Z</time>
      </trkpt>
      <trkpt lat="48.57456" lon="7.68883">
        <ele>139.2</ele>
        <time>2016-06-03T13:29:27Z</time>
      </trkpt>
      <trkpt lat="48.57452" lon="7.68913">
        <ele>139.9</ele>
        <time>2016-06-03T13:29:31Z</time>
      </trkpt>
      <trkpt lat="48.57449" lon="7.68945">
        <ele>140.6</ele>
        <time>2016-06-03T13:29:35Z</time>
      </trkpt>
      <trkpt lat="48.57446" lon="7.68977">
        <ele>141.3</ele>
        <time>2016-06-03T13:29:39Z</time>
      </trkpt>
      <trkpt lat="48.57443" lon="7.6901">
        <ele>142.2</ele>
        <time>2016-06-03T13:29:43Z</time>
      </trkpt>
      <trkpt lat="48.57439" lon="7.6904">
        <ele>142.9</ele>
        <time>2016-06-03T13:29:47Z</time>
      </trkpt>
      <trkpt lat="48.57437" lon="7.69068">
        <ele>142.2</ele>
        <time>2016-06-03T13:29:51Z</time>
      </trkpt>
      <trkpt lat="48.57435" lon="7.69097">
        <ele>141.3</ele>
        <time>2016-06-03T13:29:56Z</time>
      </trkpt>
      <trkpt lat="48.57437" lon="7.69123">
        <ele>140.5</ele>
        <time>2016-06-03T13:30:01Z</time>
      </trkpt>
      <trkpt lat="48.57447" lon="7.69144">
        <ele>140.9</ele>
        <time>2016-06-03T13:30:05Z</time>
      </trkpt>
      <trkpt lat="48.57461" lon="7.69163">
        <ele>141.4</ele>
        <time>2016-06-03T13:30:10Z</time>
      </trkpt>
      <trkpt lat="48.5747" lon="7.69187">
        <ele>141.7</ele>
        <time>2016-06-03T13:30:15Z</time>
      </trkpt>
      <trkpt lat="48.57471" lon="7.69216">
        <ele>142.1</ele>
        <time>2016-06-03T13:30:19Z</time>
      </trkpt>
      <trkpt lat="48.57469" lon="7.6923">
        <ele>142.2</ele>
        <time>2016-06-03T13:30:21Z</time>
      </trkpt>
      <trkpt lat="48.57467" lon="7.69236">
        <ele>142.3</ele>
        <time>2016-06-03T13:30:22Z</time>
      </trkpt>
      <trkpt lat="48.57456" lon="7.6926">
        <ele>142.6</ele>
        <time>2016-06-03T13:30:26Z</time>
      </trkpt>
      <trkpt lat="48.5745" lon="7.69271">
        <ele>142.6</ele>
        <time>2016-06-03T13:30:28Z</time>
      </trkpt>
      <trkpt lat="48.57439" lon="7.69295">
        <ele>142.8</ele>
        <time>2016-06-03T13:30:32Z</time>
      </trkpt>
      <trkpt lat="48.57427" lon="7.69323">
        <ele>142.5</ele>
        <time>2016-06-03T13:30:36Z</time>
      </trkpt>
      <trkpt lat="48.57425" lon="7.6933">
        <ele>142.4</ele>
        <time>2016-06-03T13:30:37Z</time>
      </trkpt>
      <trkpt lat="48.5742" lon="7.69361">
        <ele>142.2</ele>
        <time>2016-06-03T13:30:41Z</time>
      </trkpt>
      <trkpt lat="48.57416" lon="7.69394">
        <ele>141.7</ele>
        <time>2016-06-03T13:30:45Z</time>
      </trkpt>
      <trkpt lat="48.57414" lon="7.69428">
        <ele>141</ele>
        <time>2016-06-03T13:30:49Z</time>
      </trkpt>
      <trkpt lat="48.57415" lon="7.69456">
        <ele>140.5</ele>
        <time>2016-06-03T13:30:53Z</time>
      </trkpt>
      <trkpt lat="48.57423" lon="7.69472">
        <ele>140.6</ele>
        <time>2016-06-03T13:30:56Z</time>
      </trkpt>
      <trkpt lat="48.57442" lon="7.69489">
        <ele>141.1</ele>
        <time>2016-06-03T13:31:00Z</time>
      </trkpt>
      <trkpt lat="48.57461" lon="7.69507">
        <ele>141.4</ele>
        <time>2016-06-03T13:31:04Z</time>
      </trkpt>
      <trkpt lat="48.5748" lon="7.69524">
        <ele>141.3</ele>
        <time>2016-06-03T13:31:08Z</time>
      </trkpt>
      <trkpt lat="48.57497" lon="7.69538">
        <ele>141.1</ele>
        <time>2016-06-03T13:31:11Z</time>
      </trkpt>
      <trkpt lat="48.57516" lon="7.69551">
        <ele>141</ele>
        <time>2016-06-03T13:31:14Z</time>
      </trkpt>
      <trkpt lat="48.57533" lon="7.69561">
        <ele>141.1</ele>
        <time>2016-06-03T13:31:17Z</time>
      </trkpt>
      <trkpt lat="48.57553" lon="7.69574">
        <ele>141.6</ele>
        <time>2016-06-03T13:31:21Z</time>
      </trkpt>
      <trkpt lat="48.57557" lon="7.69578">
        <ele>141.7</ele>
        <time>2016-06-03T13:31:22Z</time>
      </trkpt>
      <trkpt lat="48.57571" lon="7.69602">
        <ele>142.2</ele>
        <time>2016-06-03T13:31:26Z</time>
      </trkpt>
      <trkpt lat="48.57578" lon="7.69635">
        <ele>142.4</ele>
        <time>2016-06-03T13:31:30Z</time>
      </trkpt>
      <trkpt lat="48.57578" lon="7.69644">
        <ele>142.4</ele>
        <time>2016-06-03T13:31:31Z</time>
      </trkpt>
      <trkpt lat="48.57577" lon="7.6966">
        <ele>142.4</ele>
        <time>2016-06-03T13:31:33Z</time>
      </trkpt>
      <trkpt lat="48.57573" lon="7.69683">
        <ele>142.2</ele>
        <time>2016-06-03T13:31:36Z</time>
      </trkpt>
      <trkpt lat="48.57566" lon="7.69707">
        <ele>141.9</ele>
        <time>2016-06-03T13:31:39Z</time>
      </trkpt>
      <trkpt lat="48.57555" lon="7.69734">
        <ele>141.7</ele>
        <time>2016-06-03T13:31:43Z</time>
      </trkpt>
      <trkpt lat="48.57552" lon="7.6974">
        <ele>141.7</ele>
        <time>2016-06-03T13:31:44Z</time>
      </trkpt>
      <trkpt lat="48.57538" lon="7.69763">
        <ele>141.4</ele>
        <time>2016-06-03T13:31:48Z</time>
      </trkpt>
      <trkpt lat="48.57521" lon="7.69786">
        <ele>140.4</ele>
        <time>2016-06-03T13:31:52Z</time>
      </trkpt>
      <trkpt lat="48.57506" lon="7.69807">
        <ele>139.4</ele>
        <time>2016-06-03T13:31:56Z</time>
      </trkpt>
      <trkpt lat="48.57489" lon="7.69827">
        <ele>138.3</ele>
        <time>2016-06-03T13:32:00Z</time>
      </trkpt>
      <trkpt lat="48.57468" lon="7.69842">
        <ele>137.2</ele>
        <time>2016-06-03T13:32:04Z</time>
      </trkpt>
      <trkpt lat="48.57447" lon="7.69853">
        <ele>137</ele>
        <time>2016-06-03T13:32:08Z</time>
      </trkpt>
      <trkpt lat="48.57424" lon="7.69863">
        <ele>137.7</ele>
        <time>2016-06-03T13:32:12Z</time>
      </trkpt>
      <trkpt lat="48.57403" lon="7.69873">
        <ele>138.3</ele>
        <time>2016-06-03T13:32:16Z</time>
      </trkpt>
      <trkpt lat="48.57383" lon="7.6989">
        <ele>139.3</ele>
        <time>2016-06-03T13:32:20Z</time>
      </trkpt>
      <trkpt lat="48.57364" lon="7.69909">
        <ele>140.1</ele>
        <time>2016-06-03T13:32:24Z</time>
      </trkpt>
      <trkpt lat="48.57345" lon="7.6993">
        <ele>140.4</ele>
        <time>2016-06-03T13:32:28Z</time>
      </trkpt>
      <trkpt lat="48.57328" lon="7.6995">
        <ele>140.6</ele>
        <time>2016-06-03T13:32:32Z</time>
      </trkpt>
      <trkpt lat="48.57309" lon="7.6997">
        <ele>140.5</ele>
        <time>2016-06-03T13:32:36Z</time>
      </trkpt>
      <trkpt lat="48.57293" lon="7.69992">
        <ele>140.4</ele>
        <time>2016-06-03T13:32:40Z</time>
      </trkpt>
      <trkpt lat="48.57286" lon="7.7002">
        <ele>140.6</ele>
        <time>2016-06-03T13:32:44Z</time>
      </trkpt>
      <trkpt lat="48.57286" lon="7.70036">
        <ele>140.8</ele>
        <time>2016-06-03T13:32:46Z</time>
      </trkpt>
      <trkpt lat="48.57289" lon="7.7007">
        <ele>141.6</ele>
        <time>2016-06-03T13:32:50Z</time>
      </trkpt>
      <trkpt lat="48.5729" lon="7.70087">
        <ele>142</ele>
        <time>2016-06-03T13:32:52Z</time>
      </trkpt>
      <trkpt lat="48.57292" lon="7.70116">
        <ele>142.8</ele>
        <time>2016-06-03T13:32:56Z</time>
      </trkpt>
      <trkpt lat="48.57286" lon="7.70145">
        <ele>142.5</ele>
        <time>2016-06-03T13:33:00Z</time>
      </trkpt>
      <trkpt lat="48.57276" lon="7.70175">
        <ele>141.8</ele>
        <time>2016-06-03T13:33:04Z</time>
      </trkpt>
      <trkpt lat="48.57268" lon="7.70206">
        <ele>141.2</ele>
        <time>2016-06-03T13:33:08Z</time>
      </trkpt>
      <trkpt lat="48.57258" lon="7.70237">
        <ele>140.8</ele>
        <time>2016-06-03T13:33:12Z</time>
      </trkpt>
      <trkpt lat="48.57249" lon="7.70269">
        <ele>140.5</ele>
        <time>2016-06-03T13:33:16Z</time>
      </trkpt>
      <trkpt lat="48.57248" lon="7.70277">
        <ele>140.4</ele>
        <time>2016-06-03T13:33:17Z</time>
      </trkpt>
      <trkpt lat="48.57244" lon="7.70292">
        <ele>140.3</ele>
        <time>2016-06-03T13:33:19Z</time>
      </trkpt>
      <trkpt lat="48.57239" lon="7.70307">
        <ele>140.1</ele>
        <time>2016-06-03T13:33:21Z</time>
      </trkpt>
      <trkpt lat="48.57229" lon="7.70337">
        <ele>139.7</ele>
        <time>2016-06-03T13:33:25Z</time>
      </trkpt>
      <trkpt lat="48.57221" lon="7.70361">
        <ele>139.4</ele>
        <time>2016-06-03T13:33:28Z</time>
      </trkpt>
      <trkpt lat="48.57211" lon="7.70384">
        <ele>139.2</ele>
        <time>2016-06-03T13:33:31Z</time>
      </trkpt>
      <trkpt lat="48.57201" lon="7.70407">
        <ele>139.3</ele>
        <time>2016-06-03T13:33:34Z</time>
      </trkpt>
      <trkpt lat="48.57195" lon="7.70423">
        <ele>139.4</ele>
        <time>2016-06-03T13:33:36Z</time>
      </trkpt>
      <trkpt lat="48.57185" lon="7.70449">
        <ele>139.6</ele>
        <time>2016-06-03T13:33:40Z</time>
      </trkpt>
      <trkpt lat="48.57176" lon="7.70476">
        <ele>139.6</ele>
        <time>2016-06-03T13:33:44Z</time>
      </trkpt>
      <trkpt lat="48.57167" lon="7.70508">
        <ele>139.5</ele>
        <time>2016-06-03T13:33:49Z</time>
      </trkpt>
      <trkpt lat="48.57159" lon="7.70529">
        <ele>139.4</ele>
        <time>2016-06-03T13:33:52Z</time>
      </trkpt>
      <trkpt lat="48.5715" lon="7.70558">
        <ele>139.7</ele>
        <time>2016-06-03T13:33:56Z</time>
      </trkpt>
      <trkpt lat="48.57146" lon="7.70571">
        <ele>140.1</ele>
        <time>2016-06-03T13:33:58Z</time>
      </trkpt>
      <trkpt lat="48.5714" lon="7.70598">
        <ele>140.8</ele>
        <time>2016-06-03T13:34:02Z</time>
      </trkpt>
      <trkpt lat="48.57127" lon="7.7062">
        <ele>141.8</ele>
        <time>2016-06-03T13:34:06Z</time>
      </trkpt>
      <trkpt lat="48.57115" lon="7.70645">
        <ele>141.3</ele>
        <time>2016-06-03T13:34:10Z</time>
      </trkpt>
      <trkpt lat="48.57111" lon="7.7068">
        <ele>140.9</ele>
        <time>2016-06-03T13:34:15Z</time>
      </trkpt>
      <trkpt lat="48.57107" lon="7.70717">
        <ele>140.5</ele>
        <time>2016-06-03T13:34:20Z</time>
      </trkpt>
      <trkpt lat="48.57105" lon="7.70724">
        <ele>140.4</ele>
        <time>2016-06-03T13:34:21Z</time>
      </trkpt>
      <trkpt lat="48.57099" lon="7.70756">
        <ele>140.2</ele>
        <time>2016-06-03T13:34:25Z</time>
      </trkpt>
      <trkpt lat="48.5709" lon="7.70786">
        <ele>139.9</ele>
        <time>2016-06-03T13:34:29Z</time>
      </trkpt>
      <trkpt lat="48.57084" lon="7.70812">
        <ele>139.5</ele>
        <time>2016-06-03T13:34:33Z</time>
      </trkpt>
      <trkpt lat="48.57075" lon="7.70843">
        <ele>139</ele>
        <time>2016-06-03T13:34:38Z</time>
      </trkpt>
      <trkpt lat="48.57068" lon="7.70869">
        <ele>138.6</ele>
        <time>2016-06-03T13:34:42Z</time>
      </trkpt>
      <trkpt lat="48.57064" lon="7.70896">
        <ele>138.6</ele>
        <time>2016-06-03T13:34:47Z</time>
      </trkpt>
      <trkpt lat="48.57065" lon="7.70904">
        <ele>138.7</ele>
        <time>2016-06-03T13:34:49Z</time>
      </trkpt>
      <trkpt lat="48.57075" lon="7.70925">
        <ele>139.2</ele>
        <time>2016-06-03T13:34:56Z</time>
      </trkpt>
      <trkpt lat="48.57069" lon="7.70944">
        <ele>139.2</ele>
        <time>2016-06-03T13:35:00Z</time>
      </trkpt>
      <trkpt lat="48.57057" lon="7.70966">
        <ele>139.2</ele>
        <time>2016-06-03T13:35:05Z</time>
      </trkpt>
      <trkpt lat="48.57045" lon="7.7099">
        <ele>139</ele>
        <time>2016-06-03T13:35:10Z</time>
      </trkpt>
      <trkpt lat="48.57051" lon="7.71023">
        <ele>139.1</ele>
        <time>2016-06-03T13:35:16Z</time>
      </trkpt>
      <trkpt lat="48.57045" lon="7.71051">
        <ele>139.3</ele>
        <time>2016-06-03T13:35:22Z</time>
      </trkpt>
      <trkpt lat="48.57034" lon="7.71073">
        <ele>139.8</ele>
        <time>2016-06-03T13:35:27Z</time>
      </trkpt>
      <trkpt lat="48.57023" lon="7.71098">
        <ele>140.7</ele>
        <time>2016-06-03T13:35:32Z</time>
      </trkpt>
      <trkpt lat="48.57008" lon="7.71124">
        <ele>141.8</ele>
        <time>2016-06-03T13:35:37Z</time>
      </trkpt>
      <trkpt lat="48.57002" lon="7.71138">
        <ele>141.9</ele>
        <time>2016-06-03T13:35:39Z</time>
      </trkpt>
      <trkpt lat="48.56998" lon="7.71164">
        <ele>141.8</ele>
        <time>2016-06-03T13:35:43Z</time>
      </trkpt>
      <trkpt lat="48.56991" lon="7.71191">
        <ele>141.7</ele>
        <time>2016-06-03T13:35:48Z</time>
      </trkpt>
      <trkpt lat="48.56984" lon="7.71218">
        <ele>142</ele>
        <time>2016-06-03T13:35:52Z</time>
      </trkpt>
      <trkpt lat="48.56975" lon="7.71243">
        <ele>143</ele>
        <time>2016-06-03T13:35:56Z</time>
      </trkpt>
      <trkpt lat="48.56974" lon="7.7125">
        <ele>143.2</ele>
        <time>2016-06-03T13:35:57Z</time>
      </trkpt>
      <trkpt lat="48.56975" lon="7.71283">
        <ele>144.3</ele>
        <time>2016-06-03T13:36:02Z</time>
      </trkpt>
      <trkpt lat="48.56974" lon="7.71311">
        <ele>144.1</ele>
        <time>2016-06-03T13:36:06Z</time>
      </trkpt>
      <trkpt lat="48.56974" lon="7.71318">
        <ele>143.9</ele>
        <time>2016-06-03T13:36:07Z</time>
      </trkpt>
      <trkpt lat="48.56986" lon="7.71344">
        <ele>143.1</ele>
        <time>2016-06-03T13:36:12Z</time>
      </trkpt>
      <trkpt lat="48.56994" lon="7.71351">
        <ele>142.9</ele>
        <time>2016-06-03T13:36:14Z</time>
      </trkpt>
      <trkpt lat="48.57007" lon="7.7137">
        <ele>142.7</ele>
        <time>2016-06-03T13:36:19Z</time>
      </trkpt>
      <trkpt lat="48.56996" lon="7.71396">
        <ele>142.5</ele>
        <time>2016-06-03T13:36:25Z</time>
      </trkpt>
      <trkpt lat="48.56986" lon="7.71419">
        <ele>142.3</ele>
        <time>2016-06-03T13:36:30Z</time>
      </trkpt>
      <trkpt lat="48.56978" lon="7.71447">
        <ele>142</ele>
        <time>2016-06-03T13:36:35Z</time>
      </trkpt>
      <trkpt lat="48.56972" lon="7.71462">
        <ele>141.6</ele>
        <time>2016-06-03T13:36:38Z</time>
      </trkpt>
      <trkpt lat="48.56962" lon="7.71486">
        <ele>140.8</ele>
        <time>2016-06-03T13:36:42Z</time>
      </trkpt>
      <trkpt lat="48.56951" lon="7.71509">
        <ele>140.2</ele>
        <time>2016-06-03T13:36:45Z</time>
      </trkpt>
      <trkpt lat="48.56946" lon="7.71524">
        <ele>139.9</ele>
        <time>2016-06-03T13:36:47Z</time>
      </trkpt>
      <trkpt lat="48.56935" lon="7.71554">
        <ele>139.9</ele>
        <time>2016-06-03T13:36:51Z</time>
      </trkpt>
      <trkpt lat="48.56926" lon="7.71582">
        <ele>140.5</ele>
        <time>2016-06-03T13:36:55Z</time>
      </trkpt>
      <trkpt lat="48.56918" lon="7.71607">
        <ele>141.4</ele>
        <time>2016-06-03T13:37:00Z</time>
      </trkpt>
      <trkpt lat="48.5691" lon="7.71632">
        <ele>142.6</ele>
        <time>2016-06-03T13:37:06Z</time>
      </trkpt>
      <trkpt lat="48.56907" lon="7.71642">
        <ele>143.1</ele>
        <time>2016-06-03T13:37:10Z</time>
      </trkpt>
      <trkpt lat="48.569" lon="7.71661">
        <ele>144.1</ele>
        <time>2016-06-03T13:37:19Z</time>
      </trkpt>
      <trkpt lat="48.5689" lon="7.71687">
        <ele>145.2</ele>
        <time>2016-06-03T13:37:26Z</time>
      </trkpt>
      <trkpt lat="48.56878" lon="7.7171">
        <ele>145.9</ele>
        <time>2016-06-03T13:37:31Z</time>
      </trkpt>
      <trkpt lat="48.5687" lon="7.71737">
        <ele>144</ele>
        <time>2016-06-03T13:37:37Z</time>
      </trkpt>
      <trkpt lat="48.56862" lon="7.71762">
        <ele>142.3</ele>
        <time>2016-06-03T13:37:42Z</time>
      </trkpt>
      <trkpt lat="48.56856" lon="7.71789">
        <ele>140.9</ele>
        <time>2016-06-03T13:37:47Z</time>
      </trkpt>
      <trkpt lat="48.56854" lon="7.71801">
        <ele>140.6</ele>
        <time>2016-06-03T13:37:49Z</time>
      </trkpt>
      <trkpt lat="48.56855" lon="7.71832">
        <ele>140</ele>
        <time>2016-06-03T13:37:54Z</time>
      </trkpt>
      <trkpt lat="48.56857" lon="7.71857">
        <ele>139.6</ele>
        <time>2016-06-03T13:37:58Z</time>
      </trkpt>
      <trkpt lat="48.56864" lon="7.71887">
        <ele>139.1</ele>
        <time>2016-06-03T13:38:03Z</time>
      </trkpt>
      <trkpt lat="48.56872" lon="7.71916">
        <ele>139</ele>
        <time>2016-06-03T13:38:08Z</time>
      </trkpt>
      <trkpt lat="48.56881" lon="7.71947">
        <ele>139</ele>
        <time>2016-06-03T13:38:13Z</time>
      </trkpt>
      <trkpt lat="48.56887" lon="7.71974">
        <ele>138.8</ele>
        <time>2016-06-03T13:38:18Z</time>
      </trkpt>
      <trkpt lat="48.56894" lon="7.72001">
        <ele>138.4</ele>
        <time>2016-06-03T13:38:26Z</time>
      </trkpt>
      <trkpt lat="48.56895" lon="7.72004">
        <ele>138.3</ele>
        <time>2016-06-03T13:38:29Z</time>
      </trkpt>
      <trkpt lat="48.56909" lon="7.72013">
        <ele>138.1</ele>
        <time>2016-06-03T13:39:24Z</time>
      </trkpt>
      <trkpt lat="48.56921" lon="7.72009">
        <ele>138.1</ele>
        <time>2016-06-03T13:39:29Z</time>
      </trkpt>
      <trkpt lat="48.56936" lon="7.7202">
        <ele>137.7</ele>
        <time>2016-06-03T13:39:34Z</time>
      </trkpt>
      <trkpt lat="48.56942" lon="7.72046">
        <ele>137.3</ele>
        <time>2016-06-03T13:39:38Z</time>
      </trkpt>
      <trkpt lat="48.56943" lon="7.72075">
        <ele>137.8</ele>
        <time>2016-06-03T13:39:42Z</time>
      </trkpt>
      <trkpt lat="48.56947" lon="7.72103">
        <ele>138.4</ele>
        <time>2016-06-03T13:39:46Z</time>
      </trkpt>
      <trkpt lat="48.56947" lon="7.72118">
        <ele>138.7</ele>
        <time>2016-06-03T13:39:48Z</time>
      </trkpt>
      <trkpt lat="48.56946" lon="7.7215">
        <ele>138.7</ele>
        <time>2016-06-03T13:39:52Z</time>
      </trkpt>
      <trkpt lat="48.56947" lon="7.72185">
        <ele>138.4</ele>
        <time>2016-06-03T13:39:56Z</time>
      </trkpt>
      <trkpt lat="48.5695" lon="7.72219">
        <ele>138</ele>
        <time>2016-06-03T13:40:00Z</time>
      </trkpt>
      <trkpt lat="48.56954" lon="7.72252">
        <ele>137.1</ele>
        <time>2016-06-03T13:40:04Z</time>
      </trkpt>
      <trkpt lat="48.5696" lon="7.72284">
        <ele>136.2</ele>
        <time>2016-06-03T13:40:08Z</time>
      </trkpt>
      <trkpt lat="48.56969" lon="7.72315">
        <ele>137.1</ele>
        <time>2016-06-03T13:40:12Z</time>
      </trkpt>
      <trkpt lat="48.5698" lon="7.72346">
        <ele>138.2</ele>
        <time>2016-06-03T13:40:16Z</time>
      </trkpt>
      <trkpt lat="48.56988" lon="7.72377">
        <ele>139</ele>
        <time>2016-06-03T13:40:20Z</time>
      </trkpt>
      <trkpt lat="48.56999" lon="7.72405">
        <ele>139</ele>
        <time>2016-06-03T13:40:24Z</time>
      </trkpt>
      <trkpt lat="48.57005" lon="7.72419">
        <ele>139.1</ele>
        <time>2016-06-03T13:40:26Z</time>
      </trkpt>
      <trkpt lat="48.57014" lon="7.72447">
        <ele>139.3</ele>
        <time>2016-06-03T13:40:30Z</time>
      </trkpt>
      <trkpt lat="48.57019" lon="7.72474">
        <ele>139.4</ele>
        <time>2016-06-03T13:40:34Z</time>
      </trkpt>
      <trkpt lat="48.57022" lon="7.72507">
        <ele>139.4</ele>
        <time>2016-06-03T13:40:39Z</time>
      </trkpt>
      <trkpt lat="48.57026" lon="7.72536">
        <ele>139.2</ele>
        <time>2016-06-03T13:40:44Z</time>
      </trkpt>
      <trkpt lat="48.57034" lon="7.72561">
        <ele>138.6</ele>
        <time>2016-06-03T13:40:51Z</time>
      </trkpt>
      <trkpt lat="48.57046" lon="7.7258">
        <ele>138</ele>
        <time>2016-06-03T13:41:00Z</time>
      </trkpt>
      <trkpt lat="48.57048" lon="7.72584">
        <ele>138</ele>
        <time>2016-06-03T13:41:04Z</time>
      </trkpt>
      <trkpt lat="48.57056" lon="7.72592">
        <ele>137.8</ele>
        <time>2016-06-03T13:41:54Z</time>
      </trkpt>
      <trkpt lat="48.57061" lon="7.72596">
        <ele>137.7</ele>
        <time>2016-06-03T13:41:58Z</time>
      </trkpt>
      <trkpt lat="48.57078" lon="7.72615">
        <ele>137.5</ele>
        <time>2016-06-03T13:42:05Z</time>
      </trkpt>
      <trkpt lat="48.57088" lon="7.72639">
        <ele>137.7</ele>
        <time>2016-06-03T13:42:10Z</time>
      </trkpt>
      <trkpt lat="48.57102" lon="7.72658">
        <ele>138.1</ele>
        <time>2016-06-03T13:42:15Z</time>
      </trkpt>
      <trkpt lat="48.57109" lon="7.7267">
        <ele>138.3</ele>
        <time>2016-06-03T13:42:18Z</time>
      </trkpt>
      <trkpt lat="48.5712" lon="7.72692">
        <ele>138.7</ele>
        <time>2016-06-03T13:42:25Z</time>
      </trkpt>
      <trkpt lat="48.57133" lon="7.72716">
        <ele>139.4</ele>
        <time>2016-06-03T13:42:32Z</time>
      </trkpt>
      <trkpt lat="48.57146" lon="7.7274">
        <ele>140.1</ele>
        <time>2016-06-03T13:42:39Z</time>
      </trkpt>
      <trkpt lat="48.57158" lon="7.72767">
        <ele>140.6</ele>
        <time>2016-06-03T13:42:45Z</time>
      </trkpt>
      <trkpt lat="48.57162" lon="7.72797">
        <ele>140.9</ele>
        <time>2016-06-03T13:42:50Z</time>
      </trkpt>
      <trkpt lat="48.57164" lon="7.72811">
        <ele>140.8</ele>
        <time>2016-06-03T13:42:52Z</time>
      </trkpt>
      <trkpt lat="48.57171" lon="7.72838">
        <ele>140.4</ele>
        <time>2016-06-03T13:42:56Z</time>
      </trkpt>
      <trkpt lat="48.57173" lon="7.72844">
        <ele>140.4</ele>
        <time>2016-06-03T13:42:57Z</time>
      </trkpt>
      <trkpt lat="48.57178" lon="7.72856">
        <ele>140.2</ele>
        <time>2016-06-03T13:42:59Z</time>
      </trkpt>
      <trkpt lat="48.57191" lon="7.72881">
        <ele>140.1</ele>
        <time>2016-06-03T13:43:04Z</time>
      </trkpt>
      <trkpt lat="48.57203" lon="7.72905">
        <ele>140.4</ele>
        <time>2016-06-03T13:43:09Z</time>
      </trkpt>
      <trkpt lat="48.57209" lon="7.72933">
        <ele>140.7</ele>
        <time>2016-06-03T13:43:15Z</time>
      </trkpt>
      <trkpt lat="48.57212" lon="7.72951">
        <ele>140.7</ele>
        <time>2016-06-03T13:43:20Z</time>
      </trkpt>
      <trkpt lat="48.57218" lon="7.72968">
        <ele>140.5</ele>
        <time>2016-06-03T13:43:24Z</time>
      </trkpt>
      <trkpt lat="48.57219" lon="7.72998">
        <ele>140.9</ele>
        <time>2016-06-03T13:43:29Z</time>
      </trkpt>
      <trkpt lat="48.57218" lon="7.73027">
        <ele>141.3</ele>
        <time>2016-06-03T13:43:34Z</time>
      </trkpt>
      <trkpt lat="48.57214" lon="7.73055">
        <ele>141.5</ele>
        <time>2016-06-03T13:43:39Z</time>
      </trkpt>
      <trkpt lat="48.57227" lon="7.73074">
        <ele>140.6</ele>
        <time>2016-06-03T13:43:42Z</time>
      </trkpt>
      <trkpt lat="48.57217" lon="7.73106">
        <ele>140.3</ele>
        <time>2016-06-03T13:43:46Z</time>
      </trkpt>
      <trkpt lat="48.57205" lon="7.73131">
        <ele>140.2</ele>
        <time>2016-06-03T13:43:52Z</time>
      </trkpt>
      <trkpt lat="48.57201" lon="7.73133">
        <ele>140.3</ele>
        <time>2016-06-03T13:43:53Z</time>
      </trkpt>
      <trkpt lat="48.57181" lon="7.73143">
        <ele>141.2</ele>
        <time>2016-06-03T13:43:58Z</time>
      </trkpt>
      <trkpt lat="48.57173" lon="7.7316">
        <ele>141.5</ele>
        <time>2016-06-03T13:44:01Z</time>
      </trkpt>
      <trkpt lat="48.57171" lon="7.73183">
        <ele>141.5</ele>
        <time>2016-06-03T13:44:05Z</time>
      </trkpt>
      <trkpt lat="48.57164" lon="7.73201">
        <ele>141.6</ele>
        <time>2016-06-03T13:44:09Z</time>
      </trkpt>
      <trkpt lat="48.57148" lon="7.73215">
        <ele>142</ele>
        <time>2016-06-03T13:44:14Z</time>
      </trkpt>
      <trkpt lat="48.57137" lon="7.73228">
        <ele>142.1</ele>
        <time>2016-06-03T13:44:17Z</time>
      </trkpt>
      <trkpt lat="48.57123" lon="7.73254">
        <ele>141.9</ele>
        <time>2016-06-03T13:44:21Z</time>
      </trkpt>
      <trkpt lat="48.57123" lon="7.73269">
        <ele>141.5</ele>
        <time>2016-06-03T13:44:23Z</time>
      </trkpt>
      <trkpt lat="48.57123" lon="7.73292">
        <ele>141</ele>
        <time>2016-06-03T13:44:26Z</time>
      </trkpt>
      <trkpt lat="48.57126" lon="7.7332">
        <ele>141</ele>
        <time>2016-06-03T13:44:31Z</time>
      </trkpt>
      <trkpt lat="48.5713" lon="7.7335">
        <ele>140.8</ele>
        <time>2016-06-03T13:44:37Z</time>
      </trkpt>
      <trkpt lat="48.57134" lon="7.73379">
        <ele>140.5</ele>
        <time>2016-06-03T13:44:42Z</time>
      </trkpt>
      <trkpt lat="48.57132" lon="7.73409">
        <ele>139.7</ele>
        <time>2016-06-03T13:44:48Z</time>
      </trkpt>
      <trkpt lat="48.57115" lon="7.73422">
        <ele>139.7</ele>
        <time>2016-06-03T13:44:54Z</time>
      </trkpt>
      <trkpt lat="48.57103" lon="7.73436">
        <ele>139.7</ele>
        <time>2016-06-03T13:45:03Z</time>
      </trkpt>
      <trkpt lat="48.57088" lon="7.73426">
        <ele>140.6</ele>
        <time>2016-06-03T13:45:09Z</time>
      </trkpt>
      <trkpt lat="48.5707" lon="7.73416">
        <ele>141.5</ele>
        <time>2016-06-03T13:45:14Z</time>
      </trkpt>
      <trkpt lat="48.57051" lon="7.73415">
        <ele>142.2</ele>
        <time>2016-06-03T13:45:20Z</time>
      </trkpt>
      <trkpt lat="48.57033" lon="7.73422">
        <ele>142.1</ele>
        <time>2016-06-03T13:45:25Z</time>
      </trkpt>
      <trkpt lat="48.57016" lon="7.73442">
        <ele>141.4</ele>
        <time>2016-06-03T13:45:31Z</time>
      </trkpt>
      <trkpt lat="48.56999" lon="7.73462">
        <ele>140.9</ele>
        <time>2016-06-03T13:45:37Z</time>
      </trkpt>
      <trkpt lat="48.5698" lon="7.73463">
        <ele>140.3</ele>
        <time>2016-06-03T13:45:44Z</time>
      </trkpt>
      <trkpt lat="48.56959" lon="7.73459">
        <ele>140</ele>
        <time>2016-06-03T13:45:49Z</time>
      </trkpt>
      <trkpt lat="48.56939" lon="7.73463">
        <ele>139.2</ele>
        <time>2016-06-03T13:45:56Z</time>
      </trkpt>
      <trkpt lat="48.56931" lon="7.7349">
        <ele>138.3</ele>
        <time>2016-06-03T13:46:04Z</time>
      </trkpt>
      <trkpt lat="48.56932" lon="7.73509">
        <ele>137.8</ele>
        <time>2016-06-03T13:46:11Z</time>
      </trkpt>
      <trkpt lat="48.5694" lon="7.73515">
        <ele>137.7</ele>
        <time>2016-06-03T13:46:15Z</time>
      </trkpt>
      <trkpt lat="48.56958" lon="7.73523">
        <ele>137.7</ele>
        <time>2016-06-03T13:46:20Z</time>
      </trkpt>
      <trkpt lat="48.56976" lon="7.73526">
        <ele>138</ele>
        <time>2016-06-03T13:46:25Z</time>
      </trkpt>
      <trkpt lat="48.56989" lon="7.73527">
        <ele>138.2</ele>
        <time>2016-06-03T13:46:28Z</time>
      </trkpt>
      <trkpt lat="48.57012" lon="7.73527">
        <ele>138.8</ele>
        <time>2016-06-03T13:46:32Z</time>
      </trkpt>
      <trkpt lat="48.57032" lon="7.73531">
        <ele>139.1</ele>
        <time>2016-06-03T13:46:35Z</time>
      </trkpt>
      <trkpt lat="48.57039" lon="7.73532">
        <ele>139.3</ele>
        <time>2016-06-03T13:46:36Z</time>
      </trkpt>
      <trkpt lat="48.57058" lon="7.73532">
        <ele>138.9</ele>
        <time>2016-06-03T13:46:39Z</time>
      </trkpt>
      <trkpt lat="48.57077" lon="7.73532">
        <ele>138.4</ele>
        <time>2016-06-03T13:46:42Z</time>
      </trkpt>
      <trkpt lat="48.57099" lon="7.73533">
        <ele>137.8</ele>
        <time>2016-06-03T13:46:46Z</time>
      </trkpt>
      <trkpt lat="48.57122" lon="7.73534">
        <ele>137.2</ele>
        <time>2016-06-03T13:46:50Z</time>
      </trkpt>
      <trkpt lat="48.57144" lon="7.73534">
        <ele>137.3</ele>
        <time>2016-06-03T13:46:55Z</time>
      </trkpt>
      <trkpt lat="48.57162" lon="7.73526">
        <ele>137.6</ele>
        <time>2016-06-03T13:47:01Z</time>
      </trkpt>
      <trkpt lat="48.57181" lon="7.73529">
        <ele>137.8</ele>
        <time>2016-06-03T13:47:07Z</time>
      </trkpt>
      <trkpt lat="48.57197" lon="7.73541">
        <ele>137.9</ele>
        <time>2016-06-03T13:47:11Z</time>
      </trkpt>
      <trkpt lat="48.57215" lon="7.73555">
        <ele>138.5</ele>
        <time>2016-06-03T13:47:15Z</time>
      </trkpt>
      <trkpt lat="48.57235" lon="7.73567">
        <ele>139.3</ele>
        <time>2016-06-03T13:47:20Z</time>
      </trkpt>
      <trkpt lat="48.57247" lon="7.73572">
        <ele>139.6</ele>
        <time>2016-06-03T13:47:23Z</time>
      </trkpt>
      <trkpt lat="48.57263" lon="7.73573">
        <ele>140</ele>
        <time>2016-06-03T13:47:27Z</time>
      </trkpt>
      <trkpt lat="48.57281" lon="7.73578">
        <ele>140.4</ele>
        <time>2016-06-03T13:47:32Z</time>
      </trkpt>
      <trkpt lat="48.57288" lon="7.73582">
        <ele>140.4</ele>
        <time>2016-06-03T13:47:35Z</time>
      </trkpt>
      <trkpt lat="48.57292" lon="7.73596">
        <ele>140.3</ele>
        <time>2016-06-03T13:47:40Z</time>
      </trkpt>
      <trkpt lat="48.57295" lon="7.73599">
        <ele>140.3</ele>
        <time>2016-06-03T13:47:41Z</time>
      </trkpt>
      <trkpt lat="48.57311" lon="7.73612">
        <ele>140.2</ele>
        <time>2016-06-03T13:47:47Z</time>
      </trkpt>
      <trkpt lat="48.57319" lon="7.73622">
        <ele>140</ele>
        <time>2016-06-03T13:47:50Z</time>
      </trkpt>
      <trkpt lat="48.57333" lon="7.73639">
        <ele>139.9</ele>
        <time>2016-06-03T13:47:54Z</time>
      </trkpt>
      <trkpt lat="48.57347" lon="7.73659">
        <ele>139.7</ele>
        <time>2016-06-03T13:47:59Z</time>
      </trkpt>
      <trkpt lat="48.57362" lon="7.73683">
        <ele>139.4</ele>
        <time>2016-06-03T13:48:04Z</time>
      </trkpt>
      <trkpt lat="48.57372" lon="7.73698">
        <ele>139.2</ele>
        <time>2016-06-03T13:48:08Z</time>
      </trkpt>
      <trkpt lat="48.57392" lon="7.73712">
        <ele>138.2</ele>
        <time>2016-06-03T13:48:12Z</time>
      </trkpt>
      <trkpt lat="48.57402" lon="7.73733">
        <ele>138.1</ele>
        <time>2016-06-03T13:48:15Z</time>
      </trkpt>
      <trkpt lat="48.57408" lon="7.7376">
        <ele>138.4</ele>
        <time>2016-06-03T13:48:19Z</time>
      </trkpt>
      <trkpt lat="48.57407" lon="7.73789">
        <ele>139</ele>
        <time>2016-06-03T13:48:25Z</time>
      </trkpt>
      <trkpt lat="48.57404" lon="7.73818">
        <ele>139.5</ele>
        <time>2016-06-03T13:48:31Z</time>
      </trkpt>
      <trkpt lat="48.57404" lon="7.73848">
        <ele>140.1</ele>
        <time>2016-06-03T13:48:35Z</time>
      </trkpt>
      <trkpt lat="48.57402" lon="7.73859">
        <ele>140.4</ele>
        <time>2016-06-03T13:48:37Z</time>
      </trkpt>
      <trkpt lat="48.57395" lon="7.73888">
        <ele>140.3</ele>
        <time>2016-06-03T13:48:42Z</time>
      </trkpt>
      <trkpt lat="48.57395" lon="7.7392">
        <ele>139.1</ele>
        <time>2016-06-03T13:48:46Z</time>
      </trkpt>
      <trkpt lat="48.57395" lon="7.73928">
        <ele>138.9</ele>
        <time>2016-06-03T13:48:47Z</time>
      </trkpt>
      <trkpt lat="48.57396" lon="7.73958">
        <ele>137.8</ele>
        <time>2016-06-03T13:48:51Z</time>
      </trkpt>
      <trkpt lat="48.57395" lon="7.73988">
        <ele>137.7</ele>
        <time>2016-06-03T13:48:55Z</time>
      </trkpt>
      <trkpt lat="48.57397" lon="7.74009">
        <ele>137.6</ele>
        <time>2016-06-03T13:48:58Z</time>
      </trkpt>
      <trkpt lat="48.57399" lon="7.7404">
        <ele>137.4</ele>
        <time>2016-06-03T13:49:03Z</time>
      </trkpt>
      <trkpt lat="48.57396" lon="7.74069">
        <ele>138.1</ele>
        <time>2016-06-03T13:49:07Z</time>
      </trkpt>
      <trkpt lat="48.57394" lon="7.74097">
        <ele>138.9</ele>
        <time>2016-06-03T13:49:11Z</time>
      </trkpt>
      <trkpt lat="48.5739" lon="7.74125">
        <ele>139.6</ele>
        <time>2016-06-03T13:49:15Z</time>
      </trkpt>
      <trkpt lat="48.57385" lon="7.74151">
        <ele>139.8</ele>
        <time>2016-06-03T13:49:19Z</time>
      </trkpt>
      <trkpt lat="48.57379" lon="7.74181">
        <ele>139.9</ele>
        <time>2016-06-03T13:49:25Z</time>
      </trkpt>
      <trkpt lat="48.57375" lon="7.74209">
        <ele>140</ele>
        <time>2016-06-03T13:49:33Z</time>
      </trkpt>
      <trkpt lat="48.57374" lon="7.74213">
        <ele>140.1</ele>
        <time>2016-06-03T13:49:37Z</time>
      </trkpt>
      <trkpt lat="48.57388" lon="7.74216">
        <ele>140</ele>
        <time>2016-06-03T13:51:17Z</time>
      </trkpt>
      <trkpt lat="48.57392" lon="7.74219">
        <ele>140</ele>
        <time>2016-06-03T13:51:22Z</time>
      </trkpt>
      <trkpt lat="48.57393" lon="7.74234">
        <ele>140.3</ele>
        <time>2016-06-03T13:51:27Z</time>
      </trkpt>
      <trkpt lat="48.57394" lon="7.74265">
        <ele>140.9</ele>
        <time>2016-06-03T13:51:33Z</time>
      </trkpt>
      <trkpt lat="48.57397" lon="7.74296">
        <ele>141.4</ele>
        <time>2016-06-03T13:51:38Z</time>
      </trkpt>
      <trkpt lat="48.57399" lon="7.74327">
        <ele>140.9</ele>
        <time>2016-06-03T13:51:43Z</time>
      </trkpt>
      <trkpt lat="48.574" lon="7.7436">
        <ele>140.4</ele>
        <time>2016-06-03T13:51:48Z</time>
      </trkpt>
      <trkpt lat="48.57401" lon="7.74391">
        <ele>140.1</ele>
        <time>2016-06-03T13:51:52Z</time>
      </trkpt>
      <trkpt lat="48.57401" lon="7.7442">
        <ele>139.8</ele>
        <time>2016-06-03T13:51:56Z</time>
      </trkpt>
      <trkpt lat="48.574" lon="7.7445">
        <ele>139.5</ele>
        <time>2016-06-03T13:52:02Z</time>
      </trkpt>
      <trkpt lat="48.57398" lon="7.74478">
        <ele>139.7</ele>
        <time>2016-06-03T13:52:12Z</time>
      </trkpt>
      <trkpt lat="48.57397" lon="7.74505">
        <ele>140</ele>
        <time>2016-06-03T13:52:24Z</time>
      </trkpt>
      <trkpt lat="48.57397" lon="7.74523">
        <ele>140.2</ele>
        <time>2016-06-03T14:01:39Z</time>
      </trkpt>
      <trkpt lat="48.57397" lon="7.74555">
        <ele>140.6</ele>
        <time>2016-06-03T14:01:46Z</time>
      </trkpt>
      <trkpt lat="48.57398" lon="7.74585">
        <ele>140.9</ele>
        <time>2016-06-03T14:01:51Z</time>
      </trkpt>
      <trkpt lat="48.57399" lon="7.74619">
        <ele>141.2</ele>
        <time>2016-06-03T14:01:56Z</time>
      </trkpt>
      <trkpt lat="48.574" lon="7.74647">
        <ele>141.2</ele>
        <time>2016-06-03T14:02:00Z</time>
      </trkpt>
      <trkpt lat="48.57403" lon="7.74676">
        <ele>141.1</ele>
        <time>2016-06-03T14:02:04Z</time>
      </trkpt>
      <trkpt lat="48.57407" lon="7.74708">
        <ele>140.8</ele>
        <time>2016-06-03T14:02:08Z</time>
      </trkpt>
      <trkpt lat="48.5741" lon="7.74738">
        <ele>140.7</ele>
        <time>2016-06-03T14:02:12Z</time>
      </trkpt>
      <trkpt lat="48.57414" lon="7.74769">
        <ele>140.6</ele>
        <time>2016-06-03T14:02:16Z</time>
      </trkpt>
      <trkpt lat="48.57419" lon="7.74802">
        <ele>140.2</ele>
        <time>2016-06-03T14:02:20Z</time>
      </trkpt>
      <trkpt lat="48.57424" lon="7.74835">
        <ele>139.3</ele>
        <time>2016-06-03T14:02:24Z</time>
      </trkpt>
      <trkpt lat="48.57428" lon="7.7487">
        <ele>138.5</ele>
        <time>2016-06-03T14:02:28Z</time>
      </trkpt>
      <trkpt lat="48.57432" lon="7.74885">
        <ele>138.6</ele>
        <time>2016-06-03T14:02:30Z</time>
      </trkpt>
      <trkpt lat="48.57443" lon="7.74913">
        <ele>139.1</ele>
        <time>2016-06-03T14:02:35Z</time>
      </trkpt>
      <trkpt lat="48.5745" lon="7.74941">
        <ele>139.7</ele>
        <time>2016-06-03T14:02:40Z</time>
      </trkpt>
      <trkpt lat="48.57458" lon="7.74969">
        <ele>140.1</ele>
        <time>2016-06-03T14:02:45Z</time>
      </trkpt>
      <trkpt lat="48.57464" lon="7.75">
        <ele>140.6</ele>
        <time>2016-06-03T14:02:50Z</time>
      </trkpt>
      <trkpt lat="48.57467" lon="7.75028">
        <ele>141</ele>
        <time>2016-06-03T14:02:54Z</time>
      </trkpt>
      <trkpt lat="48.57474" lon="7.75059">
        <ele>140.7</ele>
        <time>2016-06-03T14:02:59Z</time>
      </trkpt>
      <trkpt lat="48.57479" lon="7.75091">
        <ele>140.2</ele>
        <time>2016-06-03T14:03:05Z</time>
      </trkpt>
      <trkpt lat="48.57486" lon="7.75119">
        <ele>140.1</ele>
        <time>2016-06-03T14:03:10Z</time>
      </trkpt>
      <trkpt lat="48.5749" lon="7.75146">
        <ele>140.8</ele>
        <time>2016-06-03T14:03:15Z</time>
      </trkpt>
      <trkpt lat="48.57499" lon="7.75174">
        <ele>141.9</ele>
        <time>2016-06-03T14:03:20Z</time>
      </trkpt>
      <trkpt lat="48.57505" lon="7.75203">
        <ele>142.6</ele>
        <time>2016-06-03T14:03:26Z</time>
      </trkpt>
      <trkpt lat="48.5751" lon="7.75231">
        <ele>142.4</ele>
        <time>2016-06-03T14:03:33Z</time>
      </trkpt>
      <trkpt lat="48.57511" lon="7.75262">
        <ele>141.7</ele>
        <time>2016-06-03T14:03:39Z</time>
      </trkpt>
      <trkpt lat="48.57514" lon="7.75289">
        <ele>141.1</ele>
        <time>2016-06-03T14:03:47Z</time>
      </trkpt>
      <trkpt lat="48.57516" lon="7.753">
        <ele>141</ele>
        <time>2016-06-03T14:03:55Z</time>
      </trkpt>
      <trkpt lat="48.57521" lon="7.75344">
        <ele>140.8</ele>
        <time>2016-06-03T14:04:53Z</time>
      </trkpt>
      <trkpt lat="48.57522" lon="7.75373">
        <ele>140.7</ele>
        <time>2016-06-03T14:05:01Z</time>
      </trkpt>
      <trkpt lat="48.57523" lon="7.75401">
        <ele>141</ele>
        <time>2016-06-03T14:05:08Z</time>
      </trkpt>
      <trkpt lat="48.57522" lon="7.75431">
        <ele>141.4</ele>
        <time>2016-06-03T14:05:16Z</time>
      </trkpt>
      <trkpt lat="48.57524" lon="7.7546">
        <ele>141.8</ele>
        <time>2016-06-03T14:05:22Z</time>
      </trkpt>
      <trkpt lat="48.57525" lon="7.75488">
        <ele>141.9</ele>
        <time>2016-06-03T14:05:28Z</time>
      </trkpt>
      <trkpt lat="48.5753" lon="7.75515">
        <ele>142</ele>
        <time>2016-06-03T14:05:33Z</time>
      </trkpt>
      <trkpt lat="48.57536" lon="7.75543">
        <ele>142</ele>
        <time>2016-06-03T14:05:40Z</time>
      </trkpt>
      <trkpt lat="48.5754" lon="7.75562">
        <ele>142</ele>
        <time>2016-06-03T14:05:49Z</time>
      </trkpt>
      <trkpt lat="48.57542" lon="7.75565">
        <ele>142</ele>
        <time>2016-06-03T14:05:54Z</time>
      </trkpt>
      <trkpt lat="48.57533" lon="7.75595">
        <ele>141.8</ele>
        <time>2016-06-03T14:06:53Z</time>
      </trkpt>
      <trkpt lat="48.57529" lon="7.75607">
        <ele>141.6</ele>
        <time>2016-06-03T14:06:57Z</time>
      </trkpt>
      <trkpt lat="48.57527" lon="7.75639">
        <ele>142</ele>
        <time>2016-06-03T14:07:03Z</time>
      </trkpt>
      <trkpt lat="48.57525" lon="7.7567">
        <ele>142.9</ele>
        <time>2016-06-03T14:07:08Z</time>
      </trkpt>
      <trkpt lat="48.57525" lon="7.75677">
        <ele>143.1</ele>
        <time>2016-06-03T14:07:09Z</time>
      </trkpt>
      <trkpt lat="48.5753" lon="7.75709">
        <ele>144.7</ele>
        <time>2016-06-03T14:07:13Z</time>
      </trkpt>
      <trkpt lat="48.57533" lon="7.75742">
        <ele>143.7</ele>
        <time>2016-06-03T14:07:18Z</time>
      </trkpt>
      <trkpt lat="48.57533" lon="7.75775">
        <ele>142.3</ele>
        <time>2016-06-03T14:07:23Z</time>
      </trkpt>
      <trkpt lat="48.57529" lon="7.75805">
        <ele>141</ele>
        <time>2016-06-03T14:07:28Z</time>
      </trkpt>
      <trkpt lat="48.57525" lon="7.75835">
        <ele>140</ele>
        <time>2016-06-03T14:07:33Z</time>
      </trkpt>
      <trkpt lat="48.57521" lon="7.75867">
        <ele>139.2</ele>
        <time>2016-06-03T14:07:38Z</time>
      </trkpt>
      <trkpt lat="48.57519" lon="7.75896">
        <ele>139.6</ele>
        <time>2016-06-03T14:07:43Z</time>
      </trkpt>
      <trkpt lat="48.57516" lon="7.75923">
        <ele>140.3</ele>
        <time>2016-06-03T14:07:48Z</time>
      </trkpt>
      <trkpt lat="48.57513" lon="7.75954">
        <ele>141.2</ele>
        <time>2016-06-03T14:07:53Z</time>
      </trkpt>
      <trkpt lat="48.57507" lon="7.75987">
        <ele>141.3</ele>
        <time>2016-06-03T14:07:58Z</time>
      </trkpt>
      <trkpt lat="48.57503" lon="7.76015">
        <ele>141.1</ele>
        <time>2016-06-03T14:08:02Z</time>
      </trkpt>
      <trkpt lat="48.575" lon="7.76046">
        <ele>140.9</ele>
        <time>2016-06-03T14:08:07Z</time>
      </trkpt>
      <trkpt lat="48.57496" lon="7.76076">
        <ele>140.5</ele>
        <time>2016-06-03T14:08:12Z</time>
      </trkpt>
      <trkpt lat="48.57495" lon="7.7611">
        <ele>140.1</ele>
        <time>2016-06-03T14:08:17Z</time>
      </trkpt>
      <trkpt lat="48.57495" lon="7.7614">
        <ele>139.6</ele>
        <time>2016-06-03T14:08:21Z</time>
      </trkpt>
      <trkpt lat="48.57494" lon="7.76168">
        <ele>139.2</ele>
        <time>2016-06-03T14:08:25Z</time>
      </trkpt>
      <trkpt lat="48.57492" lon="7.76193">
        <ele>138.8</ele>
        <time>2016-06-03T14:08:29Z</time>
      </trkpt>
      <trkpt lat="48.57488" lon="7.76222">
        <ele>138.3</ele>
        <time>2016-06-03T14:08:34Z</time>
      </trkpt>
      <trkpt lat="48.57483" lon="7.76249">
        <ele>137.5</ele>
        <time>2016-06-03T14:08:39Z</time>
      </trkpt>
      <trkpt lat="48.5748" lon="7.76276">
        <ele>136.7</ele>
        <time>2016-06-03T14:08:44Z</time>
      </trkpt>
      <trkpt lat="48.57478" lon="7.76303">
        <ele>136.6</ele>
        <time>2016-06-03T14:08:48Z</time>
      </trkpt>
      <trkpt lat="48.57477" lon="7.76332">
        <ele>137.4</ele>
        <time>2016-06-03T14:08:52Z</time>
      </trkpt>
      <trkpt lat="48.57476" lon="7.7636">
        <ele>138.3</ele>
        <time>2016-06-03T14:08:56Z</time>
      </trkpt>
      <trkpt lat="48.57474" lon="7.76388">
        <ele>138.8</ele>
        <time>2016-06-03T14:09:00Z</time>
      </trkpt>
      <trkpt lat="48.57471" lon="7.76417">
        <ele>138.6</ele>
        <time>2016-06-03T14:09:04Z</time>
      </trkpt>
      <trkpt lat="48.57468" lon="7.76445">
        <ele>138.4</ele>
        <time>2016-06-03T14:09:08Z</time>
      </trkpt>
      <trkpt lat="48.57465" lon="7.76477">
        <ele>137.6</ele>
        <time>2016-06-03T14:09:13Z</time>
      </trkpt>
      <trkpt lat="48.57462" lon="7.76508">
        <ele>136.4</ele>
        <time>2016-06-03T14:09:18Z</time>
      </trkpt>
      <trkpt lat="48.57459" lon="7.76539">
        <ele>135.1</ele>
        <time>2016-06-03T14:09:23Z</time>
      </trkpt>
      <trkpt lat="48.57458" lon="7.76567">
        <ele>134.7</ele>
        <time>2016-06-03T14:09:27Z</time>
      </trkpt>
      <trkpt lat="48.57456" lon="7.76598">
        <ele>134.4</ele>
        <time>2016-06-03T14:09:32Z</time>
      </trkpt>
      <trkpt lat="48.57453" lon="7.76629">
        <ele>134.2</ele>
        <time>2016-06-03T14:09:38Z</time>
      </trkpt>
      <trkpt lat="48.57453" lon="7.76657">
        <ele>134.7</ele>
        <time>2016-06-03T14:09:45Z</time>
      </trkpt>
      <trkpt lat="48.57455" lon="7.76665">
        <ele>134.9</ele>
        <time>2016-06-03T14:09:50Z</time>
      </trkpt>
      <trkpt lat="48.57468" lon="7.76685">
        <ele>136</ele>
        <time>2016-06-03T14:10:20Z</time>
      </trkpt>
      <trkpt lat="48.57478" lon="7.76686">
        <ele>136.6</ele>
        <time>2016-06-03T14:10:24Z</time>
      </trkpt>
      <trkpt lat="48.57498" lon="7.76687">
        <ele>137.7</ele>
        <time>2016-06-03T14:10:31Z</time>
      </trkpt>
      <trkpt lat="48.57516" lon="7.7669">
        <ele>138.8</ele>
        <time>2016-06-03T14:10:37Z</time>
      </trkpt>
      <trkpt lat="48.57533" lon="7.76699">
        <ele>140.1</ele>
        <time>2016-06-03T14:10:43Z</time>
      </trkpt>
      <trkpt lat="48.57553" lon="7.76708">
        <ele>141</ele>
        <time>2016-06-03T14:10:48Z</time>
      </trkpt>
      <trkpt lat="48.57571" lon="7.76725">
        <ele>141.1</ele>
        <time>2016-06-03T14:10:53Z</time>
      </trkpt>
      <trkpt lat="48.5758" lon="7.76728">
        <ele>141</ele>
        <time>2016-06-03T14:10:54Z</time>
      </trkpt>
      <trkpt lat="48.57602" lon="7.76739">
        <ele>140.8</ele>
        <time>2016-06-03T14:10:57Z</time>
      </trkpt>
      <trkpt lat="48.57619" lon="7.7675">
        <ele>140.6</ele>
        <time>2016-06-03T14:10:59Z</time>
      </trkpt>
      <trkpt lat="48.57633" lon="7.76768">
        <ele>140.4</ele>
        <time>2016-06-03T14:11:02Z</time>
      </trkpt>
      <trkpt lat="48.57635" lon="7.76778">
        <ele>140.4</ele>
        <time>2016-06-03T14:11:04Z</time>
      </trkpt>
      <trkpt lat="48.57644" lon="7.76806">
        <ele>140.4</ele>
        <time>2016-06-03T14:11:09Z</time>
      </trkpt>
      <trkpt lat="48.57652" lon="7.76833">
        <ele>140.5</ele>
        <time>2016-06-03T14:11:17Z</time>
      </trkpt>
      <trkpt lat="48.57661" lon="7.7684">
        <ele>140.6</ele>
        <time>2016-06-03T14:11:23Z</time>
      </trkpt>
      <trkpt lat="48.57674" lon="7.76855">
        <ele>140.7</ele>
        <time>2016-06-03T14:11:33Z</time>
      </trkpt>
      <trkpt lat="48.57672" lon="7.76867">
        <ele>140.6</ele>
        <time>2016-06-03T14:11:39Z</time>
      </trkpt>
      <trkpt lat="48.5768" lon="7.7687">
        <ele>140.7</ele>
        <time>2016-06-03T14:11:48Z</time>
      </trkpt>
      <trkpt lat="48.57698" lon="7.76867">
        <ele>141</ele>
        <time>2016-06-03T14:11:55Z</time>
      </trkpt>
      <trkpt lat="48.57695" lon="7.76866">
        <ele>140.9</ele>
        <time>2016-06-03T14:11:59Z</time>
      </trkpt>
      <trkpt lat="48.57714" lon="7.76872">
        <ele>141.3</ele>
        <time>2016-06-03T14:12:11Z</time>
      </trkpt>
      <trkpt lat="48.5773" lon="7.76894">
        <ele>142</ele>
        <time>2016-06-03T14:12:20Z</time>
      </trkpt>
      <trkpt lat="48.57749" lon="7.76901">
        <ele>143.1</ele>
        <time>2016-06-03T14:12:27Z</time>
      </trkpt>
      <trkpt lat="48.57769" lon="7.76917">
        <ele>144.5</ele>
        <time>2016-06-03T14:12:32Z</time>
      </trkpt>
      <trkpt lat="48.5779" lon="7.7692">
        <ele>146</ele>
        <time>2016-06-03T14:12:37Z</time>
      </trkpt>
      <trkpt lat="48.57809" lon="7.76921">
        <ele>146.3</ele>
        <time>2016-06-03T14:12:44Z</time>
      </trkpt>
      <trkpt lat="48.57826" lon="7.76917">
        <ele>146.4</ele>
        <time>2016-06-03T14:12:56Z</time>
      </trkpt>
      <trkpt lat="48.57847" lon="7.76926">
        <ele>146.6</ele>
        <time>2016-06-03T14:13:05Z</time>
      </trkpt>
      <trkpt lat="48.57866" lon="7.76931">
        <ele>146.6</ele>
        <time>2016-06-03T14:13:12Z</time>
      </trkpt>
      <trkpt lat="48.57871" lon="7.76932">
        <ele>146.6</ele>
        <time>2016-06-03T14:13:18Z</time>
      </trkpt>
      <trkpt lat="48.57892" lon="7.76939">
        <ele>146</ele>
        <time>2016-06-03T14:14:20Z</time>
      </trkpt>
      <trkpt lat="48.57912" lon="7.76941">
        <ele>145.5</ele>
        <time>2016-06-03T14:14:27Z</time>
      </trkpt>
      <trkpt lat="48.57932" lon="7.76943">
        <ele>145.1</ele>
        <time>2016-06-03T14:14:33Z</time>
      </trkpt>
      <trkpt lat="48.57953" lon="7.76946">
        <ele>144.7</ele>
        <time>2016-06-03T14:14:39Z</time>
      </trkpt>
      <trkpt lat="48.57974" lon="7.76951">
        <ele>144.4</ele>
        <time>2016-06-03T14:14:45Z</time>
      </trkpt>
      <trkpt lat="48.57994" lon="7.76956">
        <ele>144.1</ele>
        <time>2016-06-03T14:14:51Z</time>
      </trkpt>
      <trkpt lat="48.58012" lon="7.76959">
        <ele>143.7</ele>
        <time>2016-06-03T14:14:56Z</time>
      </trkpt>
      <trkpt lat="48.58033" lon="7.76963">
        <ele>143.3</ele>
        <time>2016-06-03T14:15:01Z</time>
      </trkpt>
      <trkpt lat="48.58052" lon="7.76969">
        <ele>142.8</ele>
        <time>2016-06-03T14:15:06Z</time>
      </trkpt>
      <trkpt lat="48.58057" lon="7.76969">
        <ele>142.5</ele>
        <time>2016-06-03T14:15:07Z</time>
      </trkpt>
      <trkpt lat="48.58068" lon="7.76971">
        <ele>142</ele>
        <time>2016-06-03T14:15:09Z</time>
      </trkpt>
      <trkpt lat="48.58088" lon="7.76979">
        <ele>141.3</ele>
        <time>2016-06-03T14:15:15Z</time>
      </trkpt>
      <trkpt lat="48.58092" lon="7.76981">
        <ele>141.1</ele>
        <time>2016-06-03T14:15:17Z</time>
      </trkpt>
      <trkpt lat="48.58102" lon="7.76982">
        <ele>140.7</ele>
        <time>2016-06-03T14:15:21Z</time>
      </trkpt>
      <trkpt lat="48.58118" lon="7.76996">
        <ele>140.2</ele>
        <time>2016-06-03T14:15:30Z</time>
      </trkpt>
      <trkpt lat="48.58123" lon="7.76999">
        <ele>140.1</ele>
        <time>2016-06-03T14:15:35Z</time>
      </trkpt>
    </trkseg>
  </trk>
</gpx>